<?xml version="1.0" encoding="UTF-8"?>
<gpx version="1.1" 
creator="ViewRanger/2.8.5 http://www.viewranger.com"
xmlns:xsi="http://www.w3.org/2001/XMLSchema-instance"
xmlns="http://www.topografix.com/GPX/1/1"
xmlns:viewranger="http://www.viewranger.com/xmlschemas/GpxExtensions/v2"
xmlns:gpx_style="http://www.topografix.com/GPX/gpx_style/0/2"
xsi:schemaLocation="http://www.topografix.com/GPX/1/1 http://www.topografix.com/GPX/1/1/gpx.xsd http://www.topografix.com/GPX/gpx_style/0/2
http://www.topografix.com/GPX/gpx_style/0/2/gpx_style.xsd http://www.viewranger.com/xmlschemas/GpxExtensions/v2 http://www.viewranger.com/xmlschemas/GpxExtensions/v2/GpxExtensionsV2.xsd">
<trk>
<name><![CDATA[Strecke 16.05.10 08:54]]></name>
<trkseg>
<trkpt lat="48.138550" lon="8.747920"><ele>903.0</ele><time>2010-05-16T06:54:39Z</time></trkpt>
<trkpt lat="48.138413" lon="8.748071"><ele>905.0</ele><time>2010-05-16T06:57:23Z</time></trkpt>
<trkpt lat="48.138284" lon="8.748252"><ele>901.0</ele><time>2010-05-16T06:58:05Z</time></trkpt>
<trkpt lat="48.138169" lon="8.748438"><ele>897.0</ele><time>2010-05-16T06:58:40Z</time></trkpt>
<trkpt lat="48.138279" lon="8.748509"><ele>896.0</ele><time>2010-05-16T07:00:07Z</time></trkpt>
<trkpt lat="48.138380" lon="8.749355"><ele>899.0</ele><time>2010-05-16T07:00:16Z</time></trkpt>
<trkpt lat="48.138105" lon="8.749507"><ele>893.0</ele><time>2010-05-16T07:00:25Z</time></trkpt>
<trkpt lat="48.137630" lon="8.749634"><ele>889.0</ele><time>2010-05-16T07:00:34Z</time></trkpt>
<trkpt lat="48.137533" lon="8.750185"><ele>887.0</ele><time>2010-05-16T07:00:43Z</time></trkpt>
<trkpt lat="48.137793" lon="8.750827"><ele>885.0</ele><time>2010-05-16T07:00:52Z</time></trkpt>
<trkpt lat="48.137930" lon="8.751465"><ele>885.0</ele><time>2010-05-16T07:01:01Z</time></trkpt>
<trkpt lat="48.138073" lon="8.752048"><ele>884.0</ele><time>2010-05-16T07:01:10Z</time></trkpt>
<trkpt lat="48.138184" lon="8.752377"><ele>882.0</ele><time>2010-05-16T07:01:19Z</time></trkpt>
<trkpt lat="48.138334" lon="8.752237"><ele>882.0</ele><time>2010-05-16T07:06:03Z</time></trkpt>
<trkpt lat="48.138345" lon="8.752002"><ele>884.0</ele><time>2010-05-16T07:06:13Z</time></trkpt>
<trkpt lat="48.138222" lon="8.751677"><ele>885.0</ele><time>2010-05-16T07:06:22Z</time></trkpt>
<trkpt lat="48.138263" lon="8.751289"><ele>887.0</ele><time>2010-05-16T07:06:31Z</time></trkpt>
<trkpt lat="48.138564" lon="8.751645"><ele>881.0</ele><time>2010-05-16T07:06:40Z</time></trkpt>
<trkpt lat="48.138822" lon="8.752255"><ele>881.0</ele><time>2010-05-16T07:06:49Z</time></trkpt>
<trkpt lat="48.139029" lon="8.752886"><ele>877.0</ele><time>2010-05-16T07:06:58Z</time></trkpt>
<trkpt lat="48.139218" lon="8.753609"><ele>875.0</ele><time>2010-05-16T07:07:07Z</time></trkpt>
<trkpt lat="48.139425" lon="8.754319"><ele>873.0</ele><time>2010-05-16T07:07:16Z</time></trkpt>
<trkpt lat="48.139631" lon="8.754943"><ele>871.0</ele><time>2010-05-16T07:07:25Z</time></trkpt>
<trkpt lat="48.140062" lon="8.755317"><ele>866.0</ele><time>2010-05-16T07:07:34Z</time></trkpt>
<trkpt lat="48.140589" lon="8.755897"><ele>863.0</ele><time>2010-05-16T07:07:43Z</time></trkpt>
<trkpt lat="48.140988" lon="8.756474"><ele>864.0</ele><time>2010-05-16T07:07:52Z</time></trkpt>
<trkpt lat="48.141390" lon="8.756665"><ele>866.0</ele><time>2010-05-16T07:08:01Z</time></trkpt>
<trkpt lat="48.141743" lon="8.756623"><ele>868.0</ele><time>2010-05-16T07:08:10Z</time></trkpt>
<trkpt lat="48.142065" lon="8.756610"><ele>870.0</ele><time>2010-05-16T07:08:19Z</time></trkpt>
<trkpt lat="48.142338" lon="8.756791"><ele>873.0</ele><time>2010-05-16T07:08:28Z</time></trkpt>
<trkpt lat="48.142610" lon="8.757000"><ele>875.0</ele><time>2010-05-16T07:08:37Z</time></trkpt>
<trkpt lat="48.142845" lon="8.757189"><ele>878.0</ele><time>2010-05-16T07:08:46Z</time></trkpt>
<trkpt lat="48.142910" lon="8.757437"><ele>879.0</ele><time>2010-05-16T07:10:36Z</time></trkpt>
<trkpt lat="48.142910" lon="8.757668"><ele>879.0</ele><time>2010-05-16T07:11:25Z</time></trkpt>
<trkpt lat="48.142912" lon="8.758175"><ele>877.0</ele><time>2010-05-16T07:11:34Z</time></trkpt>
<trkpt lat="48.142933" lon="8.758821"><ele>875.0</ele><time>2010-05-16T07:11:43Z</time></trkpt>
<trkpt lat="48.142840" lon="8.759339"><ele>872.0</ele><time>2010-05-16T07:11:52Z</time></trkpt>
<trkpt lat="48.142857" lon="8.759775"><ele>870.0</ele><time>2010-05-16T07:12:01Z</time></trkpt>
<trkpt lat="48.142881" lon="8.760224"><ele>868.0</ele><time>2010-05-16T07:12:10Z</time></trkpt>
<trkpt lat="48.142912" lon="8.760725"><ele>867.0</ele><time>2010-05-16T07:12:19Z</time></trkpt>
<trkpt lat="48.142954" lon="8.761264"><ele>866.0</ele><time>2010-05-16T07:12:28Z</time></trkpt>
<trkpt lat="48.142996" lon="8.761839"><ele>865.0</ele><time>2010-05-16T07:12:37Z</time></trkpt>
<trkpt lat="48.143046" lon="8.762413"><ele>862.0</ele><time>2010-05-16T07:12:46Z</time></trkpt>
<trkpt lat="48.143112" lon="8.762981"><ele>861.0</ele><time>2010-05-16T07:12:55Z</time></trkpt>
<trkpt lat="48.143177" lon="8.763540"><ele>864.0</ele><time>2010-05-16T07:13:04Z</time></trkpt>
<trkpt lat="48.143250" lon="8.764148"><ele>866.0</ele><time>2010-05-16T07:13:13Z</time></trkpt>
<trkpt lat="48.143306" lon="8.764711"><ele>866.0</ele><time>2010-05-16T07:13:21Z</time></trkpt>
<trkpt lat="48.143400" lon="8.765338"><ele>865.0</ele><time>2010-05-16T07:13:30Z</time></trkpt>
<trkpt lat="48.143473" lon="8.766009"><ele>867.0</ele><time>2010-05-16T07:13:39Z</time></trkpt>
<trkpt lat="48.143551" lon="8.766673"><ele>869.0</ele><time>2010-05-16T07:13:48Z</time></trkpt>
<trkpt lat="48.143638" lon="8.767349"><ele>871.0</ele><time>2010-05-16T07:13:57Z</time></trkpt>
<trkpt lat="48.143714" lon="8.767933"><ele>870.0</ele><time>2010-05-16T07:14:06Z</time></trkpt>
<trkpt lat="48.143776" lon="8.768551"><ele>869.0</ele><time>2010-05-16T07:14:15Z</time></trkpt>
<trkpt lat="48.143880" lon="8.769366"><ele>867.0</ele><time>2010-05-16T07:14:24Z</time></trkpt>
<trkpt lat="48.143958" lon="8.770241"><ele>867.0</ele><time>2010-05-16T07:14:33Z</time></trkpt>
<trkpt lat="48.143894" lon="8.771167"><ele>863.0</ele><time>2010-05-16T07:14:42Z</time></trkpt>
<trkpt lat="48.143656" lon="8.772020"><ele>861.0</ele><time>2010-05-16T07:14:51Z</time></trkpt>
<trkpt lat="48.143306" lon="8.772789"><ele>859.0</ele><time>2010-05-16T07:15:00Z</time></trkpt>
<trkpt lat="48.143001" lon="8.773586"><ele>855.0</ele><time>2010-05-16T07:15:09Z</time></trkpt>
<trkpt lat="48.142835" lon="8.774419"><ele>852.0</ele><time>2010-05-16T07:15:18Z</time></trkpt>
<trkpt lat="48.142774" lon="8.775325"><ele>850.0</ele><time>2010-05-16T07:15:27Z</time></trkpt>
<trkpt lat="48.142763" lon="8.776279"><ele>850.0</ele><time>2010-05-16T07:15:36Z</time></trkpt>
<trkpt lat="48.142767" lon="8.777222"><ele>849.0</ele><time>2010-05-16T07:15:45Z</time></trkpt>
<trkpt lat="48.142824" lon="8.778130"><ele>848.0</ele><time>2010-05-16T07:15:54Z</time></trkpt>
<trkpt lat="48.142952" lon="8.779003"><ele>848.0</ele><time>2010-05-16T07:16:03Z</time></trkpt>
<trkpt lat="48.143144" lon="8.779856"><ele>849.0</ele><time>2010-05-16T07:16:12Z</time></trkpt>
<trkpt lat="48.143394" lon="8.780680"><ele>850.0</ele><time>2010-05-16T07:16:21Z</time></trkpt>
<trkpt lat="48.143713" lon="8.781444"><ele>850.0</ele><time>2010-05-16T07:16:30Z</time></trkpt>
<trkpt lat="48.144097" lon="8.782159"><ele>847.0</ele><time>2010-05-16T07:16:39Z</time></trkpt>
<trkpt lat="48.144498" lon="8.782934"><ele>844.0</ele><time>2010-05-16T07:16:48Z</time></trkpt>
<trkpt lat="48.144918" lon="8.783762"><ele>842.0</ele><time>2010-05-16T07:16:57Z</time></trkpt>
<trkpt lat="48.145280" lon="8.784500"><ele>842.0</ele><time>2010-05-16T07:17:06Z</time></trkpt>
<trkpt lat="48.145760" lon="8.784967"><ele>839.0</ele><time>2010-05-16T07:17:15Z</time></trkpt>
<trkpt lat="48.146169" lon="8.785137"><ele>842.0</ele><time>2010-05-16T07:17:24Z</time></trkpt>
<trkpt lat="48.146367" lon="8.785452"><ele>842.0</ele><time>2010-05-16T07:17:33Z</time></trkpt>
<trkpt lat="48.146683" lon="8.785679"><ele>841.0</ele><time>2010-05-16T07:17:42Z</time></trkpt>
<trkpt lat="48.146972" lon="8.785633"><ele>842.0</ele><time>2010-05-16T07:17:51Z</time></trkpt>
<trkpt lat="48.147246" lon="8.785940"><ele>842.0</ele><time>2010-05-16T07:18:00Z</time></trkpt>
<trkpt lat="48.147602" lon="8.786082"><ele>839.0</ele><time>2010-05-16T07:18:09Z</time></trkpt>
<trkpt lat="48.148002" lon="8.785998"><ele>840.0</ele><time>2010-05-16T07:18:18Z</time></trkpt>
<trkpt lat="48.148334" lon="8.785959"><ele>841.0</ele><time>2010-05-16T07:18:27Z</time></trkpt>
<trkpt lat="48.148664" lon="8.786197"><ele>839.0</ele><time>2010-05-16T07:18:36Z</time></trkpt>
<trkpt lat="48.149020" lon="8.786037"><ele>839.0</ele><time>2010-05-16T07:18:45Z</time></trkpt>
<trkpt lat="48.149433" lon="8.785925"><ele>839.0</ele><time>2010-05-16T07:18:54Z</time></trkpt>
<trkpt lat="48.149862" lon="8.785833"><ele>841.0</ele><time>2010-05-16T07:19:03Z</time></trkpt>
<trkpt lat="48.150111" lon="8.786124"><ele>838.0</ele><time>2010-05-16T07:19:12Z</time></trkpt>
<trkpt lat="48.150188" lon="8.786780"><ele>837.0</ele><time>2010-05-16T07:19:21Z</time></trkpt>
<trkpt lat="48.150605" lon="8.786819"><ele>837.0</ele><time>2010-05-16T07:19:30Z</time></trkpt>
<trkpt lat="48.151046" lon="8.786828"><ele>837.0</ele><time>2010-05-16T07:19:39Z</time></trkpt>
<trkpt lat="48.151516" lon="8.786855"><ele>838.0</ele><time>2010-05-16T07:19:48Z</time></trkpt>
<trkpt lat="48.152011" lon="8.786856"><ele>838.0</ele><time>2010-05-16T07:19:57Z</time></trkpt>
<trkpt lat="48.152514" lon="8.786814"><ele>838.0</ele><time>2010-05-16T07:20:06Z</time></trkpt>
<trkpt lat="48.152996" lon="8.786695"><ele>838.0</ele><time>2010-05-16T07:20:15Z</time></trkpt>
<trkpt lat="48.153446" lon="8.786551"><ele>838.0</ele><time>2010-05-16T07:20:24Z</time></trkpt>
<trkpt lat="48.153886" lon="8.786398"><ele>839.0</ele><time>2010-05-16T07:20:33Z</time></trkpt>
<trkpt lat="48.154337" lon="8.786213"><ele>839.0</ele><time>2010-05-16T07:20:42Z</time></trkpt>
<trkpt lat="48.154767" lon="8.786061"><ele>839.0</ele><time>2010-05-16T07:20:51Z</time></trkpt>
<trkpt lat="48.155147" lon="8.785999"><ele>840.0</ele><time>2010-05-16T07:21:00Z</time></trkpt>
<trkpt lat="48.155420" lon="8.786393"><ele>840.0</ele><time>2010-05-16T07:21:09Z</time></trkpt>
<trkpt lat="48.155827" lon="8.786360"><ele>842.0</ele><time>2010-05-16T07:21:18Z</time></trkpt>
<trkpt lat="48.156209" lon="8.786275"><ele>842.0</ele><time>2010-05-16T07:21:27Z</time></trkpt>
<trkpt lat="48.156582" lon="8.786203"><ele>843.0</ele><time>2010-05-16T07:21:36Z</time></trkpt>
<trkpt lat="48.156938" lon="8.786144"><ele>843.0</ele><time>2010-05-16T07:21:45Z</time></trkpt>
<trkpt lat="48.157333" lon="8.786100"><ele>842.0</ele><time>2010-05-16T07:21:54Z</time></trkpt>
<trkpt lat="48.157738" lon="8.786101"><ele>842.0</ele><time>2010-05-16T07:22:03Z</time></trkpt>
<trkpt lat="48.158151" lon="8.786118"><ele>841.0</ele><time>2010-05-16T07:22:12Z</time></trkpt>
<trkpt lat="48.158557" lon="8.786132"><ele>842.0</ele><time>2010-05-16T07:22:21Z</time></trkpt>
<trkpt lat="48.158978" lon="8.786127"><ele>843.0</ele><time>2010-05-16T07:22:30Z</time></trkpt>
<trkpt lat="48.159358" lon="8.786091"><ele>845.0</ele><time>2010-05-16T07:22:39Z</time></trkpt>
<trkpt lat="48.159693" lon="8.786092"><ele>845.0</ele><time>2010-05-16T07:22:48Z</time></trkpt>
<trkpt lat="48.159972" lon="8.786073"><ele>843.0</ele><time>2010-05-16T07:22:57Z</time></trkpt>
<trkpt lat="48.160291" lon="8.785995"><ele>844.0</ele><time>2010-05-16T07:23:06Z</time></trkpt>
<trkpt lat="48.160581" lon="8.785886"><ele>841.0</ele><time>2010-05-16T07:23:15Z</time></trkpt>
<trkpt lat="48.160789" lon="8.785785"><ele>838.0</ele><time>2010-05-16T07:23:24Z</time></trkpt>
<trkpt lat="48.161170" lon="8.785581"><ele>837.0</ele><time>2010-05-16T07:23:33Z</time></trkpt>
<trkpt lat="48.161527" lon="8.785389"><ele>838.0</ele><time>2010-05-16T07:23:42Z</time></trkpt>
<trkpt lat="48.161890" lon="8.785214"><ele>839.0</ele><time>2010-05-16T07:23:51Z</time></trkpt>
<trkpt lat="48.162277" lon="8.785019"><ele>839.0</ele><time>2010-05-16T07:24:00Z</time></trkpt>
<trkpt lat="48.162701" lon="8.784961"><ele>843.0</ele><time>2010-05-16T07:24:09Z</time></trkpt>
<trkpt lat="48.163098" lon="8.784902"><ele>845.0</ele><time>2010-05-16T07:24:18Z</time></trkpt>
<trkpt lat="48.163452" lon="8.784850"><ele>846.0</ele><time>2010-05-16T07:24:27Z</time></trkpt>
<trkpt lat="48.163806" lon="8.784716"><ele>848.0</ele><time>2010-05-16T07:24:36Z</time></trkpt>
<trkpt lat="48.164159" lon="8.784553"><ele>851.0</ele><time>2010-05-16T07:24:45Z</time></trkpt>
<trkpt lat="48.164526" lon="8.784370"><ele>853.0</ele><time>2010-05-16T07:24:54Z</time></trkpt>
<trkpt lat="48.164808" lon="8.784185"><ele>855.0</ele><time>2010-05-16T07:25:01Z</time></trkpt>
<trkpt lat="48.165192" lon="8.783789"><ele>856.0</ele><time>2010-05-16T07:25:10Z</time></trkpt>
<trkpt lat="48.165309" lon="8.783148"><ele>854.0</ele><time>2010-05-16T07:25:19Z</time></trkpt>
<trkpt lat="48.165223" lon="8.782220"><ele>853.0</ele><time>2010-05-16T07:25:28Z</time></trkpt>
<trkpt lat="48.165192" lon="8.781419"><ele>853.0</ele><time>2010-05-16T07:25:37Z</time></trkpt>
<trkpt lat="48.165166" lon="8.780658"><ele>852.0</ele><time>2010-05-16T07:25:46Z</time></trkpt>
<trkpt lat="48.165267" lon="8.779984"><ele>854.0</ele><time>2010-05-16T07:25:55Z</time></trkpt>
<trkpt lat="48.165648" lon="8.779791"><ele>855.0</ele><time>2010-05-16T07:26:04Z</time></trkpt>
<trkpt lat="48.166084" lon="8.779658"><ele>855.0</ele><time>2010-05-16T07:26:13Z</time></trkpt>
<trkpt lat="48.166568" lon="8.779711"><ele>855.0</ele><time>2010-05-16T07:26:22Z</time></trkpt>
<trkpt lat="48.167048" lon="8.779743"><ele>855.0</ele><time>2010-05-16T07:26:31Z</time></trkpt>
<trkpt lat="48.167569" lon="8.779765"><ele>854.0</ele><time>2010-05-16T07:26:40Z</time></trkpt>
<trkpt lat="48.168056" lon="8.779726"><ele>854.0</ele><time>2010-05-16T07:26:49Z</time></trkpt>
<trkpt lat="48.168488" lon="8.779615"><ele>854.0</ele><time>2010-05-16T07:26:58Z</time></trkpt>
<trkpt lat="48.168911" lon="8.779673"><ele>855.0</ele><time>2010-05-16T07:27:07Z</time></trkpt>
<trkpt lat="48.169324" lon="8.779960"><ele>856.0</ele><time>2010-05-16T07:27:16Z</time></trkpt>
<trkpt lat="48.169793" lon="8.780138"><ele>856.0</ele><time>2010-05-16T07:27:25Z</time></trkpt>
<trkpt lat="48.170103" lon="8.780492"><ele>857.0</ele><time>2010-05-16T07:27:34Z</time></trkpt>
<trkpt lat="48.170180" lon="8.781182"><ele>858.0</ele><time>2010-05-16T07:27:43Z</time></trkpt>
<trkpt lat="48.170254" lon="8.781876"><ele>859.0</ele><time>2010-05-16T07:27:52Z</time></trkpt>
<trkpt lat="48.170488" lon="8.782257"><ele>860.0</ele><time>2010-05-16T07:28:01Z</time></trkpt>
<trkpt lat="48.170861" lon="8.782145"><ele>859.0</ele><time>2010-05-16T07:28:10Z</time></trkpt>
<trkpt lat="48.171247" lon="8.782053"><ele>859.0</ele><time>2010-05-16T07:28:19Z</time></trkpt>
<trkpt lat="48.171609" lon="8.782254"><ele>860.0</ele><time>2010-05-16T07:28:28Z</time></trkpt>
<trkpt lat="48.171928" lon="8.782491"><ele>862.0</ele><time>2010-05-16T07:28:37Z</time></trkpt>
<trkpt lat="48.172243" lon="8.782720"><ele>863.0</ele><time>2010-05-16T07:28:46Z</time></trkpt>
<trkpt lat="48.172587" lon="8.782941"><ele>864.0</ele><time>2010-05-16T07:28:55Z</time></trkpt>
<trkpt lat="48.172954" lon="8.783107"><ele>865.0</ele><time>2010-05-16T07:29:04Z</time></trkpt>
<trkpt lat="48.173305" lon="8.783250"><ele>867.0</ele><time>2010-05-16T07:29:13Z</time></trkpt>
<trkpt lat="48.173634" lon="8.783334"><ele>868.0</ele><time>2010-05-16T07:29:22Z</time></trkpt>
<trkpt lat="48.173830" lon="8.783365"><ele>868.0</ele><time>2010-05-16T07:29:31Z</time></trkpt>
<trkpt lat="48.173926" lon="8.783533"><ele>871.0</ele><time>2010-05-16T07:29:42Z</time></trkpt>
<trkpt lat="48.173977" lon="8.783815"><ele>870.0</ele><time>2010-05-16T07:29:51Z</time></trkpt>
<trkpt lat="48.174036" lon="8.784189"><ele>871.0</ele><time>2010-05-16T07:30:00Z</time></trkpt>
<trkpt lat="48.174101" lon="8.784557"><ele>874.0</ele><time>2010-05-16T07:30:09Z</time></trkpt>
<trkpt lat="48.174190" lon="8.784883"><ele>872.0</ele><time>2010-05-16T07:30:18Z</time></trkpt>
<trkpt lat="48.174313" lon="8.785069"><ele>870.0</ele><time>2010-05-16T07:30:27Z</time></trkpt>
<trkpt lat="48.174639" lon="8.784974"><ele>873.0</ele><time>2010-05-16T07:30:36Z</time></trkpt>
<trkpt lat="48.175048" lon="8.784826"><ele>876.0</ele><time>2010-05-16T07:30:45Z</time></trkpt>
<trkpt lat="48.175453" lon="8.784699"><ele>878.0</ele><time>2010-05-16T07:30:54Z</time></trkpt>
<trkpt lat="48.175807" lon="8.784336"><ele>878.0</ele><time>2010-05-16T07:31:03Z</time></trkpt>
<trkpt lat="48.176256" lon="8.784025"><ele>877.0</ele><time>2010-05-16T07:31:12Z</time></trkpt>
<trkpt lat="48.176717" lon="8.783828"><ele>876.0</ele><time>2010-05-16T07:31:21Z</time></trkpt>
<trkpt lat="48.177085" lon="8.783417"><ele>876.0</ele><time>2010-05-16T07:31:30Z</time></trkpt>
<trkpt lat="48.177152" lon="8.783204"><ele>873.0</ele><time>2010-05-16T07:32:01Z</time></trkpt>
<trkpt lat="48.177212" lon="8.782666"><ele>870.0</ele><time>2010-05-16T07:32:10Z</time></trkpt>
<trkpt lat="48.177251" lon="8.781886"><ele>868.0</ele><time>2010-05-16T07:32:19Z</time></trkpt>
<trkpt lat="48.177305" lon="8.780998"><ele>867.0</ele><time>2010-05-16T07:32:28Z</time></trkpt>
<trkpt lat="48.177472" lon="8.780138"><ele>869.0</ele><time>2010-05-16T07:32:37Z</time></trkpt>
<trkpt lat="48.177713" lon="8.779377"><ele>869.0</ele><time>2010-05-16T07:32:46Z</time></trkpt>
<trkpt lat="48.177995" lon="8.778566"><ele>868.0</ele><time>2010-05-16T07:32:55Z</time></trkpt>
<trkpt lat="48.178428" lon="8.778042"><ele>868.0</ele><time>2010-05-16T07:33:04Z</time></trkpt>
<trkpt lat="48.178885" lon="8.777681"><ele>868.0</ele><time>2010-05-16T07:33:13Z</time></trkpt>
<trkpt lat="48.179274" lon="8.777354"><ele>868.0</ele><time>2010-05-16T07:33:21Z</time></trkpt>
<trkpt lat="48.179630" lon="8.776961"><ele>870.0</ele><time>2010-05-16T07:33:30Z</time></trkpt>
<trkpt lat="48.179921" lon="8.776556"><ele>870.0</ele><time>2010-05-16T07:33:39Z</time></trkpt>
<trkpt lat="48.180189" lon="8.776093"><ele>872.0</ele><time>2010-05-16T07:33:48Z</time></trkpt>
<trkpt lat="48.180411" lon="8.775597"><ele>871.0</ele><time>2010-05-16T07:33:57Z</time></trkpt>
<trkpt lat="48.180596" lon="8.775068"><ele>873.0</ele><time>2010-05-16T07:34:06Z</time></trkpt>
<trkpt lat="48.180727" lon="8.774492"><ele>874.0</ele><time>2010-05-16T07:34:15Z</time></trkpt>
<trkpt lat="48.180819" lon="8.773916"><ele>875.0</ele><time>2010-05-16T07:34:24Z</time></trkpt>
<trkpt lat="48.180871" lon="8.773410"><ele>874.0</ele><time>2010-05-16T07:34:33Z</time></trkpt>
<trkpt lat="48.180930" lon="8.772886"><ele>872.0</ele><time>2010-05-16T07:34:42Z</time></trkpt>
<trkpt lat="48.181003" lon="8.772351"><ele>868.0</ele><time>2010-05-16T07:34:51Z</time></trkpt>
<trkpt lat="48.181049" lon="8.771957"><ele>865.0</ele><time>2010-05-16T07:35:00Z</time></trkpt>
<trkpt lat="48.181250" lon="8.771398"><ele>861.0</ele><time>2010-05-16T07:35:09Z</time></trkpt>
<trkpt lat="48.181541" lon="8.770839"><ele>861.0</ele><time>2010-05-16T07:35:18Z</time></trkpt>
<trkpt lat="48.181852" lon="8.770790"><ele>867.0</ele><time>2010-05-16T07:35:27Z</time></trkpt>
<trkpt lat="48.182187" lon="8.770857"><ele>863.0</ele><time>2010-05-16T07:35:36Z</time></trkpt>
<trkpt lat="48.182659" lon="8.770912"><ele>866.0</ele><time>2010-05-16T07:35:45Z</time></trkpt>
<trkpt lat="48.183225" lon="8.771022"><ele>863.0</ele><time>2010-05-16T07:35:54Z</time></trkpt>
<trkpt lat="48.183734" lon="8.771576"><ele>857.0</ele><time>2010-05-16T07:36:03Z</time></trkpt>
<trkpt lat="48.184087" lon="8.772422"><ele>854.0</ele><time>2010-05-16T07:36:12Z</time></trkpt>
<trkpt lat="48.184455" lon="8.773202"><ele>848.0</ele><time>2010-05-16T07:36:21Z</time></trkpt>
<trkpt lat="48.184377" lon="8.773971"><ele>848.0</ele><time>2010-05-16T07:36:30Z</time></trkpt>
<trkpt lat="48.184654" lon="8.773864"><ele>847.0</ele><time>2010-05-16T07:36:39Z</time></trkpt>
<trkpt lat="48.185107" lon="8.773818"><ele>843.0</ele><time>2010-05-16T07:36:48Z</time></trkpt>
<trkpt lat="48.185634" lon="8.774018"><ele>834.0</ele><time>2010-05-16T07:36:57Z</time></trkpt>
<trkpt lat="48.186076" lon="8.774518"><ele>827.0</ele><time>2010-05-16T07:37:06Z</time></trkpt>
<trkpt lat="48.185679" lon="8.774681"><ele>827.0</ele><time>2010-05-16T07:37:15Z</time></trkpt>
<trkpt lat="48.185254" lon="8.774483"><ele>826.0</ele><time>2010-05-16T07:37:24Z</time></trkpt>
<trkpt lat="48.185494" lon="8.774758"><ele>821.0</ele><time>2010-05-16T07:37:33Z</time></trkpt>
<trkpt lat="48.185884" lon="8.775287"><ele>816.0</ele><time>2010-05-16T07:37:42Z</time></trkpt>
<trkpt lat="48.186521" lon="8.775673"><ele>816.0</ele><time>2010-05-16T07:37:51Z</time></trkpt>
<trkpt lat="48.187021" lon="8.775778"><ele>813.0</ele><time>2010-05-16T07:38:00Z</time></trkpt>
<trkpt lat="48.186892" lon="8.774883"><ele>816.0</ele><time>2010-05-16T07:38:09Z</time></trkpt>
<trkpt lat="48.187027" lon="8.774358"><ele>814.0</ele><time>2010-05-16T07:38:18Z</time></trkpt>
<trkpt lat="48.187250" lon="8.775033"><ele>813.0</ele><time>2010-05-16T07:38:27Z</time></trkpt>
<trkpt lat="48.187522" lon="8.775901"><ele>813.0</ele><time>2010-05-16T07:38:36Z</time></trkpt>
<trkpt lat="48.187542" lon="8.776956"><ele>805.0</ele><time>2010-05-16T07:38:45Z</time></trkpt>
<trkpt lat="48.187797" lon="8.777253"><ele>787.0</ele><time>2010-05-16T07:38:54Z</time></trkpt>
<trkpt lat="48.188181" lon="8.776347"><ele>780.0</ele><time>2010-05-16T07:39:03Z</time></trkpt>
<trkpt lat="48.188466" lon="8.775546"><ele>772.0</ele><time>2010-05-16T07:39:12Z</time></trkpt>
<trkpt lat="48.188804" lon="8.775950"><ele>769.0</ele><time>2010-05-16T07:39:21Z</time></trkpt>
<trkpt lat="48.189094" lon="8.776824"><ele>767.0</ele><time>2010-05-16T07:39:30Z</time></trkpt>
<trkpt lat="48.189489" lon="8.777864"><ele>762.0</ele><time>2010-05-16T07:39:39Z</time></trkpt>
<trkpt lat="48.189938" lon="8.778954"><ele>757.0</ele><time>2010-05-16T07:39:48Z</time></trkpt>
<trkpt lat="48.190214" lon="8.780288"><ele>751.0</ele><time>2010-05-16T07:39:57Z</time></trkpt>
<trkpt lat="48.190415" lon="8.781833"><ele>745.0</ele><time>2010-05-16T07:40:06Z</time></trkpt>
<trkpt lat="48.191025" lon="8.783032"><ele>741.0</ele><time>2010-05-16T07:40:15Z</time></trkpt>
<trkpt lat="48.191555" lon="8.784199"><ele>738.0</ele><time>2010-05-16T07:40:24Z</time></trkpt>
<trkpt lat="48.192080" lon="8.785368"><ele>735.0</ele><time>2010-05-16T07:40:33Z</time></trkpt>
<trkpt lat="48.192433" lon="8.786633"><ele>732.0</ele><time>2010-05-16T07:40:42Z</time></trkpt>
<trkpt lat="48.192595" lon="8.787761"><ele>733.0</ele><time>2010-05-16T07:40:51Z</time></trkpt>
<trkpt lat="48.192795" lon="8.788531"><ele>734.0</ele><time>2010-05-16T07:41:00Z</time></trkpt>
<trkpt lat="48.193064" lon="8.789189"><ele>735.0</ele><time>2010-05-16T07:41:09Z</time></trkpt>
<trkpt lat="48.193312" lon="8.789851"><ele>734.0</ele><time>2010-05-16T07:41:18Z</time></trkpt>
<trkpt lat="48.193457" lon="8.790588"><ele>732.0</ele><time>2010-05-16T07:41:27Z</time></trkpt>
<trkpt lat="48.193732" lon="8.791276"><ele>730.0</ele><time>2010-05-16T07:41:36Z</time></trkpt>
<trkpt lat="48.194388" lon="8.791554"><ele>725.0</ele><time>2010-05-16T07:41:45Z</time></trkpt>
<trkpt lat="48.195023" lon="8.791898"><ele>719.0</ele><time>2010-05-16T07:41:54Z</time></trkpt>
<trkpt lat="48.195134" lon="8.792389"><ele>714.0</ele><time>2010-05-16T07:42:03Z</time></trkpt>
<trkpt lat="48.194917" lon="8.793018"><ele>716.0</ele><time>2010-05-16T07:42:12Z</time></trkpt>
<trkpt lat="48.194607" lon="8.793650"><ele>717.0</ele><time>2010-05-16T07:42:21Z</time></trkpt>
<trkpt lat="48.194482" lon="8.794329"><ele>717.0</ele><time>2010-05-16T07:42:30Z</time></trkpt>
<trkpt lat="48.194106" lon="8.794686"><ele>716.0</ele><time>2010-05-16T07:42:39Z</time></trkpt>
<trkpt lat="48.193958" lon="8.794835"><ele>720.0</ele><time>2010-05-16T07:45:41Z</time></trkpt>
<trkpt lat="48.193885" lon="8.795042"><ele>719.0</ele><time>2010-05-16T07:47:07Z</time></trkpt>
<trkpt lat="48.193712" lon="8.795455"><ele>719.0</ele><time>2010-05-16T07:47:16Z</time></trkpt>
<trkpt lat="48.193696" lon="8.796209"><ele>719.0</ele><time>2010-05-16T07:47:25Z</time></trkpt>
<trkpt lat="48.193594" lon="8.796940"><ele>721.0</ele><time>2010-05-16T07:47:34Z</time></trkpt>
<trkpt lat="48.193487" lon="8.797616"><ele>720.0</ele><time>2010-05-16T07:47:43Z</time></trkpt>
<trkpt lat="48.193423" lon="8.798281"><ele>721.0</ele><time>2010-05-16T07:47:52Z</time></trkpt>
<trkpt lat="48.193412" lon="8.798914"><ele>724.0</ele><time>2010-05-16T07:48:01Z</time></trkpt>
<trkpt lat="48.193291" lon="8.799478"><ele>727.0</ele><time>2010-05-16T07:48:10Z</time></trkpt>
<trkpt lat="48.193175" lon="8.799803"><ele>728.0</ele><time>2010-05-16T07:48:19Z</time></trkpt>
<trkpt lat="48.193039" lon="8.800125"><ele>729.0</ele><time>2010-05-16T07:48:28Z</time></trkpt>
<trkpt lat="48.192909" lon="8.800528"><ele>731.0</ele><time>2010-05-16T07:48:37Z</time></trkpt>
<trkpt lat="48.192774" lon="8.801016"><ele>732.0</ele><time>2010-05-16T07:48:46Z</time></trkpt>
<trkpt lat="48.192736" lon="8.801609"><ele>732.0</ele><time>2010-05-16T07:48:55Z</time></trkpt>
<trkpt lat="48.192734" lon="8.802138"><ele>735.0</ele><time>2010-05-16T07:49:04Z</time></trkpt>
<trkpt lat="48.192677" lon="8.802591"><ele>736.0</ele><time>2010-05-16T07:49:13Z</time></trkpt>
<trkpt lat="48.192606" lon="8.803003"><ele>735.0</ele><time>2010-05-16T07:49:22Z</time></trkpt>
<trkpt lat="48.192490" lon="8.803402"><ele>736.0</ele><time>2010-05-16T07:49:31Z</time></trkpt>
<trkpt lat="48.192338" lon="8.803774"><ele>737.0</ele><time>2010-05-16T07:49:40Z</time></trkpt>
<trkpt lat="48.192165" lon="8.804148"><ele>738.0</ele><time>2010-05-16T07:49:49Z</time></trkpt>
<trkpt lat="48.191979" lon="8.804547"><ele>739.0</ele><time>2010-05-16T07:49:58Z</time></trkpt>
<trkpt lat="48.191796" lon="8.804965"><ele>741.0</ele><time>2010-05-16T07:50:07Z</time></trkpt>
<trkpt lat="48.191609" lon="8.805372"><ele>741.0</ele><time>2010-05-16T07:50:16Z</time></trkpt>
<trkpt lat="48.191427" lon="8.805770"><ele>742.0</ele><time>2010-05-16T07:50:25Z</time></trkpt>
<trkpt lat="48.191244" lon="8.806194"><ele>742.0</ele><time>2010-05-16T07:50:34Z</time></trkpt>
<trkpt lat="48.191104" lon="8.806686"><ele>743.0</ele><time>2010-05-16T07:50:43Z</time></trkpt>
<trkpt lat="48.191030" lon="8.807202"><ele>744.0</ele><time>2010-05-16T07:50:52Z</time></trkpt>
<trkpt lat="48.191014" lon="8.807685"><ele>745.0</ele><time>2010-05-16T07:51:01Z</time></trkpt>
<trkpt lat="48.191023" lon="8.808172"><ele>746.0</ele><time>2010-05-16T07:51:10Z</time></trkpt>
<trkpt lat="48.191019" lon="8.808644"><ele>748.0</ele><time>2010-05-16T07:51:19Z</time></trkpt>
<trkpt lat="48.190966" lon="8.809117"><ele>748.0</ele><time>2010-05-16T07:51:28Z</time></trkpt>
<trkpt lat="48.190851" lon="8.809535"><ele>749.0</ele><time>2010-05-16T07:51:37Z</time></trkpt>
<trkpt lat="48.190664" lon="8.809944"><ele>750.0</ele><time>2010-05-16T07:51:46Z</time></trkpt>
<trkpt lat="48.190442" lon="8.810340"><ele>751.0</ele><time>2010-05-16T07:51:55Z</time></trkpt>
<trkpt lat="48.190202" lon="8.810796"><ele>751.0</ele><time>2010-05-16T07:52:04Z</time></trkpt>
<trkpt lat="48.190003" lon="8.811470"><ele>750.0</ele><time>2010-05-16T07:52:13Z</time></trkpt>
<trkpt lat="48.189953" lon="8.812373"><ele>748.0</ele><time>2010-05-16T07:52:22Z</time></trkpt>
<trkpt lat="48.189962" lon="8.813564"><ele>744.0</ele><time>2010-05-16T07:52:31Z</time></trkpt>
<trkpt lat="48.189840" lon="8.814976"><ele>741.0</ele><time>2010-05-16T07:52:40Z</time></trkpt>
<trkpt lat="48.189708" lon="8.816318"><ele>740.0</ele><time>2010-05-16T07:52:49Z</time></trkpt>
<trkpt lat="48.189672" lon="8.817428"><ele>740.0</ele><time>2010-05-16T07:52:58Z</time></trkpt>
<trkpt lat="48.189646" lon="8.818389"><ele>741.0</ele><time>2010-05-16T07:53:07Z</time></trkpt>
<trkpt lat="48.189630" lon="8.819294"><ele>742.0</ele><time>2010-05-16T07:53:16Z</time></trkpt>
<trkpt lat="48.189656" lon="8.820154"><ele>743.0</ele><time>2010-05-16T07:53:25Z</time></trkpt>
<trkpt lat="48.189799" lon="8.820988"><ele>743.0</ele><time>2010-05-16T07:53:34Z</time></trkpt>
<trkpt lat="48.190051" lon="8.821754"><ele>744.0</ele><time>2010-05-16T07:53:43Z</time></trkpt>
<trkpt lat="48.190354" lon="8.822472"><ele>746.0</ele><time>2010-05-16T07:53:52Z</time></trkpt>
<trkpt lat="48.190674" lon="8.823170"><ele>748.0</ele><time>2010-05-16T07:54:01Z</time></trkpt>
<trkpt lat="48.190961" lon="8.823803"><ele>749.0</ele><time>2010-05-16T07:54:10Z</time></trkpt>
<trkpt lat="48.191229" lon="8.824377"><ele>751.0</ele><time>2010-05-16T07:54:19Z</time></trkpt>
<trkpt lat="48.191522" lon="8.824964"><ele>752.0</ele><time>2010-05-16T07:54:28Z</time></trkpt>
<trkpt lat="48.191804" lon="8.825585"><ele>751.0</ele><time>2010-05-16T07:54:37Z</time></trkpt>
<trkpt lat="48.191959" lon="8.826271"><ele>751.0</ele><time>2010-05-16T07:54:46Z</time></trkpt>
<trkpt lat="48.192019" lon="8.826922"><ele>753.0</ele><time>2010-05-16T07:54:55Z</time></trkpt>
<trkpt lat="48.192060" lon="8.827461"><ele>755.0</ele><time>2010-05-16T07:55:04Z</time></trkpt>
<trkpt lat="48.192088" lon="8.827930"><ele>755.0</ele><time>2010-05-16T07:55:13Z</time></trkpt>
<trkpt lat="48.192101" lon="8.828310"><ele>756.0</ele><time>2010-05-16T07:55:22Z</time></trkpt>
<trkpt lat="48.192165" lon="8.828708"><ele>755.0</ele><time>2010-05-16T07:55:31Z</time></trkpt>
<trkpt lat="48.192298" lon="8.829074"><ele>761.0</ele><time>2010-05-16T07:55:40Z</time></trkpt>
<trkpt lat="48.192127" lon="8.828996"><ele>767.0</ele><time>2010-05-16T07:55:50Z</time></trkpt>
<trkpt lat="48.192017" lon="8.828790"><ele>764.0</ele><time>2010-05-16T07:55:59Z</time></trkpt>
<trkpt lat="48.191901" lon="8.828588"><ele>760.0</ele><time>2010-05-16T07:56:10Z</time></trkpt>
<trkpt lat="48.191753" lon="8.828440"><ele>749.0</ele><time>2010-05-16T07:56:20Z</time></trkpt>
<trkpt lat="48.191542" lon="8.828331"><ele>750.0</ele><time>2010-05-16T07:56:29Z</time></trkpt>
<trkpt lat="48.191271" lon="8.828249"><ele>748.0</ele><time>2010-05-16T07:56:38Z</time></trkpt>
<trkpt lat="48.190975" lon="8.828246"><ele>747.0</ele><time>2010-05-16T07:56:47Z</time></trkpt>
<trkpt lat="48.190700" lon="8.828322"><ele>748.0</ele><time>2010-05-16T07:56:56Z</time></trkpt>
<trkpt lat="48.190445" lon="8.828398"><ele>755.0</ele><time>2010-05-16T07:57:05Z</time></trkpt>
<trkpt lat="48.190191" lon="8.828489"><ele>759.0</ele><time>2010-05-16T07:57:14Z</time></trkpt>
<trkpt lat="48.189917" lon="8.828599"><ele>762.0</ele><time>2010-05-16T07:57:23Z</time></trkpt>
<trkpt lat="48.189646" lon="8.828725"><ele>766.0</ele><time>2010-05-16T07:57:32Z</time></trkpt>
<trkpt lat="48.189416" lon="8.828811"><ele>766.0</ele><time>2010-05-16T07:57:41Z</time></trkpt>
<trkpt lat="48.189182" lon="8.828956"><ele>768.0</ele><time>2010-05-16T07:57:50Z</time></trkpt>
<trkpt lat="48.188922" lon="8.829164"><ele>773.0</ele><time>2010-05-16T07:57:59Z</time></trkpt>
<trkpt lat="48.188778" lon="8.829303"><ele>769.0</ele><time>2010-05-16T07:58:13Z</time></trkpt>
<trkpt lat="48.188611" lon="8.829469"><ele>773.0</ele><time>2010-05-16T07:58:21Z</time></trkpt>
<trkpt lat="48.188465" lon="8.829607"><ele>772.0</ele><time>2010-05-16T07:58:35Z</time></trkpt>
<trkpt lat="48.188319" lon="8.829760"><ele>772.0</ele><time>2010-05-16T07:58:48Z</time></trkpt>
<trkpt lat="48.188148" lon="8.829917"><ele>779.0</ele><time>2010-05-16T07:58:56Z</time></trkpt>
<trkpt lat="48.187946" lon="8.830087"><ele>784.0</ele><time>2010-05-16T07:59:05Z</time></trkpt>
<trkpt lat="48.187804" lon="8.830227"><ele>783.0</ele><time>2010-05-16T07:59:17Z</time></trkpt>
<trkpt lat="48.187608" lon="8.830407"><ele>767.0</ele><time>2010-05-16T07:59:26Z</time></trkpt>
<trkpt lat="48.187375" lon="8.830676"><ele>769.0</ele><time>2010-05-16T07:59:35Z</time></trkpt>
<trkpt lat="48.187189" lon="8.830984"><ele>778.0</ele><time>2010-05-16T07:59:44Z</time></trkpt>
<trkpt lat="48.187062" lon="8.831199"><ele>773.0</ele><time>2010-05-16T07:59:53Z</time></trkpt>
<trkpt lat="48.186957" lon="8.831396"><ele>773.0</ele><time>2010-05-16T08:00:01Z</time></trkpt>
<trkpt lat="48.186827" lon="8.831587"><ele>779.0</ele><time>2010-05-16T08:00:10Z</time></trkpt>
<trkpt lat="48.186691" lon="8.831740"><ele>786.0</ele><time>2010-05-16T08:00:20Z</time></trkpt>
<trkpt lat="48.186546" lon="8.831882"><ele>792.0</ele><time>2010-05-16T08:00:31Z</time></trkpt>
<trkpt lat="48.186427" lon="8.832083"><ele>798.0</ele><time>2010-05-16T08:00:42Z</time></trkpt>
<trkpt lat="48.186329" lon="8.832286"><ele>806.0</ele><time>2010-05-16T08:00:53Z</time></trkpt>
<trkpt lat="48.186231" lon="8.832495"><ele>812.0</ele><time>2010-05-16T08:01:03Z</time></trkpt>
<trkpt lat="48.186133" lon="8.832713"><ele>818.0</ele><time>2010-05-16T08:01:13Z</time></trkpt>
<trkpt lat="48.186061" lon="8.832941"><ele>806.0</ele><time>2010-05-16T08:01:24Z</time></trkpt>
<trkpt lat="48.185938" lon="8.833156"><ele>801.0</ele><time>2010-05-16T08:01:33Z</time></trkpt>
<trkpt lat="48.185770" lon="8.833366"><ele>801.0</ele><time>2010-05-16T08:01:39Z</time></trkpt>
<trkpt lat="48.185712" lon="8.833619"><ele>784.0</ele><time>2010-05-16T08:01:50Z</time></trkpt>
<trkpt lat="48.185662" lon="8.833891"><ele>780.0</ele><time>2010-05-16T08:01:59Z</time></trkpt>
<trkpt lat="48.185545" lon="8.834153"><ele>791.0</ele><time>2010-05-16T08:02:08Z</time></trkpt>
<trkpt lat="48.185304" lon="8.834456"><ele>807.0</ele><time>2010-05-16T08:02:17Z</time></trkpt>
<trkpt lat="48.185280" lon="8.834710"><ele>809.0</ele><time>2010-05-16T08:02:30Z</time></trkpt>
<trkpt lat="48.185193" lon="8.834921"><ele>816.0</ele><time>2010-05-16T08:02:40Z</time></trkpt>
<trkpt lat="48.184958" lon="8.835213"><ele>822.0</ele><time>2010-05-16T08:02:49Z</time></trkpt>
<trkpt lat="48.184894" lon="8.835460"><ele>824.0</ele><time>2010-05-16T08:02:59Z</time></trkpt>
<trkpt lat="48.184769" lon="8.835709"><ele>819.0</ele><time>2010-05-16T08:03:08Z</time></trkpt>
<trkpt lat="48.184722" lon="8.835926"><ele>825.0</ele><time>2010-05-16T08:03:17Z</time></trkpt>
<trkpt lat="48.184427" lon="8.836273"><ele>824.0</ele><time>2010-05-16T08:03:26Z</time></trkpt>
<trkpt lat="48.184158" lon="8.836632"><ele>837.0</ele><time>2010-05-16T08:03:35Z</time></trkpt>
<trkpt lat="48.183983" lon="8.836894"><ele>845.0</ele><time>2010-05-16T08:03:44Z</time></trkpt>
<trkpt lat="48.183835" lon="8.837152"><ele>850.0</ele><time>2010-05-16T08:03:53Z</time></trkpt>
<trkpt lat="48.183744" lon="8.837432"><ele>852.0</ele><time>2010-05-16T08:04:02Z</time></trkpt>
<trkpt lat="48.183645" lon="8.837664"><ele>857.0</ele><time>2010-05-16T08:04:11Z</time></trkpt>
<trkpt lat="48.183571" lon="8.837938"><ele>856.0</ele><time>2010-05-16T08:04:20Z</time></trkpt>
<trkpt lat="48.183504" lon="8.838219"><ele>852.0</ele><time>2010-05-16T08:04:29Z</time></trkpt>
<trkpt lat="48.183577" lon="8.838479"><ele>836.0</ele><time>2010-05-16T08:04:38Z</time></trkpt>
<trkpt lat="48.183539" lon="8.838769"><ele>835.0</ele><time>2010-05-16T08:04:47Z</time></trkpt>
<trkpt lat="48.183567" lon="8.839033"><ele>819.0</ele><time>2010-05-16T08:04:56Z</time></trkpt>
<trkpt lat="48.183608" lon="8.839267"><ele>811.0</ele><time>2010-05-16T08:05:05Z</time></trkpt>
<trkpt lat="48.183581" lon="8.839503"><ele>812.0</ele><time>2010-05-16T08:05:14Z</time></trkpt>
<trkpt lat="48.183481" lon="8.839724"><ele>825.0</ele><time>2010-05-16T08:05:25Z</time></trkpt>
<trkpt lat="48.183396" lon="8.839939"><ele>838.0</ele><time>2010-05-16T08:05:42Z</time></trkpt>
<trkpt lat="48.183265" lon="8.840119"><ele>838.0</ele><time>2010-05-16T08:05:54Z</time></trkpt>
<trkpt lat="48.183147" lon="8.840212"><ele>844.0</ele><time>2010-05-16T08:06:03Z</time></trkpt>
<trkpt lat="48.182742" lon="8.840348"><ele>854.0</ele><time>2010-05-16T08:06:12Z</time></trkpt>
<trkpt lat="48.182467" lon="8.840309"><ele>856.0</ele><time>2010-05-16T08:06:21Z</time></trkpt>
<trkpt lat="48.182304" lon="8.840195"><ele>851.0</ele><time>2010-05-16T08:06:30Z</time></trkpt>
<trkpt lat="48.182164" lon="8.840054"><ele>848.0</ele><time>2010-05-16T08:06:41Z</time></trkpt>
<trkpt lat="48.182005" lon="8.839940"><ele>843.0</ele><time>2010-05-16T08:06:50Z</time></trkpt>
<trkpt lat="48.181825" lon="8.839841"><ele>841.0</ele><time>2010-05-16T08:06:59Z</time></trkpt>
<trkpt lat="48.181659" lon="8.839747"><ele>839.0</ele><time>2010-05-16T08:07:08Z</time></trkpt>
<trkpt lat="48.181486" lon="8.839673"><ele>838.0</ele><time>2010-05-16T08:07:17Z</time></trkpt>
<trkpt lat="48.181306" lon="8.839570"><ele>837.0</ele><time>2010-05-16T08:07:26Z</time></trkpt>
<trkpt lat="48.181142" lon="8.839510"><ele>838.0</ele><time>2010-05-16T08:07:36Z</time></trkpt>
<trkpt lat="48.180925" lon="8.839466"><ele>837.0</ele><time>2010-05-16T08:07:45Z</time></trkpt>
<trkpt lat="48.180764" lon="8.839403"><ele>841.0</ele><time>2010-05-16T08:07:54Z</time></trkpt>
<trkpt lat="48.180602" lon="8.839327"><ele>848.0</ele><time>2010-05-16T08:08:03Z</time></trkpt>
<trkpt lat="48.180410" lon="8.839296"><ele>848.0</ele><time>2010-05-16T08:08:12Z</time></trkpt>
<trkpt lat="48.180221" lon="8.839232"><ele>851.0</ele><time>2010-05-16T08:08:21Z</time></trkpt>
<trkpt lat="48.180037" lon="8.839165"><ele>853.0</ele><time>2010-05-16T08:08:30Z</time></trkpt>
<trkpt lat="48.179830" lon="8.839115"><ele>851.0</ele><time>2010-05-16T08:08:39Z</time></trkpt>
<trkpt lat="48.179649" lon="8.839050"><ele>853.0</ele><time>2010-05-16T08:08:48Z</time></trkpt>
<trkpt lat="48.179475" lon="8.839009"><ele>857.0</ele><time>2010-05-16T08:08:57Z</time></trkpt>
<trkpt lat="48.179291" lon="8.838961"><ele>861.0</ele><time>2010-05-16T08:09:06Z</time></trkpt>
<trkpt lat="48.179092" lon="8.838938"><ele>859.0</ele><time>2010-05-16T08:09:15Z</time></trkpt>
<trkpt lat="48.178867" lon="8.838901"><ele>861.0</ele><time>2010-05-16T08:09:24Z</time></trkpt>
<trkpt lat="48.178661" lon="8.838853"><ele>865.0</ele><time>2010-05-16T08:09:33Z</time></trkpt>
<trkpt lat="48.178444" lon="8.838827"><ele>867.0</ele><time>2010-05-16T08:09:42Z</time></trkpt>
<trkpt lat="48.178215" lon="8.838791"><ele>871.0</ele><time>2010-05-16T08:09:51Z</time></trkpt>
<trkpt lat="48.178025" lon="8.838711"><ele>877.0</ele><time>2010-05-16T08:10:00Z</time></trkpt>
<trkpt lat="48.177789" lon="8.838647"><ele>880.0</ele><time>2010-05-16T08:10:09Z</time></trkpt>
<trkpt lat="48.177588" lon="8.838594"><ele>881.0</ele><time>2010-05-16T08:10:18Z</time></trkpt>
<trkpt lat="48.177333" lon="8.838594"><ele>887.0</ele><time>2010-05-16T08:10:27Z</time></trkpt>
<trkpt lat="48.177125" lon="8.838582"><ele>891.0</ele><time>2010-05-16T08:10:36Z</time></trkpt>
<trkpt lat="48.176935" lon="8.838560"><ele>893.0</ele><time>2010-05-16T08:10:45Z</time></trkpt>
<trkpt lat="48.176731" lon="8.838520"><ele>897.0</ele><time>2010-05-16T08:10:54Z</time></trkpt>
<trkpt lat="48.176548" lon="8.838490"><ele>901.0</ele><time>2010-05-16T08:11:03Z</time></trkpt>
<trkpt lat="48.176384" lon="8.838485"><ele>904.0</ele><time>2010-05-16T08:11:12Z</time></trkpt>
<trkpt lat="48.176222" lon="8.838597"><ele>893.0</ele><time>2010-05-16T08:12:09Z</time></trkpt>
<trkpt lat="48.175971" lon="8.838510"><ele>896.0</ele><time>2010-05-16T08:12:18Z</time></trkpt>
<trkpt lat="48.175783" lon="8.838542"><ele>898.0</ele><time>2010-05-16T08:12:27Z</time></trkpt>
<trkpt lat="48.175619" lon="8.838489"><ele>901.0</ele><time>2010-05-16T08:12:36Z</time></trkpt>
<trkpt lat="48.175480" lon="8.838338"><ele>900.0</ele><time>2010-05-16T08:12:45Z</time></trkpt>
<trkpt lat="48.175372" lon="8.838162"><ele>895.0</ele><time>2010-05-16T08:12:54Z</time></trkpt>
<trkpt lat="48.175212" lon="8.838014"><ele>892.0</ele><time>2010-05-16T08:13:03Z</time></trkpt>
<trkpt lat="48.175040" lon="8.838055"><ele>890.0</ele><time>2010-05-16T08:13:14Z</time></trkpt>
<trkpt lat="48.174928" lon="8.838227"><ele>890.0</ele><time>2010-05-16T08:13:26Z</time></trkpt>
<trkpt lat="48.174827" lon="8.838438"><ele>889.0</ele><time>2010-05-16T08:13:35Z</time></trkpt>
<trkpt lat="48.174851" lon="8.838705"><ele>892.0</ele><time>2010-05-16T08:13:48Z</time></trkpt>
<trkpt lat="48.174948" lon="8.838919"><ele>899.0</ele><time>2010-05-16T08:14:00Z</time></trkpt>
<trkpt lat="48.175064" lon="8.839059"><ele>904.0</ele><time>2010-05-16T08:14:10Z</time></trkpt>
<trkpt lat="48.175218" lon="8.839182"><ele>907.0</ele><time>2010-05-16T08:14:20Z</time></trkpt>
<trkpt lat="48.175362" lon="8.839318"><ele>906.0</ele><time>2010-05-16T08:14:32Z</time></trkpt>
<trkpt lat="48.175526" lon="8.839411"><ele>909.0</ele><time>2010-05-16T08:14:44Z</time></trkpt>
<trkpt lat="48.175682" lon="8.839526"><ele>907.0</ele><time>2010-05-16T08:14:54Z</time></trkpt>
<trkpt lat="48.175819" lon="8.839652"><ele>902.0</ele><time>2010-05-16T08:15:06Z</time></trkpt>
<trkpt lat="48.175957" lon="8.839805"><ele>894.0</ele><time>2010-05-16T08:15:17Z</time></trkpt>
<trkpt lat="48.176101" lon="8.839939"><ele>892.0</ele><time>2010-05-16T08:15:27Z</time></trkpt>
<trkpt lat="48.176259" lon="8.840055"><ele>890.0</ele><time>2010-05-16T08:15:37Z</time></trkpt>
<trkpt lat="48.176402" lon="8.840172"><ele>888.0</ele><time>2010-05-16T08:15:47Z</time></trkpt>
<trkpt lat="48.176604" lon="8.840278"><ele>890.0</ele><time>2010-05-16T08:15:56Z</time></trkpt>
<trkpt lat="48.176840" lon="8.840408"><ele>902.0</ele><time>2010-05-16T08:16:05Z</time></trkpt>
<trkpt lat="48.177008" lon="8.840498"><ele>904.0</ele><time>2010-05-16T08:16:14Z</time></trkpt>
<trkpt lat="48.177161" lon="8.840613"><ele>902.0</ele><time>2010-05-16T08:16:23Z</time></trkpt>
<trkpt lat="48.177320" lon="8.840732"><ele>903.0</ele><time>2010-05-16T08:16:33Z</time></trkpt>
<trkpt lat="48.177572" lon="8.840900"><ele>913.0</ele><time>2010-05-16T08:16:42Z</time></trkpt>
<trkpt lat="48.177716" lon="8.841000"><ele>917.0</ele><time>2010-05-16T08:16:51Z</time></trkpt>
<trkpt lat="48.177952" lon="8.841148"><ele>915.0</ele><time>2010-05-16T08:17:00Z</time></trkpt>
<trkpt lat="48.178183" lon="8.841250"><ele>914.0</ele><time>2010-05-16T08:17:09Z</time></trkpt>
<trkpt lat="48.178394" lon="8.841334"><ele>913.0</ele><time>2010-05-16T08:17:18Z</time></trkpt>
<trkpt lat="48.178587" lon="8.841402"><ele>913.0</ele><time>2010-05-16T08:17:26Z</time></trkpt>
<trkpt lat="48.178771" lon="8.841487"><ele>914.0</ele><time>2010-05-16T08:17:35Z</time></trkpt>
<trkpt lat="48.178922" lon="8.841600"><ele>909.0</ele><time>2010-05-16T08:17:45Z</time></trkpt>
<trkpt lat="48.179037" lon="8.841778"><ele>902.0</ele><time>2010-05-16T08:17:55Z</time></trkpt>
<trkpt lat="48.179167" lon="8.841985"><ele>902.0</ele><time>2010-05-16T08:18:04Z</time></trkpt>
<trkpt lat="48.179278" lon="8.842179"><ele>902.0</ele><time>2010-05-16T08:18:13Z</time></trkpt>
<trkpt lat="48.179345" lon="8.842395"><ele>903.0</ele><time>2010-05-16T08:18:22Z</time></trkpt>
<trkpt lat="48.179402" lon="8.842640"><ele>905.0</ele><time>2010-05-16T08:18:32Z</time></trkpt>
<trkpt lat="48.179452" lon="8.842878"><ele>912.0</ele><time>2010-05-16T08:18:41Z</time></trkpt>
<trkpt lat="48.179534" lon="8.843116"><ele>920.0</ele><time>2010-05-16T08:18:50Z</time></trkpt>
<trkpt lat="48.179607" lon="8.843407"><ele>926.0</ele><time>2010-05-16T08:18:59Z</time></trkpt>
<trkpt lat="48.179657" lon="8.843702"><ele>931.0</ele><time>2010-05-16T08:19:08Z</time></trkpt>
<trkpt lat="48.179714" lon="8.843973"><ele>935.0</ele><time>2010-05-16T08:19:17Z</time></trkpt>
<trkpt lat="48.179729" lon="8.844233"><ele>939.0</ele><time>2010-05-16T08:19:26Z</time></trkpt>
<trkpt lat="48.179735" lon="8.844501"><ele>945.0</ele><time>2010-05-16T08:19:43Z</time></trkpt>
<trkpt lat="48.179806" lon="8.844723"><ele>947.0</ele><time>2010-05-16T08:19:54Z</time></trkpt>
<trkpt lat="48.179892" lon="8.844947"><ele>949.0</ele><time>2010-05-16T08:20:04Z</time></trkpt>
<trkpt lat="48.179956" lon="8.845169"><ele>948.0</ele><time>2010-05-16T08:20:15Z</time></trkpt>
<trkpt lat="48.180126" lon="8.845394"><ele>953.0</ele><time>2010-05-16T08:20:24Z</time></trkpt>
<trkpt lat="48.180224" lon="8.845603"><ele>950.0</ele><time>2010-05-16T08:20:34Z</time></trkpt>
<trkpt lat="48.180343" lon="8.845803"><ele>950.0</ele><time>2010-05-16T08:20:44Z</time></trkpt>
<trkpt lat="48.180339" lon="8.846068"><ele>954.0</ele><time>2010-05-16T08:20:55Z</time></trkpt>
<trkpt lat="48.180239" lon="8.846262"><ele>959.0</ele><time>2010-05-16T08:21:06Z</time></trkpt>
<trkpt lat="48.180307" lon="8.846496"><ele>965.0</ele><time>2010-05-16T08:21:24Z</time></trkpt>
<trkpt lat="48.180477" lon="8.846679"><ele>967.0</ele><time>2010-05-16T08:21:33Z</time></trkpt>
<trkpt lat="48.180670" lon="8.846885"><ele>968.0</ele><time>2010-05-16T08:21:42Z</time></trkpt>
<trkpt lat="48.180880" lon="8.847185"><ele>968.0</ele><time>2010-05-16T08:21:51Z</time></trkpt>
<trkpt lat="48.180947" lon="8.847544"><ele>970.0</ele><time>2010-05-16T08:22:00Z</time></trkpt>
<trkpt lat="48.180943" lon="8.847850"><ele>972.0</ele><time>2010-05-16T08:22:09Z</time></trkpt>
<trkpt lat="48.180910" lon="8.848173"><ele>972.0</ele><time>2010-05-16T08:22:18Z</time></trkpt>
<trkpt lat="48.180851" lon="8.848507"><ele>973.0</ele><time>2010-05-16T08:22:27Z</time></trkpt>
<trkpt lat="48.180784" lon="8.848848"><ele>974.0</ele><time>2010-05-16T08:22:36Z</time></trkpt>
<trkpt lat="48.180708" lon="8.849223"><ele>974.0</ele><time>2010-05-16T08:22:45Z</time></trkpt>
<trkpt lat="48.180626" lon="8.849649"><ele>974.0</ele><time>2010-05-16T08:22:54Z</time></trkpt>
<trkpt lat="48.180543" lon="8.850030"><ele>974.0</ele><time>2010-05-16T08:23:03Z</time></trkpt>
<trkpt lat="48.180577" lon="8.850382"><ele>974.0</ele><time>2010-05-16T08:23:12Z</time></trkpt>
<trkpt lat="48.180910" lon="8.850497"><ele>974.0</ele><time>2010-05-16T08:23:21Z</time></trkpt>
<trkpt lat="48.181275" lon="8.850752"><ele>974.0</ele><time>2010-05-16T08:23:30Z</time></trkpt>
<trkpt lat="48.181605" lon="8.851055"><ele>974.0</ele><time>2010-05-16T08:23:39Z</time></trkpt>
<trkpt lat="48.181943" lon="8.851344"><ele>974.0</ele><time>2010-05-16T08:23:48Z</time></trkpt>
<trkpt lat="48.182279" lon="8.851644"><ele>974.0</ele><time>2010-05-16T08:23:57Z</time></trkpt>
<trkpt lat="48.182625" lon="8.851930"><ele>974.0</ele><time>2010-05-16T08:24:06Z</time></trkpt>
<trkpt lat="48.182997" lon="8.852195"><ele>973.0</ele><time>2010-05-16T08:24:15Z</time></trkpt>
<trkpt lat="48.183467" lon="8.852474"><ele>971.0</ele><time>2010-05-16T08:24:24Z</time></trkpt>
<trkpt lat="48.184029" lon="8.852800"><ele>969.0</ele><time>2010-05-16T08:24:33Z</time></trkpt>
<trkpt lat="48.184528" lon="8.853276"><ele>968.0</ele><time>2010-05-16T08:24:42Z</time></trkpt>
<trkpt lat="48.184969" lon="8.853684"><ele>968.0</ele><time>2010-05-16T08:24:51Z</time></trkpt>
<trkpt lat="48.185296" lon="8.853973"><ele>971.0</ele><time>2010-05-16T08:25:00Z</time></trkpt>
<trkpt lat="48.185554" lon="8.854183"><ele>973.0</ele><time>2010-05-16T08:25:09Z</time></trkpt>
<trkpt lat="48.185825" lon="8.854381"><ele>974.0</ele><time>2010-05-16T08:25:18Z</time></trkpt>
<trkpt lat="48.186088" lon="8.854565"><ele>975.0</ele><time>2010-05-16T08:25:27Z</time></trkpt>
<trkpt lat="48.186330" lon="8.854714"><ele>976.0</ele><time>2010-05-16T08:25:36Z</time></trkpt>
<trkpt lat="48.186535" lon="8.854842"><ele>978.0</ele><time>2010-05-16T08:25:45Z</time></trkpt>
<trkpt lat="48.186761" lon="8.854986"><ele>979.0</ele><time>2010-05-16T08:25:54Z</time></trkpt>
<trkpt lat="48.187010" lon="8.855154"><ele>980.0</ele><time>2010-05-16T08:26:03Z</time></trkpt>
<trkpt lat="48.187278" lon="8.855308"><ele>981.0</ele><time>2010-05-16T08:26:12Z</time></trkpt>
<trkpt lat="48.187572" lon="8.855414"><ele>982.0</ele><time>2010-05-16T08:26:21Z</time></trkpt>
<trkpt lat="48.187892" lon="8.855458"><ele>982.0</ele><time>2010-05-16T08:26:30Z</time></trkpt>
<trkpt lat="48.188365" lon="8.855458"><ele>981.0</ele><time>2010-05-16T08:26:39Z</time></trkpt>
<trkpt lat="48.188684" lon="8.855469"><ele>983.0</ele><time>2010-05-16T08:26:48Z</time></trkpt>
<trkpt lat="48.188937" lon="8.855489"><ele>984.0</ele><time>2010-05-16T08:26:57Z</time></trkpt>
<trkpt lat="48.189198" lon="8.855547"><ele>986.0</ele><time>2010-05-16T08:27:06Z</time></trkpt>
<trkpt lat="48.189494" lon="8.855645"><ele>986.0</ele><time>2010-05-16T08:27:15Z</time></trkpt>
<trkpt lat="48.189786" lon="8.855699"><ele>987.0</ele><time>2010-05-16T08:27:24Z</time></trkpt>
<trkpt lat="48.190149" lon="8.855690"><ele>984.0</ele><time>2010-05-16T08:27:33Z</time></trkpt>
<trkpt lat="48.190495" lon="8.855612"><ele>982.0</ele><time>2010-05-16T08:27:42Z</time></trkpt>
<trkpt lat="48.190671" lon="8.855602"><ele>981.0</ele><time>2010-05-16T08:29:45Z</time></trkpt>
<trkpt lat="48.190993" lon="8.855583"><ele>977.0</ele><time>2010-05-16T08:29:54Z</time></trkpt>
<trkpt lat="48.191341" lon="8.855603"><ele>973.0</ele><time>2010-05-16T08:30:02Z</time></trkpt>
<trkpt lat="48.191979" lon="8.855682"><ele>968.0</ele><time>2010-05-16T08:30:11Z</time></trkpt>
<trkpt lat="48.192565" lon="8.855608"><ele>962.0</ele><time>2010-05-16T08:30:20Z</time></trkpt>
<trkpt lat="48.192744" lon="8.856403"><ele>956.0</ele><time>2010-05-16T08:30:28Z</time></trkpt>
<trkpt lat="48.192880" lon="8.857551"><ele>958.0</ele><time>2010-05-16T08:30:37Z</time></trkpt>
<trkpt lat="48.193273" lon="8.858679"><ele>958.0</ele><time>2010-05-16T08:30:46Z</time></trkpt>
<trkpt lat="48.193656" lon="8.859566"><ele>955.0</ele><time>2010-05-16T08:30:55Z</time></trkpt>
<trkpt lat="48.193640" lon="8.859173"><ele>955.0</ele><time>2010-05-16T08:31:03Z</time></trkpt>
<trkpt lat="48.193488" lon="8.858188"><ele>954.0</ele><time>2010-05-16T08:31:12Z</time></trkpt>
<trkpt lat="48.193433" lon="8.857627"><ele>952.0</ele><time>2010-05-16T08:31:21Z</time></trkpt>
<trkpt lat="48.193647" lon="8.858151"><ele>951.0</ele><time>2010-05-16T08:31:29Z</time></trkpt>
<trkpt lat="48.194030" lon="8.858990"><ele>952.0</ele><time>2010-05-16T08:31:38Z</time></trkpt>
<trkpt lat="48.194622" lon="8.859688"><ele>948.0</ele><time>2010-05-16T08:31:47Z</time></trkpt>
<trkpt lat="48.194974" lon="8.860946"><ele>944.0</ele><time>2010-05-16T08:31:56Z</time></trkpt>
<trkpt lat="48.194660" lon="8.862333"><ele>941.0</ele><time>2010-05-16T08:32:05Z</time></trkpt>
<trkpt lat="48.194190" lon="8.863929"><ele>938.0</ele><time>2010-05-16T08:32:14Z</time></trkpt>
<trkpt lat="48.193958" lon="8.865565"><ele>931.0</ele><time>2010-05-16T08:32:23Z</time></trkpt>
<trkpt lat="48.194316" lon="8.866820"><ele>926.0</ele><time>2010-05-16T08:32:32Z</time></trkpt>
<trkpt lat="48.195202" lon="8.867749"><ele>910.0</ele><time>2010-05-16T08:32:41Z</time></trkpt>
<trkpt lat="48.195893" lon="8.868950"><ele>894.0</ele><time>2010-05-16T08:32:50Z</time></trkpt>
<trkpt lat="48.196626" lon="8.870190"><ele>875.0</ele><time>2010-05-16T08:32:59Z</time></trkpt>
<trkpt lat="48.197246" lon="8.871161"><ele>865.0</ele><time>2010-05-16T08:33:08Z</time></trkpt>
<trkpt lat="48.197620" lon="8.871807"><ele>858.0</ele><time>2010-05-16T08:33:17Z</time></trkpt>
<trkpt lat="48.197757" lon="8.871971"><ele>856.0</ele><time>2010-05-16T08:36:24Z</time></trkpt>
<trkpt lat="48.198147" lon="8.872296"><ele>853.0</ele><time>2010-05-16T08:36:33Z</time></trkpt>
<trkpt lat="48.198566" lon="8.872730"><ele>851.0</ele><time>2010-05-16T08:36:42Z</time></trkpt>
<trkpt lat="48.198849" lon="8.873186"><ele>851.0</ele><time>2010-05-16T08:36:51Z</time></trkpt>
<trkpt lat="48.199103" lon="8.873651"><ele>852.0</ele><time>2010-05-16T08:37:00Z</time></trkpt>
<trkpt lat="48.199416" lon="8.874094"><ele>853.0</ele><time>2010-05-16T08:37:09Z</time></trkpt>
<trkpt lat="48.199733" lon="8.874550"><ele>853.0</ele><time>2010-05-16T08:37:18Z</time></trkpt>
<trkpt lat="48.200077" lon="8.874756"><ele>854.0</ele><time>2010-05-16T08:37:27Z</time></trkpt>
<trkpt lat="48.200277" lon="8.874612"><ele>850.0</ele><time>2010-05-16T08:37:36Z</time></trkpt>
<trkpt lat="48.200258" lon="8.874146"><ele>847.0</ele><time>2010-05-16T08:37:45Z</time></trkpt>
<trkpt lat="48.200216" lon="8.873670"><ele>846.0</ele><time>2010-05-16T08:37:54Z</time></trkpt>
<trkpt lat="48.200173" lon="8.873161"><ele>850.0</ele><time>2010-05-16T08:38:03Z</time></trkpt>
<trkpt lat="48.200149" lon="8.872691"><ele>854.0</ele><time>2010-05-16T08:38:12Z</time></trkpt>
<trkpt lat="48.200102" lon="8.872259"><ele>860.0</ele><time>2010-05-16T08:38:21Z</time></trkpt>
<trkpt lat="48.200166" lon="8.871964"><ele>857.0</ele><time>2010-05-16T08:38:30Z</time></trkpt>
<trkpt lat="48.200216" lon="8.871725"><ele>859.0</ele><time>2010-05-16T08:38:39Z</time></trkpt>
<trkpt lat="48.200317" lon="8.871521"><ele>858.0</ele><time>2010-05-16T08:38:52Z</time></trkpt>
<trkpt lat="48.200405" lon="8.871287"><ele>856.0</ele><time>2010-05-16T08:39:04Z</time></trkpt>
<trkpt lat="48.200482" lon="8.871054"><ele>856.0</ele><time>2010-05-16T08:39:16Z</time></trkpt>
<trkpt lat="48.200624" lon="8.870912"><ele>860.0</ele><time>2010-05-16T08:39:27Z</time></trkpt>
<trkpt lat="48.200747" lon="8.870740"><ele>862.0</ele><time>2010-05-16T08:39:38Z</time></trkpt>
<trkpt lat="48.200866" lon="8.870555"><ele>863.0</ele><time>2010-05-16T08:39:51Z</time></trkpt>
<trkpt lat="48.200986" lon="8.870379"><ele>865.0</ele><time>2010-05-16T08:40:05Z</time></trkpt>
<trkpt lat="48.201124" lon="8.870219"><ele>862.0</ele><time>2010-05-16T08:40:17Z</time></trkpt>
<trkpt lat="48.201241" lon="8.870014"><ele>868.0</ele><time>2010-05-16T08:40:42Z</time></trkpt>
<trkpt lat="48.201394" lon="8.869879"><ele>872.0</ele><time>2010-05-16T08:41:02Z</time></trkpt>
<trkpt lat="48.201538" lon="8.869731"><ele>876.0</ele><time>2010-05-16T08:41:16Z</time></trkpt>
<trkpt lat="48.201673" lon="8.869562"><ele>879.0</ele><time>2010-05-16T08:41:33Z</time></trkpt>
<trkpt lat="48.201762" lon="8.869782"><ele>878.0</ele><time>2010-05-16T08:42:09Z</time></trkpt>
<trkpt lat="48.201730" lon="8.870034"><ele>877.0</ele><time>2010-05-16T08:42:22Z</time></trkpt>
<trkpt lat="48.201701" lon="8.870300"><ele>880.0</ele><time>2010-05-16T08:42:34Z</time></trkpt>
<trkpt lat="48.201872" lon="8.870383"><ele>884.0</ele><time>2010-05-16T08:42:55Z</time></trkpt>
<trkpt lat="48.201988" lon="8.870185"><ele>883.0</ele><time>2010-05-16T08:43:08Z</time></trkpt>
<trkpt lat="48.202117" lon="8.870011"><ele>879.0</ele><time>2010-05-16T08:43:21Z</time></trkpt>
<trkpt lat="48.202229" lon="8.869803"><ele>882.0</ele><time>2010-05-16T08:43:32Z</time></trkpt>
<trkpt lat="48.202356" lon="8.869621"><ele>876.0</ele><time>2010-05-16T08:43:48Z</time></trkpt>
<trkpt lat="48.202480" lon="8.869428"><ele>876.0</ele><time>2010-05-16T08:44:03Z</time></trkpt>
<trkpt lat="48.202607" lon="8.869261"><ele>874.0</ele><time>2010-05-16T08:44:18Z</time></trkpt>
<trkpt lat="48.202776" lon="8.869198"><ele>870.0</ele><time>2010-05-16T08:44:31Z</time></trkpt>
<trkpt lat="48.202978" lon="8.869160"><ele>876.0</ele><time>2010-05-16T08:44:40Z</time></trkpt>
<trkpt lat="48.203157" lon="8.869174"><ele>878.0</ele><time>2010-05-16T08:44:51Z</time></trkpt>
<trkpt lat="48.203310" lon="8.869188"><ele>878.0</ele><time>2010-05-16T08:45:01Z</time></trkpt>
<trkpt lat="48.203477" lon="8.869209"><ele>882.0</ele><time>2010-05-16T08:45:10Z</time></trkpt>
<trkpt lat="48.203644" lon="8.869264"><ele>883.0</ele><time>2010-05-16T08:45:19Z</time></trkpt>
<trkpt lat="48.203810" lon="8.869327"><ele>883.0</ele><time>2010-05-16T08:45:28Z</time></trkpt>
<trkpt lat="48.204028" lon="8.869267"><ele>894.0</ele><time>2010-05-16T08:45:37Z</time></trkpt>
<trkpt lat="48.204203" lon="8.869224"><ele>896.0</ele><time>2010-05-16T08:45:48Z</time></trkpt>
<trkpt lat="48.204525" lon="8.869002"><ele>916.0</ele><time>2010-05-16T08:45:57Z</time></trkpt>
<trkpt lat="48.204699" lon="8.868854"><ele>921.0</ele><time>2010-05-16T08:46:06Z</time></trkpt>
<trkpt lat="48.204846" lon="8.868657"><ele>926.0</ele><time>2010-05-16T08:46:15Z</time></trkpt>
<trkpt lat="48.204980" lon="8.868454"><ele>928.0</ele><time>2010-05-16T08:46:24Z</time></trkpt>
<trkpt lat="48.205043" lon="8.868215"><ele>940.0</ele><time>2010-05-16T08:46:33Z</time></trkpt>
<trkpt lat="48.205153" lon="8.868010"><ele>948.0</ele><time>2010-05-16T08:46:42Z</time></trkpt>
<trkpt lat="48.205305" lon="8.867809"><ele>945.0</ele><time>2010-05-16T08:46:51Z</time></trkpt>
<trkpt lat="48.205453" lon="8.867641"><ele>942.0</ele><time>2010-05-16T08:47:00Z</time></trkpt>
<trkpt lat="48.205577" lon="8.867480"><ele>938.0</ele><time>2010-05-16T08:47:09Z</time></trkpt>
<trkpt lat="48.205681" lon="8.867308"><ele>936.0</ele><time>2010-05-16T08:47:17Z</time></trkpt>
<trkpt lat="48.205775" lon="8.867086"><ele>939.0</ele><time>2010-05-16T08:47:26Z</time></trkpt>
<trkpt lat="48.205865" lon="8.866871"><ele>941.0</ele><time>2010-05-16T08:47:35Z</time></trkpt>
<trkpt lat="48.205948" lon="8.866657"><ele>946.0</ele><time>2010-05-16T08:47:44Z</time></trkpt>
<trkpt lat="48.206049" lon="8.866426"><ele>946.0</ele><time>2010-05-16T08:47:53Z</time></trkpt>
<trkpt lat="48.206125" lon="8.866197"><ele>947.0</ele><time>2010-05-16T08:48:02Z</time></trkpt>
<trkpt lat="48.206197" lon="8.865973"><ele>947.0</ele><time>2010-05-16T08:48:11Z</time></trkpt>
<trkpt lat="48.206271" lon="8.865732"><ele>945.0</ele><time>2010-05-16T08:48:22Z</time></trkpt>
<trkpt lat="48.206298" lon="8.865467"><ele>950.0</ele><time>2010-05-16T08:48:32Z</time></trkpt>
<trkpt lat="48.206332" lon="8.865235"><ele>948.0</ele><time>2010-05-16T08:48:43Z</time></trkpt>
<trkpt lat="48.206404" lon="8.864993"><ele>941.0</ele><time>2010-05-16T08:48:54Z</time></trkpt>
<trkpt lat="48.206470" lon="8.864747"><ele>932.0</ele><time>2010-05-16T08:49:06Z</time></trkpt>
<trkpt lat="48.206501" lon="8.864473"><ele>933.0</ele><time>2010-05-16T08:49:15Z</time></trkpt>
<trkpt lat="48.206580" lon="8.864232"><ele>936.0</ele><time>2010-05-16T08:49:25Z</time></trkpt>
<trkpt lat="48.206614" lon="8.863974"><ele>940.0</ele><time>2010-05-16T08:49:38Z</time></trkpt>
<trkpt lat="48.206787" lon="8.864041"><ele>950.0</ele><time>2010-05-16T08:50:00Z</time></trkpt>
<trkpt lat="48.206811" lon="8.864296"><ele>957.0</ele><time>2010-05-16T08:50:13Z</time></trkpt>
<trkpt lat="48.206843" lon="8.864547"><ele>964.0</ele><time>2010-05-16T08:50:27Z</time></trkpt>
<trkpt lat="48.206875" lon="8.864809"><ele>963.0</ele><time>2010-05-16T08:50:47Z</time></trkpt>
<trkpt lat="48.207037" lon="8.864695"><ele>968.0</ele><time>2010-05-16T08:51:08Z</time></trkpt>
<trkpt lat="48.207211" lon="8.864768"><ele>971.0</ele><time>2010-05-16T08:51:17Z</time></trkpt>
<trkpt lat="48.207373" lon="8.864833"><ele>973.0</ele><time>2010-05-16T08:51:28Z</time></trkpt>
<trkpt lat="48.207539" lon="8.864867"><ele>975.0</ele><time>2010-05-16T08:51:38Z</time></trkpt>
<trkpt lat="48.207704" lon="8.864912"><ele>978.0</ele><time>2010-05-16T08:51:49Z</time></trkpt>
<trkpt lat="48.207871" lon="8.864939"><ele>979.0</ele><time>2010-05-16T08:52:01Z</time></trkpt>
<trkpt lat="48.208043" lon="8.864958"><ele>978.0</ele><time>2010-05-16T08:52:14Z</time></trkpt>
<trkpt lat="48.208211" lon="8.865019"><ele>977.0</ele><time>2010-05-16T08:52:25Z</time></trkpt>
<trkpt lat="48.208388" lon="8.865057"><ele>976.0</ele><time>2010-05-16T08:52:35Z</time></trkpt>
<trkpt lat="48.208554" lon="8.865036"><ele>975.0</ele><time>2010-05-16T08:52:44Z</time></trkpt>
<trkpt lat="48.208737" lon="8.865026"><ele>971.0</ele><time>2010-05-16T08:52:53Z</time></trkpt>
<trkpt lat="48.208942" lon="8.865021"><ele>970.0</ele><time>2010-05-16T08:53:02Z</time></trkpt>
<trkpt lat="48.209195" lon="8.865075"><ele>968.0</ele><time>2010-05-16T08:53:11Z</time></trkpt>
<trkpt lat="48.209430" lon="8.865129"><ele>967.0</ele><time>2010-05-16T08:53:20Z</time></trkpt>
<trkpt lat="48.209656" lon="8.865179"><ele>969.0</ele><time>2010-05-16T08:53:29Z</time></trkpt>
<trkpt lat="48.209855" lon="8.865258"><ele>969.0</ele><time>2010-05-16T08:53:38Z</time></trkpt>
<trkpt lat="48.210064" lon="8.865355"><ele>977.0</ele><time>2010-05-16T08:53:47Z</time></trkpt>
<trkpt lat="48.210243" lon="8.865576"><ele>980.0</ele><time>2010-05-16T08:53:56Z</time></trkpt>
<trkpt lat="48.210441" lon="8.865749"><ele>982.0</ele><time>2010-05-16T08:54:05Z</time></trkpt>
<trkpt lat="48.210619" lon="8.865800"><ele>984.0</ele><time>2010-05-16T08:54:14Z</time></trkpt>
<trkpt lat="48.210780" lon="8.865982"><ele>986.0</ele><time>2010-05-16T08:54:23Z</time></trkpt>
<trkpt lat="48.210940" lon="8.866272"><ele>986.0</ele><time>2010-05-16T08:54:32Z</time></trkpt>
<trkpt lat="48.211135" lon="8.866531"><ele>986.0</ele><time>2010-05-16T08:54:41Z</time></trkpt>
<trkpt lat="48.211358" lon="8.866753"><ele>986.0</ele><time>2010-05-16T08:54:50Z</time></trkpt>
<trkpt lat="48.211616" lon="8.866954"><ele>987.0</ele><time>2010-05-16T08:54:59Z</time></trkpt>
<trkpt lat="48.211891" lon="8.867105"><ele>988.0</ele><time>2010-05-16T08:55:08Z</time></trkpt>
<trkpt lat="48.212157" lon="8.867232"><ele>989.0</ele><time>2010-05-16T08:55:17Z</time></trkpt>
<trkpt lat="48.212432" lon="8.867355"><ele>990.0</ele><time>2010-05-16T08:55:26Z</time></trkpt>
<trkpt lat="48.212709" lon="8.867467"><ele>990.0</ele><time>2010-05-16T08:55:35Z</time></trkpt>
<trkpt lat="48.213001" lon="8.867567"><ele>991.0</ele><time>2010-05-16T08:55:44Z</time></trkpt>
<trkpt lat="48.213305" lon="8.867702"><ele>991.0</ele><time>2010-05-16T08:55:53Z</time></trkpt>
<trkpt lat="48.213619" lon="8.867830"><ele>991.0</ele><time>2010-05-16T08:56:02Z</time></trkpt>
<trkpt lat="48.213945" lon="8.867920"><ele>991.0</ele><time>2010-05-16T08:56:11Z</time></trkpt>
<trkpt lat="48.214348" lon="8.867852"><ele>989.0</ele><time>2010-05-16T08:56:20Z</time></trkpt>
<trkpt lat="48.214790" lon="8.867832"><ele>987.0</ele><time>2010-05-16T08:56:29Z</time></trkpt>
<trkpt lat="48.215283" lon="8.868207"><ele>982.0</ele><time>2010-05-16T08:56:38Z</time></trkpt>
<trkpt lat="48.215663" lon="8.868989"><ele>982.0</ele><time>2010-05-16T08:56:47Z</time></trkpt>
<trkpt lat="48.215805" lon="8.869676"><ele>982.0</ele><time>2010-05-16T08:56:56Z</time></trkpt>
<trkpt lat="48.215902" lon="8.870301"><ele>983.0</ele><time>2010-05-16T08:57:05Z</time></trkpt>
<trkpt lat="48.215949" lon="8.870899"><ele>984.0</ele><time>2010-05-16T08:57:14Z</time></trkpt>
<trkpt lat="48.215915" lon="8.871541"><ele>984.0</ele><time>2010-05-16T08:57:23Z</time></trkpt>
<trkpt lat="48.215826" lon="8.872081"><ele>985.0</ele><time>2010-05-16T08:57:32Z</time></trkpt>
<trkpt lat="48.215751" lon="8.872361"><ele>987.0</ele><time>2010-05-16T08:57:41Z</time></trkpt>
<trkpt lat="48.215665" lon="8.872621"><ele>989.0</ele><time>2010-05-16T08:57:50Z</time></trkpt>
<trkpt lat="48.215533" lon="8.872833"><ele>992.0</ele><time>2010-05-16T08:57:59Z</time></trkpt>
<trkpt lat="48.215356" lon="8.872896"><ele>993.0</ele><time>2010-05-16T08:58:08Z</time></trkpt>
<trkpt lat="48.215202" lon="8.872958"><ele>993.0</ele><time>2010-05-16T09:12:28Z</time></trkpt>
<trkpt lat="48.215040" lon="8.873231"><ele>995.0</ele><time>2010-05-16T09:12:37Z</time></trkpt>
<trkpt lat="48.215035" lon="8.873563"><ele>997.0</ele><time>2010-05-16T09:12:46Z</time></trkpt>
<trkpt lat="48.215053" lon="8.873886"><ele>998.0</ele><time>2010-05-16T09:12:55Z</time></trkpt>
<trkpt lat="48.215041" lon="8.874271"><ele>998.0</ele><time>2010-05-16T09:13:04Z</time></trkpt>
<trkpt lat="48.215009" lon="8.874695"><ele>999.0</ele><time>2010-05-16T09:13:13Z</time></trkpt>
<trkpt lat="48.214984" lon="8.875144"><ele>1000.0</ele><time>2010-05-16T09:13:22Z</time></trkpt>
<trkpt lat="48.215001" lon="8.875598"><ele>1001.0</ele><time>2010-05-16T09:13:31Z</time></trkpt>
<trkpt lat="48.215029" lon="8.876065"><ele>1001.0</ele><time>2010-05-16T09:13:40Z</time></trkpt>
<trkpt lat="48.215107" lon="8.876424"><ele>1000.0</ele><time>2010-05-16T09:13:49Z</time></trkpt>
<trkpt lat="48.215351" lon="8.876386"><ele>1002.0</ele><time>2010-05-16T09:13:58Z</time></trkpt>
<trkpt lat="48.215607" lon="8.876306"><ele>1003.0</ele><time>2010-05-16T09:14:07Z</time></trkpt>
<trkpt lat="48.215822" lon="8.876240"><ele>1003.0</ele><time>2010-05-16T09:14:16Z</time></trkpt>
<trkpt lat="48.215997" lon="8.876286"><ele>1000.0</ele><time>2010-05-16T09:14:25Z</time></trkpt>
<trkpt lat="48.216267" lon="8.876370"><ele>1001.0</ele><time>2010-05-16T09:14:34Z</time></trkpt>
<trkpt lat="48.216540" lon="8.876475"><ele>1002.0</ele><time>2010-05-16T09:14:43Z</time></trkpt>
<trkpt lat="48.216808" lon="8.876679"><ele>1004.0</ele><time>2010-05-16T09:14:52Z</time></trkpt>
<trkpt lat="48.217060" lon="8.876944"><ele>1005.0</ele><time>2010-05-16T09:15:01Z</time></trkpt>
<trkpt lat="48.217337" lon="8.877199"><ele>1005.0</ele><time>2010-05-16T09:15:10Z</time></trkpt>
<trkpt lat="48.217640" lon="8.877415"><ele>1003.0</ele><time>2010-05-16T09:15:19Z</time></trkpt>
<trkpt lat="48.217973" lon="8.877632"><ele>1003.0</ele><time>2010-05-16T09:15:28Z</time></trkpt>
<trkpt lat="48.218325" lon="8.877791"><ele>1002.0</ele><time>2010-05-16T09:15:37Z</time></trkpt>
<trkpt lat="48.218631" lon="8.877991"><ele>1000.0</ele><time>2010-05-16T09:15:46Z</time></trkpt>
<trkpt lat="48.219047" lon="8.878125"><ele>998.0</ele><time>2010-05-16T09:15:55Z</time></trkpt>
<trkpt lat="48.219497" lon="8.878220"><ele>996.0</ele><time>2010-05-16T09:16:04Z</time></trkpt>
<trkpt lat="48.219779" lon="8.878262"><ele>998.0</ele><time>2010-05-16T09:16:13Z</time></trkpt>
<trkpt lat="48.220030" lon="8.878286"><ele>998.0</ele><time>2010-05-16T09:16:22Z</time></trkpt>
<trkpt lat="48.220259" lon="8.878303"><ele>999.0</ele><time>2010-05-16T09:16:31Z</time></trkpt>
<trkpt lat="48.220503" lon="8.878337"><ele>999.0</ele><time>2010-05-16T09:16:40Z</time></trkpt>
<trkpt lat="48.220789" lon="8.878371"><ele>999.0</ele><time>2010-05-16T09:16:49Z</time></trkpt>
<trkpt lat="48.221080" lon="8.878377"><ele>999.0</ele><time>2010-05-16T09:16:58Z</time></trkpt>
<trkpt lat="48.221330" lon="8.878404"><ele>999.0</ele><time>2010-05-16T09:17:07Z</time></trkpt>
<trkpt lat="48.221612" lon="8.878457"><ele>999.0</ele><time>2010-05-16T09:17:16Z</time></trkpt>
<trkpt lat="48.221844" lon="8.878503"><ele>1002.0</ele><time>2010-05-16T09:17:25Z</time></trkpt>
<trkpt lat="48.222021" lon="8.878530"><ele>1004.0</ele><time>2010-05-16T09:17:34Z</time></trkpt>
<trkpt lat="48.222193" lon="8.878569"><ele>1007.0</ele><time>2010-05-16T09:17:46Z</time></trkpt>
<trkpt lat="48.222373" lon="8.878580"><ele>1004.0</ele><time>2010-05-16T09:18:21Z</time></trkpt>
<trkpt lat="48.222258" lon="8.878531"><ele>1005.0</ele><time>2010-05-16T09:23:23Z</time></trkpt>
<trkpt lat="48.221846" lon="8.878460"><ele>1003.0</ele><time>2010-05-16T09:23:32Z</time></trkpt>
<trkpt lat="48.221362" lon="8.877966"><ele>1000.0</ele><time>2010-05-16T09:23:41Z</time></trkpt>
<trkpt lat="48.221207" lon="8.877807"><ele>1001.0</ele><time>2010-05-16T09:23:50Z</time></trkpt>
<trkpt lat="48.221066" lon="8.877657"><ele>1001.0</ele><time>2010-05-16T09:24:39Z</time></trkpt>
<trkpt lat="48.220902" lon="8.877535"><ele>1001.0</ele><time>2010-05-16T09:24:48Z</time></trkpt>
<trkpt lat="48.220738" lon="8.877418"><ele>1001.0</ele><time>2010-05-16T09:24:57Z</time></trkpt>
<trkpt lat="48.220552" lon="8.877278"><ele>1001.0</ele><time>2010-05-16T09:25:06Z</time></trkpt>
<trkpt lat="48.220326" lon="8.877230"><ele>1001.0</ele><time>2010-05-16T09:25:15Z</time></trkpt>
<trkpt lat="48.220102" lon="8.877304"><ele>1000.0</ele><time>2010-05-16T09:25:24Z</time></trkpt>
<trkpt lat="48.219830" lon="8.877441"><ele>998.0</ele><time>2010-05-16T09:25:33Z</time></trkpt>
<trkpt lat="48.219459" lon="8.877552"><ele>996.0</ele><time>2010-05-16T09:25:42Z</time></trkpt>
<trkpt lat="48.219126" lon="8.877651"><ele>995.0</ele><time>2010-05-16T09:25:51Z</time></trkpt>
<trkpt lat="48.218907" lon="8.877657"><ele>995.0</ele><time>2010-05-16T09:26:00Z</time></trkpt>
<trkpt lat="48.218713" lon="8.877525"><ele>995.0</ele><time>2010-05-16T09:26:09Z</time></trkpt>
<trkpt lat="48.218506" lon="8.877369"><ele>997.0</ele><time>2010-05-16T09:26:18Z</time></trkpt>
<trkpt lat="48.218375" lon="8.877235"><ele>998.0</ele><time>2010-05-16T09:26:27Z</time></trkpt>
<trkpt lat="48.218292" lon="8.876999"><ele>999.0</ele><time>2010-05-16T09:26:38Z</time></trkpt>
<trkpt lat="48.218233" lon="8.876758"><ele>1000.0</ele><time>2010-05-16T09:26:59Z</time></trkpt>
<trkpt lat="48.218260" lon="8.876502"><ele>998.0</ele><time>2010-05-16T09:27:19Z</time></trkpt>
<trkpt lat="48.218289" lon="8.876243"><ele>997.0</ele><time>2010-05-16T09:27:31Z</time></trkpt>
<trkpt lat="48.218356" lon="8.876013"><ele>991.0</ele><time>2010-05-16T09:27:41Z</time></trkpt>
<trkpt lat="48.218392" lon="8.875672"><ele>989.0</ele><time>2010-05-16T09:27:50Z</time></trkpt>
<trkpt lat="48.218389" lon="8.875405"><ele>986.0</ele><time>2010-05-16T09:28:00Z</time></trkpt>
<trkpt lat="48.218288" lon="8.875197"><ele>989.0</ele><time>2010-05-16T09:28:17Z</time></trkpt>
<trkpt lat="48.218160" lon="8.875011"><ele>994.0</ele><time>2010-05-16T09:28:40Z</time></trkpt>
<trkpt lat="48.218030" lon="8.874863"><ele>1000.0</ele><time>2010-05-16T09:28:56Z</time></trkpt>
<trkpt lat="48.217894" lon="8.874696"><ele>995.0</ele><time>2010-05-16T09:29:05Z</time></trkpt>
<trkpt lat="48.217767" lon="8.874523"><ele>995.0</ele><time>2010-05-16T09:29:14Z</time></trkpt>
<trkpt lat="48.217590" lon="8.874300"><ele>998.0</ele><time>2010-05-16T09:29:23Z</time></trkpt>
<trkpt lat="48.217473" lon="8.874031"><ele>1004.0</ele><time>2010-05-16T09:29:32Z</time></trkpt>
<trkpt lat="48.217374" lon="8.873664"><ele>1003.0</ele><time>2010-05-16T09:29:41Z</time></trkpt>
<trkpt lat="48.217314" lon="8.873129"><ele>998.0</ele><time>2010-05-16T09:29:50Z</time></trkpt>
<trkpt lat="48.217226" lon="8.872485"><ele>995.0</ele><time>2010-05-16T09:29:59Z</time></trkpt>
<trkpt lat="48.217114" lon="8.871996"><ele>997.0</ele><time>2010-05-16T09:30:08Z</time></trkpt>
<trkpt lat="48.216898" lon="8.871280"><ele>994.0</ele><time>2010-05-16T09:30:17Z</time></trkpt>
<trkpt lat="48.216722" lon="8.870514"><ele>994.0</ele><time>2010-05-16T09:30:26Z</time></trkpt>
<trkpt lat="48.216597" lon="8.869874"><ele>992.0</ele><time>2010-05-16T09:30:35Z</time></trkpt>
<trkpt lat="48.216466" lon="8.869326"><ele>993.0</ele><time>2010-05-16T09:30:44Z</time></trkpt>
<trkpt lat="48.216377" lon="8.868788"><ele>994.0</ele><time>2010-05-16T09:30:53Z</time></trkpt>
<trkpt lat="48.216390" lon="8.868089"><ele>991.0</ele><time>2010-05-16T09:31:02Z</time></trkpt>
<trkpt lat="48.216301" lon="8.867627"><ele>992.0</ele><time>2010-05-16T09:31:11Z</time></trkpt>
<trkpt lat="48.216198" lon="8.867138"><ele>990.0</ele><time>2010-05-16T09:31:20Z</time></trkpt>
<trkpt lat="48.216200" lon="8.866642"><ele>990.0</ele><time>2010-05-16T09:31:29Z</time></trkpt>
<trkpt lat="48.216210" lon="8.866250"><ele>991.0</ele><time>2010-05-16T09:31:38Z</time></trkpt>
<trkpt lat="48.216216" lon="8.865971"><ele>992.0</ele><time>2010-05-16T09:31:47Z</time></trkpt>
<trkpt lat="48.216225" lon="8.865662"><ele>993.0</ele><time>2010-05-16T09:31:56Z</time></trkpt>
<trkpt lat="48.216240" lon="8.865375"><ele>996.0</ele><time>2010-05-16T09:32:05Z</time></trkpt>
<trkpt lat="48.216348" lon="8.865055"><ele>992.0</ele><time>2010-05-16T09:32:14Z</time></trkpt>
<trkpt lat="48.216467" lon="8.864681"><ele>990.0</ele><time>2010-05-16T09:32:23Z</time></trkpt>
<trkpt lat="48.216569" lon="8.864274"><ele>991.0</ele><time>2010-05-16T09:32:32Z</time></trkpt>
<trkpt lat="48.216604" lon="8.863800"><ele>988.0</ele><time>2010-05-16T09:32:41Z</time></trkpt>
<trkpt lat="48.216666" lon="8.863325"><ele>988.0</ele><time>2010-05-16T09:32:50Z</time></trkpt>
<trkpt lat="48.216747" lon="8.862843"><ele>989.0</ele><time>2010-05-16T09:32:59Z</time></trkpt>
<trkpt lat="48.216722" lon="8.862518"><ele>991.0</ele><time>2010-05-16T09:33:08Z</time></trkpt>
<trkpt lat="48.216614" lon="8.862214"><ele>992.0</ele><time>2010-05-16T09:33:17Z</time></trkpt>
<trkpt lat="48.216489" lon="8.861972"><ele>995.0</ele><time>2010-05-16T09:33:26Z</time></trkpt>
<trkpt lat="48.216396" lon="8.861655"><ele>999.0</ele><time>2010-05-16T09:33:35Z</time></trkpt>
<trkpt lat="48.216368" lon="8.861376"><ele>1001.0</ele><time>2010-05-16T09:33:44Z</time></trkpt>
<trkpt lat="48.216435" lon="8.861130"><ele>1000.0</ele><time>2010-05-16T09:33:55Z</time></trkpt>
<trkpt lat="48.216491" lon="8.860886"><ele>994.0</ele><time>2010-05-16T09:34:07Z</time></trkpt>
<trkpt lat="48.216524" lon="8.860631"><ele>983.0</ele><time>2010-05-16T09:34:18Z</time></trkpt>
<trkpt lat="48.216539" lon="8.860364"><ele>980.0</ele><time>2010-05-16T09:34:27Z</time></trkpt>
<trkpt lat="48.216524" lon="8.860101"><ele>977.0</ele><time>2010-05-16T09:34:37Z</time></trkpt>
<trkpt lat="48.216546" lon="8.859837"><ele>979.0</ele><time>2010-05-16T09:34:47Z</time></trkpt>
<trkpt lat="48.216539" lon="8.859583"><ele>977.0</ele><time>2010-05-16T09:34:57Z</time></trkpt>
<trkpt lat="48.216501" lon="8.859362"><ele>972.0</ele><time>2010-05-16T09:35:06Z</time></trkpt>
<trkpt lat="48.216454" lon="8.859084"><ele>971.0</ele><time>2010-05-16T09:35:15Z</time></trkpt>
<trkpt lat="48.216413" lon="8.858768"><ele>973.0</ele><time>2010-05-16T09:35:24Z</time></trkpt>
<trkpt lat="48.216520" lon="8.858463"><ele>965.0</ele><time>2010-05-16T09:35:33Z</time></trkpt>
<trkpt lat="48.216607" lon="8.857992"><ele>972.0</ele><time>2010-05-16T09:35:42Z</time></trkpt>
<trkpt lat="48.216764" lon="8.857569"><ele>970.0</ele><time>2010-05-16T09:35:51Z</time></trkpt>
<trkpt lat="48.216834" lon="8.857253"><ele>962.0</ele><time>2010-05-16T09:36:00Z</time></trkpt>
<trkpt lat="48.216855" lon="8.856998"><ele>960.0</ele><time>2010-05-16T09:36:22Z</time></trkpt>
<trkpt lat="48.216923" lon="8.856629"><ele>949.0</ele><time>2010-05-16T09:36:31Z</time></trkpt>
<trkpt lat="48.217012" lon="8.856122"><ele>941.0</ele><time>2010-05-16T09:36:40Z</time></trkpt>
<trkpt lat="48.217100" lon="8.855831"><ele>936.0</ele><time>2010-05-16T09:36:49Z</time></trkpt>
<trkpt lat="48.217149" lon="8.855589"><ele>935.0</ele><time>2010-05-16T09:36:58Z</time></trkpt>
<trkpt lat="48.217170" lon="8.855329"><ele>928.0</ele><time>2010-05-16T09:37:08Z</time></trkpt>
<trkpt lat="48.217194" lon="8.855067"><ele>931.0</ele><time>2010-05-16T09:37:22Z</time></trkpt>
<trkpt lat="48.217248" lon="8.854815"><ele>932.0</ele><time>2010-05-16T09:37:42Z</time></trkpt>
<trkpt lat="48.217147" lon="8.854596"><ele>939.0</ele><time>2010-05-16T09:38:02Z</time></trkpt>
<trkpt lat="48.217120" lon="8.854376"><ele>942.0</ele><time>2010-05-16T09:38:50Z</time></trkpt>
<trkpt lat="48.217299" lon="8.853968"><ele>942.0</ele><time>2010-05-16T09:38:59Z</time></trkpt>
<trkpt lat="48.217730" lon="8.853329"><ele>941.0</ele><time>2010-05-16T09:39:08Z</time></trkpt>
<trkpt lat="48.218215" lon="8.853043"><ele>938.0</ele><time>2010-05-16T09:39:17Z</time></trkpt>
<trkpt lat="48.217987" lon="8.852692"><ele>939.0</ele><time>2010-05-16T09:39:26Z</time></trkpt>
<trkpt lat="48.217995" lon="8.852266"><ele>943.0</ele><time>2010-05-16T09:39:35Z</time></trkpt>
<trkpt lat="48.218092" lon="8.851772"><ele>942.0</ele><time>2010-05-16T09:39:44Z</time></trkpt>
<trkpt lat="48.218033" lon="8.851172"><ele>937.0</ele><time>2010-05-16T09:39:53Z</time></trkpt>
<trkpt lat="48.217995" lon="8.850928"><ele>938.0</ele><time>2010-05-16T09:40:06Z</time></trkpt>
<trkpt lat="48.217983" lon="8.850652"><ele>936.0</ele><time>2010-05-16T09:40:15Z</time></trkpt>
<trkpt lat="48.217946" lon="8.850309"><ele>929.0</ele><time>2010-05-16T09:40:24Z</time></trkpt>
<trkpt lat="48.217909" lon="8.849833"><ele>924.0</ele><time>2010-05-16T09:40:33Z</time></trkpt>
<trkpt lat="48.217947" lon="8.849237"><ele>924.0</ele><time>2010-05-16T09:40:42Z</time></trkpt>
<trkpt lat="48.218071" lon="8.848649"><ele>925.0</ele><time>2010-05-16T09:40:51Z</time></trkpt>
<trkpt lat="48.218233" lon="8.847992"><ele>928.0</ele><time>2010-05-16T09:41:00Z</time></trkpt>
<trkpt lat="48.218436" lon="8.847427"><ele>933.0</ele><time>2010-05-16T09:41:09Z</time></trkpt>
<trkpt lat="48.218703" lon="8.846844"><ele>932.0</ele><time>2010-05-16T09:41:18Z</time></trkpt>
<trkpt lat="48.218933" lon="8.846293"><ele>935.0</ele><time>2010-05-16T09:41:27Z</time></trkpt>
<trkpt lat="48.218994" lon="8.845768"><ele>934.0</ele><time>2010-05-16T09:41:36Z</time></trkpt>
<trkpt lat="48.218899" lon="8.845377"><ele>936.0</ele><time>2010-05-16T09:41:44Z</time></trkpt>
<trkpt lat="48.218825" lon="8.845097"><ele>937.0</ele><time>2010-05-16T09:41:53Z</time></trkpt>
<trkpt lat="48.218857" lon="8.844847"><ele>930.0</ele><time>2010-05-16T09:42:25Z</time></trkpt>
<trkpt lat="48.218793" lon="8.844574"><ele>935.0</ele><time>2010-05-16T09:42:34Z</time></trkpt>
<trkpt lat="48.218767" lon="8.844318"><ele>933.0</ele><time>2010-05-16T09:44:49Z</time></trkpt>
<trkpt lat="48.218680" lon="8.844100"><ele>939.0</ele><time>2010-05-16T09:44:58Z</time></trkpt>
<trkpt lat="48.218603" lon="8.843878"><ele>942.0</ele><time>2010-05-16T09:45:08Z</time></trkpt>
<trkpt lat="48.218531" lon="8.843648"><ele>944.0</ele><time>2010-05-16T09:45:19Z</time></trkpt>
<trkpt lat="48.218440" lon="8.843422"><ele>945.0</ele><time>2010-05-16T09:45:31Z</time></trkpt>
<trkpt lat="48.218356" lon="8.843200"><ele>945.0</ele><time>2010-05-16T09:45:42Z</time></trkpt>
<trkpt lat="48.218319" lon="8.842947"><ele>944.0</ele><time>2010-05-16T09:45:57Z</time></trkpt>
<trkpt lat="48.218274" lon="8.842687"><ele>944.0</ele><time>2010-05-16T09:46:18Z</time></trkpt>
<trkpt lat="48.218236" lon="8.842426"><ele>951.0</ele><time>2010-05-16T09:46:33Z</time></trkpt>
<trkpt lat="48.218212" lon="8.842159"><ele>950.0</ele><time>2010-05-16T09:46:47Z</time></trkpt>
<trkpt lat="48.218118" lon="8.841943"><ele>943.0</ele><time>2010-05-16T09:46:58Z</time></trkpt>
<trkpt lat="48.217975" lon="8.841820"><ele>947.0</ele><time>2010-05-16T09:47:09Z</time></trkpt>
<trkpt lat="48.217819" lon="8.841713"><ele>954.0</ele><time>2010-05-16T09:47:18Z</time></trkpt>
<trkpt lat="48.217653" lon="8.841618"><ele>956.0</ele><time>2010-05-16T09:47:28Z</time></trkpt>
<trkpt lat="48.217504" lon="8.841493"><ele>957.0</ele><time>2010-05-16T09:47:41Z</time></trkpt>
<trkpt lat="48.217361" lon="8.841366"><ele>960.0</ele><time>2010-05-16T09:47:54Z</time></trkpt>
<trkpt lat="48.217221" lon="8.841224"><ele>962.0</ele><time>2010-05-16T09:48:07Z</time></trkpt>
<trkpt lat="48.217079" lon="8.841077"><ele>964.0</ele><time>2010-05-16T09:48:20Z</time></trkpt>
<trkpt lat="48.216919" lon="8.840961"><ele>966.0</ele><time>2010-05-16T09:48:34Z</time></trkpt>
<trkpt lat="48.216746" lon="8.840903"><ele>968.0</ele><time>2010-05-16T09:48:48Z</time></trkpt>
<trkpt lat="48.216574" lon="8.840913"><ele>971.0</ele><time>2010-05-16T09:49:02Z</time></trkpt>
<trkpt lat="48.216401" lon="8.840966"><ele>973.0</ele><time>2010-05-16T09:49:16Z</time></trkpt>
<trkpt lat="48.216238" lon="8.841029"><ele>976.0</ele><time>2010-05-16T09:49:31Z</time></trkpt>
<trkpt lat="48.216062" lon="8.841061"><ele>976.0</ele><time>2010-05-16T09:49:47Z</time></trkpt>
<trkpt lat="48.215990" lon="8.840815"><ele>975.0</ele><time>2010-05-16T09:50:21Z</time></trkpt>
<trkpt lat="48.216041" lon="8.840569"><ele>980.0</ele><time>2010-05-16T09:50:33Z</time></trkpt>
<trkpt lat="48.216101" lon="8.840315"><ele>980.0</ele><time>2010-05-16T09:50:46Z</time></trkpt>
<trkpt lat="48.216119" lon="8.840047"><ele>978.0</ele><time>2010-05-16T09:50:56Z</time></trkpt>
<trkpt lat="48.216153" lon="8.839802"><ele>974.0</ele><time>2010-05-16T09:51:05Z</time></trkpt>
<trkpt lat="48.216197" lon="8.839543"><ele>975.0</ele><time>2010-05-16T09:51:14Z</time></trkpt>
<trkpt lat="48.216259" lon="8.839268"><ele>975.0</ele><time>2010-05-16T09:51:23Z</time></trkpt>
<trkpt lat="48.216309" lon="8.839028"><ele>974.0</ele><time>2010-05-16T09:51:32Z</time></trkpt>
<trkpt lat="48.216405" lon="8.838802"><ele>971.0</ele><time>2010-05-16T09:51:42Z</time></trkpt>
<trkpt lat="48.216474" lon="8.838570"><ele>960.0</ele><time>2010-05-16T09:51:53Z</time></trkpt>
<trkpt lat="48.216513" lon="8.838338"><ele>959.0</ele><time>2010-05-16T09:52:02Z</time></trkpt>
<trkpt lat="48.216535" lon="8.838084"><ele>956.0</ele><time>2010-05-16T09:52:11Z</time></trkpt>
<trkpt lat="48.216555" lon="8.837816"><ele>962.0</ele><time>2010-05-16T09:52:20Z</time></trkpt>
<trkpt lat="48.216577" lon="8.837573"><ele>962.0</ele><time>2010-05-16T09:52:30Z</time></trkpt>
<trkpt lat="48.216552" lon="8.837320"><ele>963.0</ele><time>2010-05-16T09:52:40Z</time></trkpt>
<trkpt lat="48.216541" lon="8.837055"><ele>955.0</ele><time>2010-05-16T09:52:51Z</time></trkpt>
<trkpt lat="48.216518" lon="8.836793"><ele>954.0</ele><time>2010-05-16T09:53:01Z</time></trkpt>
<trkpt lat="48.216506" lon="8.836524"><ele>957.0</ele><time>2010-05-16T09:53:10Z</time></trkpt>
<trkpt lat="48.216413" lon="8.836262"><ele>966.0</ele><time>2010-05-16T09:53:19Z</time></trkpt>
<trkpt lat="48.216273" lon="8.836115"><ele>956.0</ele><time>2010-05-16T09:53:33Z</time></trkpt>
<trkpt lat="48.216166" lon="8.835912"><ele>971.0</ele><time>2010-05-16T09:53:44Z</time></trkpt>
<trkpt lat="48.216026" lon="8.835749"><ele>976.0</ele><time>2010-05-16T09:54:00Z</time></trkpt>
<trkpt lat="48.215881" lon="8.835615"><ele>978.0</ele><time>2010-05-16T09:54:15Z</time></trkpt>
<trkpt lat="48.215745" lon="8.835479"><ele>990.0</ele><time>2010-05-16T09:54:26Z</time></trkpt>
<trkpt lat="48.215582" lon="8.835392"><ele>997.0</ele><time>2010-05-16T09:54:36Z</time></trkpt>
<trkpt lat="48.215423" lon="8.835321"><ele>996.0</ele><time>2010-05-16T09:54:47Z</time></trkpt>
<trkpt lat="48.215281" lon="8.835179"><ele>995.0</ele><time>2010-05-16T09:55:58Z</time></trkpt>
<trkpt lat="48.215122" lon="8.835083"><ele>995.0</ele><time>2010-05-16T09:56:07Z</time></trkpt>
<trkpt lat="48.214957" lon="8.834980"><ele>993.0</ele><time>2010-05-16T09:56:19Z</time></trkpt>
<trkpt lat="48.214796" lon="8.834912"><ele>993.0</ele><time>2010-05-16T09:56:31Z</time></trkpt>
<trkpt lat="48.214634" lon="8.834901"><ele>995.0</ele><time>2010-05-16T09:56:41Z</time></trkpt>
<trkpt lat="48.214460" lon="8.834913"><ele>996.0</ele><time>2010-05-16T09:56:51Z</time></trkpt>
<trkpt lat="48.214614" lon="8.834836"><ele>999.0</ele><time>2010-05-16T09:57:30Z</time></trkpt>
<trkpt lat="48.214900" lon="8.834968"><ele>999.0</ele><time>2010-05-16T09:57:39Z</time></trkpt>
<trkpt lat="48.215243" lon="8.835021"><ele>1002.0</ele><time>2010-05-16T09:57:48Z</time></trkpt>
<trkpt lat="48.215420" lon="8.835059"><ele>1001.0</ele><time>2010-05-16T09:57:57Z</time></trkpt>
<trkpt lat="48.215629" lon="8.835006"><ele>1009.0</ele><time>2010-05-16T09:58:06Z</time></trkpt>
<trkpt lat="48.215807" lon="8.834978"><ele>1007.0</ele><time>2010-05-16T09:58:24Z</time></trkpt>
<trkpt lat="48.215982" lon="8.834990"><ele>997.0</ele><time>2010-05-16T09:59:22Z</time></trkpt>
<trkpt lat="48.216156" lon="8.834987"><ele>1001.0</ele><time>2010-05-16T09:59:53Z</time></trkpt>
<trkpt lat="48.216040" lon="8.834785"><ele>988.0</ele><time>2010-05-16T10:00:33Z</time></trkpt>
<trkpt lat="48.215862" lon="8.834640"><ele>980.0</ele><time>2010-05-16T10:00:42Z</time></trkpt>
<trkpt lat="48.215673" lon="8.834516"><ele>973.0</ele><time>2010-05-16T10:00:51Z</time></trkpt>
<trkpt lat="48.215517" lon="8.834379"><ele>973.0</ele><time>2010-05-16T10:01:00Z</time></trkpt>
<trkpt lat="48.215382" lon="8.834236"><ele>975.0</ele><time>2010-05-16T10:01:10Z</time></trkpt>
<trkpt lat="48.215223" lon="8.834097"><ele>973.0</ele><time>2010-05-16T10:01:19Z</time></trkpt>
<trkpt lat="48.215118" lon="8.833883"><ele>974.0</ele><time>2010-05-16T10:01:43Z</time></trkpt>
<trkpt lat="48.215106" lon="8.833587"><ele>986.0</ele><time>2010-05-16T10:01:52Z</time></trkpt>
<trkpt lat="48.215118" lon="8.833322"><ele>988.0</ele><time>2010-05-16T10:02:21Z</time></trkpt>
<trkpt lat="48.215234" lon="8.833117"><ele>978.0</ele><time>2010-05-16T10:02:39Z</time></trkpt>
<trkpt lat="48.215318" lon="8.832889"><ele>966.0</ele><time>2010-05-16T10:02:58Z</time></trkpt>
<trkpt lat="48.215363" lon="8.832645"><ele>961.0</ele><time>2010-05-16T10:03:20Z</time></trkpt>
<trkpt lat="48.215382" lon="8.832384"><ele>948.0</ele><time>2010-05-16T10:03:36Z</time></trkpt>
<trkpt lat="48.215436" lon="8.832135"><ele>924.0</ele><time>2010-05-16T10:04:00Z</time></trkpt>
<trkpt lat="48.215511" lon="8.831909"><ele>912.0</ele><time>2010-05-16T10:04:13Z</time></trkpt>
<trkpt lat="48.215569" lon="8.831668"><ele>907.0</ele><time>2010-05-16T10:04:28Z</time></trkpt>
<trkpt lat="48.215597" lon="8.831409"><ele>908.0</ele><time>2010-05-16T10:04:45Z</time></trkpt>
<trkpt lat="48.215618" lon="8.831180"><ele>908.0</ele><time>2010-05-16T10:05:04Z</time></trkpt>
<trkpt lat="48.215675" lon="8.830871"><ele>900.0</ele><time>2010-05-16T10:05:13Z</time></trkpt>
<trkpt lat="48.215732" lon="8.830331"><ele>899.0</ele><time>2010-05-16T10:05:22Z</time></trkpt>
<trkpt lat="48.215775" lon="8.830066"><ele>893.0</ele><time>2010-05-16T10:05:31Z</time></trkpt>
<trkpt lat="48.215829" lon="8.829799"><ele>881.0</ele><time>2010-05-16T10:05:40Z</time></trkpt>
<trkpt lat="48.215931" lon="8.829285"><ele>883.0</ele><time>2010-05-16T10:05:49Z</time></trkpt>
<trkpt lat="48.215907" lon="8.829023"><ele>902.0</ele><time>2010-05-16T10:06:15Z</time></trkpt>
<trkpt lat="48.215879" lon="8.828776"><ele>904.0</ele><time>2010-05-16T10:06:32Z</time></trkpt>
<trkpt lat="48.215743" lon="8.828240"><ele>894.0</ele><time>2010-05-16T10:06:41Z</time></trkpt>
<trkpt lat="48.215696" lon="8.827982"><ele>890.0</ele><time>2010-05-16T10:06:54Z</time></trkpt>
<trkpt lat="48.215576" lon="8.827784"><ele>884.0</ele><time>2010-05-16T10:07:16Z</time></trkpt>
<trkpt lat="48.215472" lon="8.827589"><ele>881.0</ele><time>2010-05-16T10:07:25Z</time></trkpt>
<trkpt lat="48.215351" lon="8.827416"><ele>880.0</ele><time>2010-05-16T10:07:34Z</time></trkpt>
<trkpt lat="48.215177" lon="8.827170"><ele>869.0</ele><time>2010-05-16T10:07:43Z</time></trkpt>
<trkpt lat="48.215024" lon="8.826917"><ele>867.0</ele><time>2010-05-16T10:07:52Z</time></trkpt>
<trkpt lat="48.214831" lon="8.826633"><ele>863.0</ele><time>2010-05-16T10:08:01Z</time></trkpt>
<trkpt lat="48.214623" lon="8.826283"><ele>861.0</ele><time>2010-05-16T10:08:10Z</time></trkpt>
<trkpt lat="48.214447" lon="8.825813"><ele>863.0</ele><time>2010-05-16T10:08:19Z</time></trkpt>
<trkpt lat="48.214350" lon="8.825423"><ele>862.0</ele><time>2010-05-16T10:08:28Z</time></trkpt>
<trkpt lat="48.214190" lon="8.825031"><ele>868.0</ele><time>2010-05-16T10:08:37Z</time></trkpt>
<trkpt lat="48.214107" lon="8.824652"><ele>870.0</ele><time>2010-05-16T10:08:46Z</time></trkpt>
<trkpt lat="48.213999" lon="8.824136"><ele>886.0</ele><time>2010-05-16T10:08:55Z</time></trkpt>
<trkpt lat="48.214006" lon="8.823750"><ele>884.0</ele><time>2010-05-16T10:09:04Z</time></trkpt>
<trkpt lat="48.213986" lon="8.823343"><ele>879.0</ele><time>2010-05-16T10:09:13Z</time></trkpt>
<trkpt lat="48.213973" lon="8.823079"><ele>880.0</ele><time>2010-05-16T10:09:22Z</time></trkpt>
<trkpt lat="48.213964" lon="8.822820"><ele>879.0</ele><time>2010-05-16T10:09:31Z</time></trkpt>
<trkpt lat="48.213929" lon="8.822563"><ele>874.0</ele><time>2010-05-16T10:09:41Z</time></trkpt>
<trkpt lat="48.213898" lon="8.822155"><ele>881.0</ele><time>2010-05-16T10:09:50Z</time></trkpt>
<trkpt lat="48.213923" lon="8.821791"><ele>883.0</ele><time>2010-05-16T10:09:59Z</time></trkpt>
<trkpt lat="48.213964" lon="8.821546"><ele>879.0</ele><time>2010-05-16T10:10:08Z</time></trkpt>
<trkpt lat="48.213985" lon="8.821270"><ele>881.0</ele><time>2010-05-16T10:10:17Z</time></trkpt>
<trkpt lat="48.214023" lon="8.820981"><ele>883.0</ele><time>2010-05-16T10:10:26Z</time></trkpt>
<trkpt lat="48.214057" lon="8.820724"><ele>876.0</ele><time>2010-05-16T10:10:35Z</time></trkpt>
<trkpt lat="48.214037" lon="8.820459"><ele>876.0</ele><time>2010-05-16T10:10:47Z</time></trkpt>
<trkpt lat="48.214160" lon="8.820266"><ele>897.0</ele><time>2010-05-16T10:11:09Z</time></trkpt>
<trkpt lat="48.214302" lon="8.820104"><ele>895.0</ele><time>2010-05-16T10:11:27Z</time></trkpt>
<trkpt lat="48.214402" lon="8.819894"><ele>906.0</ele><time>2010-05-16T10:11:39Z</time></trkpt>
<trkpt lat="48.214466" lon="8.819652"><ele>912.0</ele><time>2010-05-16T10:11:51Z</time></trkpt>
<trkpt lat="48.214466" lon="8.819385"><ele>915.0</ele><time>2010-05-16T10:12:09Z</time></trkpt>
<trkpt lat="48.214522" lon="8.819146"><ele>915.0</ele><time>2010-05-16T10:12:29Z</time></trkpt>
<trkpt lat="48.214693" lon="8.819065"><ele>922.0</ele><time>2010-05-16T10:12:53Z</time></trkpt>
<trkpt lat="48.214864" lon="8.819135"><ele>924.0</ele><time>2010-05-16T10:13:19Z</time></trkpt>
<trkpt lat="48.215024" lon="8.819243"><ele>925.0</ele><time>2010-05-16T10:13:38Z</time></trkpt>
<trkpt lat="48.215189" lon="8.819336"><ele>927.0</ele><time>2010-05-16T10:13:58Z</time></trkpt>
<trkpt lat="48.215366" lon="8.819374"><ele>933.0</ele><time>2010-05-16T10:14:16Z</time></trkpt>
<trkpt lat="48.215540" lon="8.819441"><ele>935.0</ele><time>2010-05-16T10:14:35Z</time></trkpt>
<trkpt lat="48.215712" lon="8.819508"><ele>936.0</ele><time>2010-05-16T10:14:53Z</time></trkpt>
<trkpt lat="48.215887" lon="8.819533"><ele>940.0</ele><time>2010-05-16T10:15:15Z</time></trkpt>
<trkpt lat="48.216059" lon="8.819505"><ele>948.0</ele><time>2010-05-16T10:15:33Z</time></trkpt>
<trkpt lat="48.216224" lon="8.819417"><ele>937.0</ele><time>2010-05-16T10:15:52Z</time></trkpt>
<trkpt lat="48.216372" lon="8.819269"><ele>945.0</ele><time>2010-05-16T10:16:19Z</time></trkpt>
<trkpt lat="48.216452" lon="8.819034"><ele>945.0</ele><time>2010-05-16T10:16:42Z</time></trkpt>
<trkpt lat="48.216545" lon="8.818808"><ele>947.0</ele><time>2010-05-16T10:17:03Z</time></trkpt>
<trkpt lat="48.216652" lon="8.818593"><ele>942.0</ele><time>2010-05-16T10:17:25Z</time></trkpt>
<trkpt lat="48.216778" lon="8.818409"><ele>943.0</ele><time>2010-05-16T10:17:50Z</time></trkpt>
<trkpt lat="48.216868" lon="8.818204"><ele>967.0</ele><time>2010-05-16T10:20:50Z</time></trkpt>
<trkpt lat="48.216862" lon="8.817950"><ele>978.0</ele><time>2010-05-16T10:22:22Z</time></trkpt>
<trkpt lat="48.216781" lon="8.817737"><ele>975.0</ele><time>2010-05-16T10:22:40Z</time></trkpt>
<trkpt lat="48.216673" lon="8.817542"><ele>987.0</ele><time>2010-05-16T10:22:57Z</time></trkpt>
<trkpt lat="48.216562" lon="8.817339"><ele>983.0</ele><time>2010-05-16T10:23:17Z</time></trkpt>
<trkpt lat="48.216455" lon="8.817137"><ele>978.0</ele><time>2010-05-16T10:23:38Z</time></trkpt>
<trkpt lat="48.216366" lon="8.816916"><ele>970.0</ele><time>2010-05-16T10:23:56Z</time></trkpt>
<trkpt lat="48.216278" lon="8.816691"><ele>968.0</ele><time>2010-05-16T10:24:11Z</time></trkpt>
<trkpt lat="48.216185" lon="8.816460"><ele>962.0</ele><time>2010-05-16T10:24:30Z</time></trkpt>
<trkpt lat="48.216098" lon="8.816237"><ele>963.0</ele><time>2010-05-16T10:24:45Z</time></trkpt>
<trkpt lat="48.216014" lon="8.816005"><ele>967.0</ele><time>2010-05-16T10:25:05Z</time></trkpt>
<trkpt lat="48.215923" lon="8.815810"><ele>974.0</ele><time>2010-05-16T10:25:21Z</time></trkpt>
<trkpt lat="48.215857" lon="8.815563"><ele>988.0</ele><time>2010-05-16T10:25:38Z</time></trkpt>
<trkpt lat="48.215797" lon="8.815324"><ele>999.0</ele><time>2010-05-16T10:25:52Z</time></trkpt>
<trkpt lat="48.215756" lon="8.815076"><ele>1014.0</ele><time>2010-05-16T10:26:03Z</time></trkpt>
<trkpt lat="48.215822" lon="8.814838"><ele>1013.0</ele><time>2010-05-16T10:26:30Z</time></trkpt>
<trkpt lat="48.215863" lon="8.814580"><ele>1018.0</ele><time>2010-05-16T10:26:47Z</time></trkpt>
<trkpt lat="48.215913" lon="8.814325"><ele>1017.0</ele><time>2010-05-16T10:27:03Z</time></trkpt>
<trkpt lat="48.215989" lon="8.814548"><ele>1021.0</ele><time>2010-05-16T10:27:47Z</time></trkpt>
<trkpt lat="48.216090" lon="8.814798"><ele>1020.0</ele><time>2010-05-16T10:27:56Z</time></trkpt>
<trkpt lat="48.216201" lon="8.815037"><ele>1020.0</ele><time>2010-05-16T10:28:05Z</time></trkpt>
<trkpt lat="48.216297" lon="8.815262"><ele>1021.0</ele><time>2010-05-16T10:28:14Z</time></trkpt>
<trkpt lat="48.216404" lon="8.815466"><ele>1023.0</ele><time>2010-05-16T10:28:23Z</time></trkpt>
<trkpt lat="48.216510" lon="8.815657"><ele>1024.0</ele><time>2010-05-16T10:28:32Z</time></trkpt>
<trkpt lat="48.216637" lon="8.815814"><ele>1025.0</ele><time>2010-05-16T10:28:42Z</time></trkpt>
<trkpt lat="48.216800" lon="8.815891"><ele>1026.0</ele><time>2010-05-16T10:28:53Z</time></trkpt>
<trkpt lat="48.216973" lon="8.815917"><ele>1027.0</ele><time>2010-05-16T10:29:03Z</time></trkpt>
<trkpt lat="48.217154" lon="8.815910"><ele>1031.0</ele><time>2010-05-16T10:29:12Z</time></trkpt>
<trkpt lat="48.217333" lon="8.815882"><ele>1034.0</ele><time>2010-05-16T10:29:21Z</time></trkpt>
<trkpt lat="48.217498" lon="8.815953"><ele>1033.0</ele><time>2010-05-16T10:29:38Z</time></trkpt>
<trkpt lat="48.217666" lon="8.816022"><ele>1027.0</ele><time>2010-05-16T10:29:51Z</time></trkpt>
<trkpt lat="48.217823" lon="8.815950"><ele>1026.0</ele><time>2010-05-16T10:30:01Z</time></trkpt>
<trkpt lat="48.217976" lon="8.815828"><ele>1026.0</ele><time>2010-05-16T10:30:11Z</time></trkpt>
<trkpt lat="48.218112" lon="8.815681"><ele>1025.0</ele><time>2010-05-16T10:30:21Z</time></trkpt>
<trkpt lat="48.218240" lon="8.815521"><ele>1027.0</ele><time>2010-05-16T10:30:30Z</time></trkpt>
<trkpt lat="48.218383" lon="8.815358"><ele>1036.0</ele><time>2010-05-16T10:31:49Z</time></trkpt>
<trkpt lat="48.218491" lon="8.815151"><ele>1036.0</ele><time>2010-05-16T10:48:53Z</time></trkpt>
<trkpt lat="48.218625" lon="8.814946"><ele>1031.0</ele><time>2010-05-16T10:49:02Z</time></trkpt>
<trkpt lat="48.218717" lon="8.814702"><ele>1026.0</ele><time>2010-05-16T10:49:11Z</time></trkpt>
<trkpt lat="48.218748" lon="8.814457"><ele>1025.0</ele><time>2010-05-16T10:49:20Z</time></trkpt>
<trkpt lat="48.218710" lon="8.814203"><ele>1023.0</ele><time>2010-05-16T10:49:29Z</time></trkpt>
<trkpt lat="48.218567" lon="8.814056"><ele>1023.0</ele><time>2010-05-16T10:49:38Z</time></trkpt>
<trkpt lat="48.218403" lon="8.813926"><ele>1027.0</ele><time>2010-05-16T10:49:47Z</time></trkpt>
<trkpt lat="48.218219" lon="8.813785"><ele>1031.0</ele><time>2010-05-16T10:49:56Z</time></trkpt>
<trkpt lat="48.218058" lon="8.813652"><ele>1030.0</ele><time>2010-05-16T10:50:05Z</time></trkpt>
<trkpt lat="48.217910" lon="8.813507"><ele>1028.0</ele><time>2010-05-16T10:50:15Z</time></trkpt>
<trkpt lat="48.217736" lon="8.813346"><ele>1029.0</ele><time>2010-05-16T10:50:24Z</time></trkpt>
<trkpt lat="48.217575" lon="8.813124"><ele>1027.0</ele><time>2010-05-16T10:50:33Z</time></trkpt>
<trkpt lat="48.217386" lon="8.812823"><ele>1025.0</ele><time>2010-05-16T10:50:42Z</time></trkpt>
<trkpt lat="48.217146" lon="8.812815"><ele>1025.0</ele><time>2010-05-16T10:50:51Z</time></trkpt>
<trkpt lat="48.216917" lon="8.812832"><ele>1026.0</ele><time>2010-05-16T10:51:00Z</time></trkpt>
<trkpt lat="48.216691" lon="8.812839"><ele>1027.0</ele><time>2010-05-16T10:51:09Z</time></trkpt>
<trkpt lat="48.216493" lon="8.812945"><ele>1027.0</ele><time>2010-05-16T10:51:18Z</time></trkpt>
<trkpt lat="48.216305" lon="8.813027"><ele>1026.0</ele><time>2010-05-16T10:51:27Z</time></trkpt>
<trkpt lat="48.216102" lon="8.813044"><ele>1027.0</ele><time>2010-05-16T10:51:36Z</time></trkpt>
<trkpt lat="48.215944" lon="8.812921"><ele>1026.0</ele><time>2010-05-16T10:51:59Z</time></trkpt>
<trkpt lat="48.215888" lon="8.812682"><ele>1026.0</ele><time>2010-05-16T10:52:12Z</time></trkpt>
<trkpt lat="48.215857" lon="8.812429"><ele>1029.0</ele><time>2010-05-16T10:52:25Z</time></trkpt>
<trkpt lat="48.215871" lon="8.812174"><ele>1030.0</ele><time>2010-05-16T10:52:40Z</time></trkpt>
<trkpt lat="48.215842" lon="8.811922"><ele>1031.0</ele><time>2010-05-16T10:52:56Z</time></trkpt>
<trkpt lat="48.215865" lon="8.811672"><ele>1031.0</ele><time>2010-05-16T10:54:10Z</time></trkpt>
<trkpt lat="48.215891" lon="8.811425"><ele>1033.0</ele><time>2010-05-16T10:54:19Z</time></trkpt>
<trkpt lat="48.215987" lon="8.811199"><ele>1036.0</ele><time>2010-05-16T10:54:28Z</time></trkpt>
<trkpt lat="48.215950" lon="8.810947"><ele>1035.0</ele><time>2010-05-16T10:54:38Z</time></trkpt>
<trkpt lat="48.215875" lon="8.810718"><ele>1033.0</ele><time>2010-05-16T10:54:49Z</time></trkpt>
<trkpt lat="48.215801" lon="8.810478"><ele>1030.0</ele><time>2010-05-16T10:55:01Z</time></trkpt>
<trkpt lat="48.215740" lon="8.810241"><ele>1029.0</ele><time>2010-05-16T10:55:11Z</time></trkpt>
<trkpt lat="48.215752" lon="8.809982"><ele>1021.0</ele><time>2010-05-16T10:55:24Z</time></trkpt>
<trkpt lat="48.215786" lon="8.809737"><ele>1011.0</ele><time>2010-05-16T10:55:35Z</time></trkpt>
<trkpt lat="48.215716" lon="8.809399"><ele>1012.0</ele><time>2010-05-16T10:55:44Z</time></trkpt>
<trkpt lat="48.215649" lon="8.809131"><ele>1011.0</ele><time>2010-05-16T10:55:53Z</time></trkpt>
<trkpt lat="48.215596" lon="8.808824"><ele>1012.0</ele><time>2010-05-16T10:56:02Z</time></trkpt>
<trkpt lat="48.215572" lon="8.808533"><ele>1008.0</ele><time>2010-05-16T10:56:11Z</time></trkpt>
<trkpt lat="48.215531" lon="8.808270"><ele>1007.0</ele><time>2010-05-16T10:56:20Z</time></trkpt>
<trkpt lat="48.215498" lon="8.807990"><ele>1005.0</ele><time>2010-05-16T10:56:29Z</time></trkpt>
<trkpt lat="48.215566" lon="8.807653"><ele>1000.0</ele><time>2010-05-16T10:56:38Z</time></trkpt>
<trkpt lat="48.215539" lon="8.807397"><ele>994.0</ele><time>2010-05-16T10:56:59Z</time></trkpt>
<trkpt lat="48.215455" lon="8.807099"><ele>1005.0</ele><time>2010-05-16T10:57:08Z</time></trkpt>
<trkpt lat="48.215397" lon="8.806837"><ele>1025.0</ele><time>2010-05-16T10:57:17Z</time></trkpt>
<trkpt lat="48.215342" lon="8.806582"><ele>1034.0</ele><time>2010-05-16T10:57:35Z</time></trkpt>
<trkpt lat="48.215192" lon="8.806436"><ele>1031.0</ele><time>2010-05-16T10:57:55Z</time></trkpt>
<trkpt lat="48.215038" lon="8.806305"><ele>1036.0</ele><time>2010-05-16T10:59:10Z</time></trkpt>
<trkpt lat="48.214870" lon="8.806332"><ele>1036.0</ele><time>2010-05-16T11:00:06Z</time></trkpt>
<trkpt lat="48.214702" lon="8.806422"><ele>1036.0</ele><time>2010-05-16T11:00:43Z</time></trkpt>
<trkpt lat="48.214567" lon="8.806590"><ele>1037.0</ele><time>2010-05-16T11:01:37Z</time></trkpt>
<trkpt lat="48.214453" lon="8.806798"><ele>1044.0</ele><time>2010-05-16T11:02:23Z</time></trkpt>
<trkpt lat="48.214316" lon="8.806951"><ele>1043.0</ele><time>2010-05-16T11:02:44Z</time></trkpt>
<trkpt lat="48.214166" lon="8.807085"><ele>1043.0</ele><time>2010-05-16T11:02:54Z</time></trkpt>
<trkpt lat="48.214015" lon="8.807173"><ele>1042.0</ele><time>2010-05-16T11:03:04Z</time></trkpt>
<trkpt lat="48.213849" lon="8.807120"><ele>1046.0</ele><time>2010-05-16T11:03:18Z</time></trkpt>
<trkpt lat="48.213679" lon="8.807139"><ele>1047.0</ele><time>2010-05-16T11:03:28Z</time></trkpt>
<trkpt lat="48.213513" lon="8.807208"><ele>1047.0</ele><time>2010-05-16T11:03:38Z</time></trkpt>
<trkpt lat="48.213402" lon="8.807401"><ele>1045.0</ele><time>2010-05-16T11:06:18Z</time></trkpt>
<trkpt lat="48.213249" lon="8.807686"><ele>1045.0</ele><time>2010-05-16T11:06:27Z</time></trkpt>
<trkpt lat="48.213064" lon="8.808051"><ele>1044.0</ele><time>2010-05-16T11:06:36Z</time></trkpt>
<trkpt lat="48.212733" lon="8.808684"><ele>1040.0</ele><time>2010-05-16T11:06:45Z</time></trkpt>
<trkpt lat="48.212291" lon="8.809042"><ele>1040.0</ele><time>2010-05-16T11:06:54Z</time></trkpt>
<trkpt lat="48.211996" lon="8.809209"><ele>1041.0</ele><time>2010-05-16T11:07:03Z</time></trkpt>
<trkpt lat="48.211726" lon="8.809256"><ele>1039.0</ele><time>2010-05-16T11:07:12Z</time></trkpt>
<trkpt lat="48.211492" lon="8.809222"><ele>1036.0</ele><time>2010-05-16T11:07:21Z</time></trkpt>
<trkpt lat="48.211223" lon="8.809168"><ele>1035.0</ele><time>2010-05-16T11:07:30Z</time></trkpt>
<trkpt lat="48.210900" lon="8.809071"><ele>1038.0</ele><time>2010-05-16T11:07:39Z</time></trkpt>
<trkpt lat="48.210577" lon="8.808930"><ele>1039.0</ele><time>2010-05-16T11:07:48Z</time></trkpt>
<trkpt lat="48.210246" lon="8.808822"><ele>1038.0</ele><time>2010-05-16T11:07:57Z</time></trkpt>
<trkpt lat="48.209925" lon="8.808725"><ele>1033.0</ele><time>2010-05-16T11:08:06Z</time></trkpt>
<trkpt lat="48.209601" lon="8.808690"><ele>1033.0</ele><time>2010-05-16T11:08:15Z</time></trkpt>
<trkpt lat="48.209219" lon="8.808693"><ele>1030.0</ele><time>2010-05-16T11:08:24Z</time></trkpt>
<trkpt lat="48.208779" lon="8.808681"><ele>1028.0</ele><time>2010-05-16T11:08:33Z</time></trkpt>
<trkpt lat="48.208415" lon="8.808607"><ele>1025.0</ele><time>2010-05-16T11:08:42Z</time></trkpt>
<trkpt lat="48.208008" lon="8.808369"><ele>1020.0</ele><time>2010-05-16T11:08:51Z</time></trkpt>
<trkpt lat="48.207435" lon="8.808220"><ele>1012.0</ele><time>2010-05-16T11:09:00Z</time></trkpt>
<trkpt lat="48.206974" lon="8.807993"><ele>1010.0</ele><time>2010-05-16T11:09:09Z</time></trkpt>
<trkpt lat="48.206831" lon="8.807850"><ele>1014.0</ele><time>2010-05-16T11:09:24Z</time></trkpt>
<trkpt lat="48.206892" lon="8.807491"><ele>1013.0</ele><time>2010-05-16T11:09:33Z</time></trkpt>
<trkpt lat="48.206913" lon="8.807229"><ele>1014.0</ele><time>2010-05-16T11:09:44Z</time></trkpt>
<trkpt lat="48.206952" lon="8.806983"><ele>1010.0</ele><time>2010-05-16T11:10:49Z</time></trkpt>
<trkpt lat="48.207057" lon="8.806767"><ele>995.0</ele><time>2010-05-16T11:11:35Z</time></trkpt>
<trkpt lat="48.206909" lon="8.806919"><ele>1017.0</ele><time>2010-05-16T11:13:28Z</time></trkpt>
<trkpt lat="48.207068" lon="8.806961"><ele>1017.0</ele><time>2010-05-16T11:14:58Z</time></trkpt>
<trkpt lat="48.207610" lon="8.807049"><ele>1014.0</ele><time>2010-05-16T11:15:07Z</time></trkpt>
<trkpt lat="48.208344" lon="8.807202"><ele>1011.0</ele><time>2010-05-16T11:15:16Z</time></trkpt>
<trkpt lat="48.209155" lon="8.807280"><ele>1009.0</ele><time>2010-05-16T11:15:25Z</time></trkpt>
<trkpt lat="48.210036" lon="8.807390"><ele>1007.0</ele><time>2010-05-16T11:15:34Z</time></trkpt>
<trkpt lat="48.210783" lon="8.807043"><ele>1004.0</ele><time>2010-05-16T11:15:43Z</time></trkpt>
<trkpt lat="48.211489" lon="8.806238"><ele>1001.0</ele><time>2010-05-16T11:15:52Z</time></trkpt>
<trkpt lat="48.212095" lon="8.805381"><ele>995.0</ele><time>2010-05-16T11:16:01Z</time></trkpt>
<trkpt lat="48.212603" lon="8.804876"><ele>992.0</ele><time>2010-05-16T11:16:10Z</time></trkpt>
<trkpt lat="48.213096" lon="8.804404"><ele>989.0</ele><time>2010-05-16T11:16:19Z</time></trkpt>
<trkpt lat="48.213683" lon="8.804183"><ele>978.0</ele><time>2010-05-16T11:16:28Z</time></trkpt>
<trkpt lat="48.214354" lon="8.804036"><ele>975.0</ele><time>2010-05-16T11:16:36Z</time></trkpt>
<trkpt lat="48.215108" lon="8.803769"><ele>970.0</ele><time>2010-05-16T11:16:45Z</time></trkpt>
<trkpt lat="48.215641" lon="8.803302"><ele>962.0</ele><time>2010-05-16T11:16:54Z</time></trkpt>
<trkpt lat="48.216301" lon="8.802528"><ele>953.0</ele><time>2010-05-16T11:17:03Z</time></trkpt>
<trkpt lat="48.217060" lon="8.801530"><ele>935.0</ele><time>2010-05-16T11:17:12Z</time></trkpt>
<trkpt lat="48.217171" lon="8.799969"><ele>929.0</ele><time>2010-05-16T11:17:21Z</time></trkpt>
<trkpt lat="48.217007" lon="8.798702"><ele>918.0</ele><time>2010-05-16T11:17:30Z</time></trkpt>
<trkpt lat="48.216420" lon="8.798682"><ele>904.0</ele><time>2010-05-16T11:17:39Z</time></trkpt>
<trkpt lat="48.215880" lon="8.799189"><ele>899.0</ele><time>2010-05-16T11:17:48Z</time></trkpt>
<trkpt lat="48.215037" lon="8.798340"><ele>890.0</ele><time>2010-05-16T11:17:57Z</time></trkpt>
<trkpt lat="48.214244" lon="8.797005"><ele>875.0</ele><time>2010-05-16T11:18:06Z</time></trkpt>
<trkpt lat="48.213611" lon="8.795628"><ele>864.0</ele><time>2010-05-16T11:18:15Z</time></trkpt>
<trkpt lat="48.213473" lon="8.794733"><ele>853.0</ele><time>2010-05-16T11:18:24Z</time></trkpt>
<trkpt lat="48.214006" lon="8.793710"><ele>843.0</ele><time>2010-05-16T11:18:33Z</time></trkpt>
<trkpt lat="48.214874" lon="8.792413"><ele>829.0</ele><time>2010-05-16T11:18:42Z</time></trkpt>
<trkpt lat="48.215886" lon="8.791297"><ele>816.0</ele><time>2010-05-16T11:18:51Z</time></trkpt>
<trkpt lat="48.216845" lon="8.790375"><ele>796.0</ele><time>2010-05-16T11:19:00Z</time></trkpt>
<trkpt lat="48.217155" lon="8.790467"><ele>784.0</ele><time>2010-05-16T11:19:09Z</time></trkpt>
<trkpt lat="48.216994" lon="8.790448"><ele>769.0</ele><time>2010-05-16T11:19:17Z</time></trkpt>
<trkpt lat="48.217009" lon="8.790120"><ele>763.0</ele><time>2010-05-16T11:19:26Z</time></trkpt>
<trkpt lat="48.217333" lon="8.789436"><ele>756.0</ele><time>2010-05-16T11:19:35Z</time></trkpt>
<trkpt lat="48.217710" lon="8.788655"><ele>750.0</ele><time>2010-05-16T11:19:44Z</time></trkpt>
<trkpt lat="48.218125" lon="8.788058"><ele>745.0</ele><time>2010-05-16T11:19:53Z</time></trkpt>
<trkpt lat="48.218553" lon="8.787400"><ele>741.0</ele><time>2010-05-16T11:20:02Z</time></trkpt>
<trkpt lat="48.218995" lon="8.786805"><ele>736.0</ele><time>2010-05-16T11:20:11Z</time></trkpt>
<trkpt lat="48.219687" lon="8.786049"><ele>731.0</ele><time>2010-05-16T11:20:20Z</time></trkpt>
<trkpt lat="48.220359" lon="8.785309"><ele>727.0</ele><time>2010-05-16T11:20:29Z</time></trkpt>
<trkpt lat="48.221033" lon="8.784568"><ele>723.0</ele><time>2010-05-16T11:20:38Z</time></trkpt>
<trkpt lat="48.221702" lon="8.783919"><ele>719.0</ele><time>2010-05-16T11:20:47Z</time></trkpt>
<trkpt lat="48.222404" lon="8.783396"><ele>716.0</ele><time>2010-05-16T11:20:56Z</time></trkpt>
<trkpt lat="48.223098" lon="8.782789"><ele>713.0</ele><time>2010-05-16T11:21:05Z</time></trkpt>
<trkpt lat="48.223816" lon="8.782334"><ele>711.0</ele><time>2010-05-16T11:21:14Z</time></trkpt>
<trkpt lat="48.224239" lon="8.782511"><ele>713.0</ele><time>2010-05-16T11:21:23Z</time></trkpt>
<trkpt lat="48.224393" lon="8.782740"><ele>715.0</ele><time>2010-05-16T11:21:32Z</time></trkpt>
<trkpt lat="48.224346" lon="8.782531"><ele>716.0</ele><time>2010-05-16T11:21:44Z</time></trkpt>
<trkpt lat="48.224109" lon="8.782080"><ele>714.0</ele><time>2010-05-16T11:21:53Z</time></trkpt>
<trkpt lat="48.223833" lon="8.781580"><ele>710.0</ele><time>2010-05-16T11:22:02Z</time></trkpt>
<trkpt lat="48.223505" lon="8.780970"><ele>710.0</ele><time>2010-05-16T11:22:11Z</time></trkpt>
<trkpt lat="48.223161" lon="8.780350"><ele>709.0</ele><time>2010-05-16T11:22:20Z</time></trkpt>
<trkpt lat="48.222836" lon="8.779766"><ele>708.0</ele><time>2010-05-16T11:22:29Z</time></trkpt>
<trkpt lat="48.222494" lon="8.779195"><ele>708.0</ele><time>2010-05-16T11:22:38Z</time></trkpt>
<trkpt lat="48.222193" lon="8.778638"><ele>708.0</ele><time>2010-05-16T11:22:47Z</time></trkpt>
<trkpt lat="48.221890" lon="8.777994"><ele>706.0</ele><time>2010-05-16T11:22:56Z</time></trkpt>
<trkpt lat="48.221641" lon="8.777509"><ele>709.0</ele><time>2010-05-16T11:23:05Z</time></trkpt>
<trkpt lat="48.221402" lon="8.777115"><ele>710.0</ele><time>2010-05-16T11:23:14Z</time></trkpt>
<trkpt lat="48.221128" lon="8.776675"><ele>709.0</ele><time>2010-05-16T11:23:23Z</time></trkpt>
<trkpt lat="48.220644" lon="8.775975"><ele>704.0</ele><time>2010-05-16T11:23:32Z</time></trkpt>
<trkpt lat="48.220031" lon="8.775019"><ele>702.0</ele><time>2010-05-16T11:23:41Z</time></trkpt>
<trkpt lat="48.219643" lon="8.774417"><ele>704.0</ele><time>2010-05-16T11:23:50Z</time></trkpt>
<trkpt lat="48.219444" lon="8.774141"><ele>705.0</ele><time>2010-05-16T11:23:59Z</time></trkpt>
<trkpt lat="48.219258" lon="8.773833"><ele>706.0</ele><time>2010-05-16T11:24:08Z</time></trkpt>
<trkpt lat="48.219073" lon="8.773491"><ele>708.0</ele><time>2010-05-16T11:24:17Z</time></trkpt>
<trkpt lat="48.218893" lon="8.773151"><ele>709.0</ele><time>2010-05-16T11:24:26Z</time></trkpt>
<trkpt lat="48.218711" lon="8.772790"><ele>713.0</ele><time>2010-05-16T11:24:35Z</time></trkpt>
<trkpt lat="48.218512" lon="8.772421"><ele>714.0</ele><time>2010-05-16T11:24:44Z</time></trkpt>
<trkpt lat="48.218321" lon="8.772030"><ele>716.0</ele><time>2010-05-16T11:24:53Z</time></trkpt>
<trkpt lat="48.218140" lon="8.771641"><ele>716.0</ele><time>2010-05-16T11:25:02Z</time></trkpt>
<trkpt lat="48.217955" lon="8.771254"><ele>716.0</ele><time>2010-05-16T11:25:11Z</time></trkpt>
<trkpt lat="48.217770" lon="8.770859"><ele>717.0</ele><time>2010-05-16T11:25:20Z</time></trkpt>
<trkpt lat="48.217582" lon="8.770457"><ele>718.0</ele><time>2010-05-16T11:25:29Z</time></trkpt>
<trkpt lat="48.217380" lon="8.770102"><ele>719.0</ele><time>2010-05-16T11:25:38Z</time></trkpt>
<trkpt lat="48.217154" lon="8.769778"><ele>718.0</ele><time>2010-05-16T11:25:47Z</time></trkpt>
<trkpt lat="48.216864" lon="8.769629"><ele>718.0</ele><time>2010-05-16T11:25:56Z</time></trkpt>
<trkpt lat="48.216785" lon="8.769394"><ele>718.0</ele><time>2010-05-16T11:26:05Z</time></trkpt>
<trkpt lat="48.216734" lon="8.769060"><ele>718.0</ele><time>2010-05-16T11:26:14Z</time></trkpt>
<trkpt lat="48.216590" lon="8.768881"><ele>716.0</ele><time>2010-05-16T11:26:23Z</time></trkpt>
<trkpt lat="48.216402" lon="8.768614"><ele>717.0</ele><time>2010-05-16T11:26:32Z</time></trkpt>
<trkpt lat="48.216205" lon="8.768320"><ele>716.0</ele><time>2010-05-16T11:26:41Z</time></trkpt>
<trkpt lat="48.215940" lon="8.768185"><ele>715.0</ele><time>2010-05-16T11:26:49Z</time></trkpt>
<trkpt lat="48.215742" lon="8.768613"><ele>715.0</ele><time>2010-05-16T11:26:58Z</time></trkpt>
<trkpt lat="48.215596" lon="8.768882"><ele>715.0</ele><time>2010-05-16T11:27:07Z</time></trkpt>
<trkpt lat="48.215306" lon="8.768708"><ele>716.0</ele><time>2010-05-16T11:27:16Z</time></trkpt>
<trkpt lat="48.214993" lon="8.768563"><ele>716.0</ele><time>2010-05-16T11:27:25Z</time></trkpt>
<trkpt lat="48.214651" lon="8.768456"><ele>716.0</ele><time>2010-05-16T11:27:34Z</time></trkpt>
<trkpt lat="48.214325" lon="8.768417"><ele>715.0</ele><time>2010-05-16T11:27:43Z</time></trkpt>
<trkpt lat="48.213989" lon="8.768387"><ele>714.0</ele><time>2010-05-16T11:27:52Z</time></trkpt>
<trkpt lat="48.213690" lon="8.768392"><ele>715.0</ele><time>2010-05-16T11:28:01Z</time></trkpt>
<trkpt lat="48.213364" lon="8.768345"><ele>715.0</ele><time>2010-05-16T11:28:10Z</time></trkpt>
<trkpt lat="48.212902" lon="8.767963"><ele>713.0</ele><time>2010-05-16T11:28:19Z</time></trkpt>
<trkpt lat="48.212268" lon="8.767659"><ele>709.0</ele><time>2010-05-16T11:28:28Z</time></trkpt>
<trkpt lat="48.211745" lon="8.767805"><ele>705.0</ele><time>2010-05-16T11:28:37Z</time></trkpt>
<trkpt lat="48.211600" lon="8.767406"><ele>707.0</ele><time>2010-05-16T11:28:46Z</time></trkpt>
<trkpt lat="48.211422" lon="8.766961"><ele>707.0</ele><time>2010-05-16T11:28:55Z</time></trkpt>
<trkpt lat="48.211275" lon="8.766525"><ele>705.0</ele><time>2010-05-16T11:29:04Z</time></trkpt>
<trkpt lat="48.211021" lon="8.766164"><ele>705.0</ele><time>2010-05-16T11:29:13Z</time></trkpt>
<trkpt lat="48.210728" lon="8.765908"><ele>704.0</ele><time>2010-05-16T11:29:22Z</time></trkpt>
<trkpt lat="48.210380" lon="8.765640"><ele>701.0</ele><time>2010-05-16T11:29:31Z</time></trkpt>
<trkpt lat="48.210158" lon="8.765976"><ele>701.0</ele><time>2010-05-16T11:29:40Z</time></trkpt>
<trkpt lat="48.210117" lon="8.766395"><ele>701.0</ele><time>2010-05-16T11:29:49Z</time></trkpt>
<trkpt lat="48.209917" lon="8.766726"><ele>700.0</ele><time>2010-05-16T11:29:58Z</time></trkpt>
<trkpt lat="48.209674" lon="8.767005"><ele>699.0</ele><time>2010-05-16T11:30:07Z</time></trkpt>
<trkpt lat="48.209470" lon="8.767241"><ele>696.0</ele><time>2010-05-16T11:30:16Z</time></trkpt>
<trkpt lat="48.209277" lon="8.767594"><ele>695.0</ele><time>2010-05-16T11:30:24Z</time></trkpt>
<trkpt lat="48.209132" lon="8.768151"><ele>697.0</ele><time>2010-05-16T11:30:33Z</time></trkpt>
<trkpt lat="48.208990" lon="8.768567"><ele>696.0</ele><time>2010-05-16T11:30:42Z</time></trkpt>
<trkpt lat="48.208843" lon="8.769160"><ele>693.0</ele><time>2010-05-16T11:30:51Z</time></trkpt>
<trkpt lat="48.208748" lon="8.769814"><ele>695.0</ele><time>2010-05-16T11:31:00Z</time></trkpt>
<trkpt lat="48.208565" lon="8.770415"><ele>694.0</ele><time>2010-05-16T11:31:09Z</time></trkpt>
<trkpt lat="48.208504" lon="8.770868"><ele>699.0</ele><time>2010-05-16T11:31:18Z</time></trkpt>
<trkpt lat="48.208510" lon="8.771170"><ele>699.0</ele><time>2010-05-16T11:31:27Z</time></trkpt>
<trkpt lat="48.208582" lon="8.771504"><ele>693.0</ele><time>2010-05-16T11:31:36Z</time></trkpt>
<trkpt lat="48.208697" lon="8.771986"><ele>696.0</ele><time>2010-05-16T11:31:45Z</time></trkpt>
<trkpt lat="48.208709" lon="8.772545"><ele>695.0</ele><time>2010-05-16T11:31:54Z</time></trkpt>
<trkpt lat="48.208434" lon="8.773125"><ele>696.0</ele><time>2010-05-16T11:32:03Z</time></trkpt>
<trkpt lat="48.208075" lon="8.773635"><ele>698.0</ele><time>2010-05-16T11:32:12Z</time></trkpt>
<trkpt lat="48.207792" lon="8.774007"><ele>698.0</ele><time>2010-05-16T11:32:21Z</time></trkpt>
<trkpt lat="48.207507" lon="8.774000"><ele>700.0</ele><time>2010-05-16T11:32:30Z</time></trkpt>
<trkpt lat="48.207291" lon="8.773827"><ele>703.0</ele><time>2010-05-16T11:32:39Z</time></trkpt>
<trkpt lat="48.207131" lon="8.773637"><ele>705.0</ele><time>2010-05-16T11:32:48Z</time></trkpt>
<trkpt lat="48.207011" lon="8.773468"><ele>705.0</ele><time>2010-05-16T11:32:57Z</time></trkpt>
<trkpt lat="48.206887" lon="8.773252"><ele>704.0</ele><time>2010-05-16T11:33:06Z</time></trkpt>
<trkpt lat="48.206744" lon="8.773094"><ele>706.0</ele><time>2010-05-16T11:33:15Z</time></trkpt>
<trkpt lat="48.206593" lon="8.772887"><ele>708.0</ele><time>2010-05-16T11:33:24Z</time></trkpt>
<trkpt lat="48.206497" lon="8.772609"><ele>710.0</ele><time>2010-05-16T11:33:33Z</time></trkpt>
<trkpt lat="48.206377" lon="8.772327"><ele>711.0</ele><time>2010-05-16T11:33:42Z</time></trkpt>
<trkpt lat="48.206256" lon="8.772047"><ele>713.0</ele><time>2010-05-16T11:33:51Z</time></trkpt>
<trkpt lat="48.206135" lon="8.771826"><ele>714.0</ele><time>2010-05-16T11:34:00Z</time></trkpt>
<trkpt lat="48.206084" lon="8.771582"><ele>715.0</ele><time>2010-05-16T11:34:11Z</time></trkpt>
<trkpt lat="48.206063" lon="8.771234"><ele>716.0</ele><time>2010-05-16T11:34:20Z</time></trkpt>
<trkpt lat="48.205998" lon="8.770860"><ele>717.0</ele><time>2010-05-16T11:34:29Z</time></trkpt>
<trkpt lat="48.205905" lon="8.770471"><ele>717.0</ele><time>2010-05-16T11:34:38Z</time></trkpt>
<trkpt lat="48.205786" lon="8.770110"><ele>718.0</ele><time>2010-05-16T11:34:47Z</time></trkpt>
<trkpt lat="48.205665" lon="8.769732"><ele>719.0</ele><time>2010-05-16T11:34:56Z</time></trkpt>
<trkpt lat="48.205558" lon="8.769398"><ele>719.0</ele><time>2010-05-16T11:35:05Z</time></trkpt>
<trkpt lat="48.205451" lon="8.769044"><ele>719.0</ele><time>2010-05-16T11:35:14Z</time></trkpt>
<trkpt lat="48.205335" lon="8.768597"><ele>718.0</ele><time>2010-05-16T11:35:23Z</time></trkpt>
<trkpt lat="48.205231" lon="8.768092"><ele>718.0</ele><time>2010-05-16T11:35:32Z</time></trkpt>
<trkpt lat="48.205131" lon="8.767611"><ele>719.0</ele><time>2010-05-16T11:35:41Z</time></trkpt>
<trkpt lat="48.205011" lon="8.767153"><ele>720.0</ele><time>2010-05-16T11:35:50Z</time></trkpt>
<trkpt lat="48.204900" lon="8.766675"><ele>720.0</ele><time>2010-05-16T11:35:59Z</time></trkpt>
<trkpt lat="48.204802" lon="8.766192"><ele>720.0</ele><time>2010-05-16T11:36:08Z</time></trkpt>
<trkpt lat="48.204727" lon="8.765668"><ele>719.0</ele><time>2010-05-16T11:36:17Z</time></trkpt>
<trkpt lat="48.204656" lon="8.765110"><ele>719.0</ele><time>2010-05-16T11:36:26Z</time></trkpt>
<trkpt lat="48.204591" lon="8.764533"><ele>720.0</ele><time>2010-05-16T11:36:35Z</time></trkpt>
<trkpt lat="48.204559" lon="8.764081"><ele>721.0</ele><time>2010-05-16T11:36:44Z</time></trkpt>
<trkpt lat="48.204552" lon="8.763649"><ele>723.0</ele><time>2010-05-16T11:36:53Z</time></trkpt>
<trkpt lat="48.204567" lon="8.763204"><ele>724.0</ele><time>2010-05-16T11:37:02Z</time></trkpt>
<trkpt lat="48.204588" lon="8.762747"><ele>725.0</ele><time>2010-05-16T11:37:11Z</time></trkpt>
<trkpt lat="48.204601" lon="8.762312"><ele>726.0</ele><time>2010-05-16T11:37:20Z</time></trkpt>
<trkpt lat="48.204613" lon="8.761882"><ele>726.0</ele><time>2010-05-16T11:37:29Z</time></trkpt>
<trkpt lat="48.204638" lon="8.761415"><ele>727.0</ele><time>2010-05-16T11:37:38Z</time></trkpt>
<trkpt lat="48.204654" lon="8.760981"><ele>729.0</ele><time>2010-05-16T11:37:47Z</time></trkpt>
<trkpt lat="48.204656" lon="8.760675"><ele>732.0</ele><time>2010-05-16T11:37:56Z</time></trkpt>
<trkpt lat="48.204529" lon="8.760549"><ele>732.0</ele><time>2010-05-16T11:38:06Z</time></trkpt>
<trkpt lat="48.204399" lon="8.760290"><ele>733.0</ele><time>2010-05-16T11:38:15Z</time></trkpt>
<trkpt lat="48.204350" lon="8.759971"><ele>734.0</ele><time>2010-05-16T11:38:24Z</time></trkpt>
<trkpt lat="48.204125" lon="8.759732"><ele>734.0</ele><time>2010-05-16T11:38:33Z</time></trkpt>
<trkpt lat="48.203890" lon="8.759489"><ele>736.0</ele><time>2010-05-16T11:38:42Z</time></trkpt>
<trkpt lat="48.203601" lon="8.759179"><ele>735.0</ele><time>2010-05-16T11:38:51Z</time></trkpt>
<trkpt lat="48.203280" lon="8.758830"><ele>736.0</ele><time>2010-05-16T11:39:00Z</time></trkpt>
<trkpt lat="48.202990" lon="8.758460"><ele>737.0</ele><time>2010-05-16T11:39:09Z</time></trkpt>
<trkpt lat="48.202691" lon="8.758137"><ele>738.0</ele><time>2010-05-16T11:39:18Z</time></trkpt>
<trkpt lat="48.202400" lon="8.757818"><ele>739.0</ele><time>2010-05-16T11:39:27Z</time></trkpt>
<trkpt lat="48.202140" lon="8.757529"><ele>740.0</ele><time>2010-05-16T11:39:36Z</time></trkpt>
<trkpt lat="48.201976" lon="8.757345"><ele>741.0</ele><time>2010-05-16T11:39:45Z</time></trkpt>
<trkpt lat="48.201959" lon="8.757046"><ele>736.0</ele><time>2010-05-16T11:39:54Z</time></trkpt>
<trkpt lat="48.201780" lon="8.756696"><ele>736.0</ele><time>2010-05-16T11:40:03Z</time></trkpt>
<trkpt lat="48.201626" lon="8.756357"><ele>737.0</ele><time>2010-05-16T11:40:12Z</time></trkpt>
<trkpt lat="48.201485" lon="8.756026"><ele>738.0</ele><time>2010-05-16T11:40:21Z</time></trkpt>
<trkpt lat="48.201301" lon="8.755554"><ele>738.0</ele><time>2010-05-16T11:40:30Z</time></trkpt>
<trkpt lat="48.201150" lon="8.755131"><ele>736.0</ele><time>2010-05-16T11:40:39Z</time></trkpt>
<trkpt lat="48.200972" lon="8.754678"><ele>736.0</ele><time>2010-05-16T11:40:48Z</time></trkpt>
<trkpt lat="48.200770" lon="8.754154"><ele>735.0</ele><time>2010-05-16T11:40:57Z</time></trkpt>
<trkpt lat="48.200554" lon="8.753608"><ele>734.0</ele><time>2010-05-16T11:41:06Z</time></trkpt>
<trkpt lat="48.200322" lon="8.752982"><ele>733.0</ele><time>2010-05-16T11:41:15Z</time></trkpt>
<trkpt lat="48.200091" lon="8.752346"><ele>732.0</ele><time>2010-05-16T11:41:24Z</time></trkpt>
<trkpt lat="48.199866" lon="8.751743"><ele>732.0</ele><time>2010-05-16T11:41:33Z</time></trkpt>
<trkpt lat="48.199676" lon="8.751294"><ele>734.0</ele><time>2010-05-16T11:41:42Z</time></trkpt>
<trkpt lat="48.199512" lon="8.750865"><ele>736.0</ele><time>2010-05-16T11:41:51Z</time></trkpt>
<trkpt lat="48.199330" lon="8.750329"><ele>738.0</ele><time>2010-05-16T11:42:00Z</time></trkpt>
<trkpt lat="48.199056" lon="8.750156"><ele>740.0</ele><time>2010-05-16T11:42:09Z</time></trkpt>
<trkpt lat="48.198743" lon="8.750373"><ele>741.0</ele><time>2010-05-16T11:42:18Z</time></trkpt>
<trkpt lat="48.198508" lon="8.750646"><ele>741.0</ele><time>2010-05-16T11:42:27Z</time></trkpt>
<trkpt lat="48.198373" lon="8.750803"><ele>737.0</ele><time>2010-05-16T11:45:21Z</time></trkpt>
<trkpt lat="48.198155" lon="8.751115"><ele>736.0</ele><time>2010-05-16T11:45:30Z</time></trkpt>
<trkpt lat="48.197779" lon="8.751369"><ele>737.0</ele><time>2010-05-16T11:45:39Z</time></trkpt>
<trkpt lat="48.197410" lon="8.751241"><ele>738.0</ele><time>2010-05-16T11:45:48Z</time></trkpt>
<trkpt lat="48.197072" lon="8.751119"><ele>738.0</ele><time>2010-05-16T11:45:57Z</time></trkpt>
<trkpt lat="48.196709" lon="8.751042"><ele>737.0</ele><time>2010-05-16T11:46:06Z</time></trkpt>
<trkpt lat="48.196297" lon="8.750927"><ele>734.0</ele><time>2010-05-16T11:46:15Z</time></trkpt>
<trkpt lat="48.195930" lon="8.750738"><ele>733.0</ele><time>2010-05-16T11:46:24Z</time></trkpt>
<trkpt lat="48.195581" lon="8.750613"><ele>734.0</ele><time>2010-05-16T11:46:33Z</time></trkpt>
<trkpt lat="48.195217" lon="8.750451"><ele>734.0</ele><time>2010-05-16T11:46:42Z</time></trkpt>
<trkpt lat="48.194970" lon="8.750202"><ele>735.0</ele><time>2010-05-16T11:46:49Z</time></trkpt>
<trkpt lat="48.194642" lon="8.749824"><ele>737.0</ele><time>2010-05-16T11:46:58Z</time></trkpt>
<trkpt lat="48.194302" lon="8.749488"><ele>739.0</ele><time>2010-05-16T11:47:07Z</time></trkpt>
<trkpt lat="48.193993" lon="8.749153"><ele>742.0</ele><time>2010-05-16T11:47:16Z</time></trkpt>
<trkpt lat="48.193681" lon="8.748784"><ele>743.0</ele><time>2010-05-16T11:47:25Z</time></trkpt>
<trkpt lat="48.193382" lon="8.748395"><ele>745.0</ele><time>2010-05-16T11:47:34Z</time></trkpt>
<trkpt lat="48.193102" lon="8.748001"><ele>747.0</ele><time>2010-05-16T11:47:43Z</time></trkpt>
<trkpt lat="48.192857" lon="8.747563"><ele>749.0</ele><time>2010-05-16T11:47:52Z</time></trkpt>
<trkpt lat="48.192610" lon="8.747114"><ele>750.0</ele><time>2010-05-16T11:48:01Z</time></trkpt>
<trkpt lat="48.192304" lon="8.746771"><ele>750.0</ele><time>2010-05-16T11:48:10Z</time></trkpt>
<trkpt lat="48.191974" lon="8.746483"><ele>750.0</ele><time>2010-05-16T11:48:19Z</time></trkpt>
<trkpt lat="48.191650" lon="8.746225"><ele>749.0</ele><time>2010-05-16T11:48:28Z</time></trkpt>
<trkpt lat="48.191311" lon="8.745951"><ele>750.0</ele><time>2010-05-16T11:48:37Z</time></trkpt>
<trkpt lat="48.190968" lon="8.745666"><ele>751.0</ele><time>2010-05-16T11:48:46Z</time></trkpt>
<trkpt lat="48.190656" lon="8.745391"><ele>752.0</ele><time>2010-05-16T11:48:55Z</time></trkpt>
<trkpt lat="48.190335" lon="8.745152"><ele>753.0</ele><time>2010-05-16T11:49:04Z</time></trkpt>
<trkpt lat="48.190009" lon="8.745100"><ele>756.0</ele><time>2010-05-16T11:49:13Z</time></trkpt>
<trkpt lat="48.189706" lon="8.745103"><ele>758.0</ele><time>2010-05-16T11:49:22Z</time></trkpt>
<trkpt lat="48.189435" lon="8.745119"><ele>759.0</ele><time>2010-05-16T11:49:31Z</time></trkpt>
<trkpt lat="48.189166" lon="8.745135"><ele>761.0</ele><time>2010-05-16T11:49:40Z</time></trkpt>
<trkpt lat="48.188885" lon="8.745146"><ele>762.0</ele><time>2010-05-16T11:49:49Z</time></trkpt>
<trkpt lat="48.188613" lon="8.745170"><ele>764.0</ele><time>2010-05-16T11:49:58Z</time></trkpt>
<trkpt lat="48.188372" lon="8.745179"><ele>766.0</ele><time>2010-05-16T11:50:07Z</time></trkpt>
<trkpt lat="48.188133" lon="8.745248"><ele>767.0</ele><time>2010-05-16T11:50:16Z</time></trkpt>
<trkpt lat="48.187876" lon="8.745364"><ele>769.0</ele><time>2010-05-16T11:50:25Z</time></trkpt>
<trkpt lat="48.187656" lon="8.745456"><ele>768.0</ele><time>2010-05-16T11:50:34Z</time></trkpt>
<trkpt lat="48.187423" lon="8.745549"><ele>768.0</ele><time>2010-05-16T11:50:43Z</time></trkpt>
<trkpt lat="48.187179" lon="8.745690"><ele>768.0</ele><time>2010-05-16T11:50:52Z</time></trkpt>
<trkpt lat="48.186946" lon="8.745811"><ele>770.0</ele><time>2010-05-16T11:51:01Z</time></trkpt>
<trkpt lat="48.186729" lon="8.745928"><ele>772.0</ele><time>2010-05-16T11:51:10Z</time></trkpt>
<trkpt lat="48.186524" lon="8.746023"><ele>772.0</ele><time>2010-05-16T11:51:19Z</time></trkpt>
<trkpt lat="48.186310" lon="8.746117"><ele>774.0</ele><time>2010-05-16T11:51:28Z</time></trkpt>
<trkpt lat="48.186102" lon="8.746212"><ele>776.0</ele><time>2010-05-16T11:51:37Z</time></trkpt>
<trkpt lat="48.185899" lon="8.746283"><ele>776.0</ele><time>2010-05-16T11:51:46Z</time></trkpt>
<trkpt lat="48.185693" lon="8.746288"><ele>778.0</ele><time>2010-05-16T11:51:55Z</time></trkpt>
<trkpt lat="48.185522" lon="8.746002"><ele>778.0</ele><time>2010-05-16T11:52:04Z</time></trkpt>
<trkpt lat="48.185261" lon="8.745600"><ele>778.0</ele><time>2010-05-16T11:52:13Z</time></trkpt>
<trkpt lat="48.184907" lon="8.745144"><ele>775.0</ele><time>2010-05-16T11:52:22Z</time></trkpt>
<trkpt lat="48.184452" lon="8.744758"><ele>774.0</ele><time>2010-05-16T11:52:31Z</time></trkpt>
<trkpt lat="48.184000" lon="8.744841"><ele>773.0</ele><time>2010-05-16T11:52:40Z</time></trkpt>
<trkpt lat="48.183274" lon="8.744897"><ele>768.0</ele><time>2010-05-16T11:52:49Z</time></trkpt>
<trkpt lat="48.182287" lon="8.745010"><ele>765.0</ele><time>2010-05-16T11:52:58Z</time></trkpt>
<trkpt lat="48.181412" lon="8.744873"><ele>768.0</ele><time>2010-05-16T11:53:07Z</time></trkpt>
<trkpt lat="48.180596" lon="8.745175"><ele>764.0</ele><time>2010-05-16T11:53:16Z</time></trkpt>
<trkpt lat="48.179648" lon="8.745840"><ele>757.0</ele><time>2010-05-16T11:53:25Z</time></trkpt>
<trkpt lat="48.178765" lon="8.746594"><ele>755.0</ele><time>2010-05-16T11:53:34Z</time></trkpt>
<trkpt lat="48.178285" lon="8.747059"><ele>757.0</ele><time>2010-05-16T11:53:43Z</time></trkpt>
<trkpt lat="48.178019" lon="8.747312"><ele>758.0</ele><time>2010-05-16T11:53:52Z</time></trkpt>
<trkpt lat="48.177793" lon="8.747489"><ele>757.0</ele><time>2010-05-16T11:54:01Z</time></trkpt>
<trkpt lat="48.177562" lon="8.747586"><ele>759.0</ele><time>2010-05-16T11:54:10Z</time></trkpt>
<trkpt lat="48.177311" lon="8.747567"><ele>760.0</ele><time>2010-05-16T11:54:19Z</time></trkpt>
<trkpt lat="48.176985" lon="8.747534"><ele>760.0</ele><time>2010-05-16T11:54:28Z</time></trkpt>
<trkpt lat="48.176650" lon="8.747723"><ele>761.0</ele><time>2010-05-16T11:54:37Z</time></trkpt>
<trkpt lat="48.176659" lon="8.748206"><ele>761.0</ele><time>2010-05-16T11:54:46Z</time></trkpt>
<trkpt lat="48.176740" lon="8.748642"><ele>763.0</ele><time>2010-05-16T11:54:55Z</time></trkpt>
<trkpt lat="48.176832" lon="8.749023"><ele>764.0</ele><time>2010-05-16T11:55:04Z</time></trkpt>
<trkpt lat="48.176894" lon="8.749415"><ele>766.0</ele><time>2010-05-16T11:55:13Z</time></trkpt>
<trkpt lat="48.176938" lon="8.749780"><ele>767.0</ele><time>2010-05-16T11:55:22Z</time></trkpt>
<trkpt lat="48.176969" lon="8.750150"><ele>769.0</ele><time>2010-05-16T11:55:31Z</time></trkpt>
<trkpt lat="48.176854" lon="8.750524"><ele>771.0</ele><time>2010-05-16T11:55:40Z</time></trkpt>
<trkpt lat="48.176647" lon="8.750794"><ele>774.0</ele><time>2010-05-16T11:55:49Z</time></trkpt>
<trkpt lat="48.176440" lon="8.751036"><ele>775.0</ele><time>2010-05-16T11:55:58Z</time></trkpt>
<trkpt lat="48.176238" lon="8.751207"><ele>776.0</ele><time>2010-05-16T11:56:07Z</time></trkpt>
<trkpt lat="48.176045" lon="8.751368"><ele>777.0</ele><time>2010-05-16T11:56:16Z</time></trkpt>
<trkpt lat="48.175857" lon="8.751520"><ele>778.0</ele><time>2010-05-16T11:56:25Z</time></trkpt>
<trkpt lat="48.175656" lon="8.751689"><ele>779.0</ele><time>2010-05-16T11:56:34Z</time></trkpt>
<trkpt lat="48.175458" lon="8.751849"><ele>779.0</ele><time>2010-05-16T11:56:43Z</time></trkpt>
<trkpt lat="48.175292" lon="8.751988"><ele>779.0</ele><time>2010-05-16T11:56:52Z</time></trkpt>
<trkpt lat="48.175043" lon="8.752225"><ele>781.0</ele><time>2010-05-16T11:57:01Z</time></trkpt>
<trkpt lat="48.174859" lon="8.752443"><ele>783.0</ele><time>2010-05-16T11:57:10Z</time></trkpt>
<trkpt lat="48.174690" lon="8.752640"><ele>784.0</ele><time>2010-05-16T11:57:18Z</time></trkpt>
<trkpt lat="48.174533" lon="8.752805"><ele>784.0</ele><time>2010-05-16T11:57:26Z</time></trkpt>
<trkpt lat="48.174340" lon="8.752978"><ele>786.0</ele><time>2010-05-16T11:57:35Z</time></trkpt>
<trkpt lat="48.174146" lon="8.753136"><ele>787.0</ele><time>2010-05-16T11:57:44Z</time></trkpt>
<trkpt lat="48.173944" lon="8.753297"><ele>788.0</ele><time>2010-05-16T11:57:53Z</time></trkpt>
<trkpt lat="48.173737" lon="8.753480"><ele>788.0</ele><time>2010-05-16T11:58:02Z</time></trkpt>
<trkpt lat="48.173536" lon="8.753663"><ele>788.0</ele><time>2010-05-16T11:58:11Z</time></trkpt>
<trkpt lat="48.173366" lon="8.753819"><ele>785.0</ele><time>2010-05-16T11:58:20Z</time></trkpt>
<trkpt lat="48.173194" lon="8.753984"><ele>786.0</ele><time>2010-05-16T11:58:29Z</time></trkpt>
<trkpt lat="48.173004" lon="8.754106"><ele>785.0</ele><time>2010-05-16T11:58:38Z</time></trkpt>
<trkpt lat="48.172839" lon="8.754190"><ele>784.0</ele><time>2010-05-16T11:58:47Z</time></trkpt>
<trkpt lat="48.172677" lon="8.754292"><ele>785.0</ele><time>2010-05-16T11:58:57Z</time></trkpt>
<trkpt lat="48.172506" lon="8.754359"><ele>786.0</ele><time>2010-05-16T11:59:07Z</time></trkpt>
<trkpt lat="48.172341" lon="8.754426"><ele>788.0</ele><time>2010-05-16T11:59:18Z</time></trkpt>
<trkpt lat="48.172180" lon="8.754504"><ele>792.0</ele><time>2010-05-16T11:59:29Z</time></trkpt>
<trkpt lat="48.172004" lon="8.754537"><ele>795.0</ele><time>2010-05-16T11:59:39Z</time></trkpt>
<trkpt lat="48.171831" lon="8.754570"><ele>797.0</ele><time>2010-05-16T11:59:50Z</time></trkpt>
<trkpt lat="48.171665" lon="8.754619"><ele>799.0</ele><time>2010-05-16T12:00:01Z</time></trkpt>
<trkpt lat="48.171500" lon="8.754693"><ele>804.0</ele><time>2010-05-16T12:00:10Z</time></trkpt>
<trkpt lat="48.171331" lon="8.754758"><ele>808.0</ele><time>2010-05-16T12:00:20Z</time></trkpt>
<trkpt lat="48.171163" lon="8.754823"><ele>810.0</ele><time>2010-05-16T12:00:32Z</time></trkpt>
<trkpt lat="48.170997" lon="8.754911"><ele>810.0</ele><time>2010-05-16T12:00:46Z</time></trkpt>
<trkpt lat="48.170825" lon="8.754960"><ele>808.0</ele><time>2010-05-16T12:01:00Z</time></trkpt>
<trkpt lat="48.170661" lon="8.754994"><ele>806.0</ele><time>2010-05-16T12:01:13Z</time></trkpt>
<trkpt lat="48.170490" lon="8.755011"><ele>807.0</ele><time>2010-05-16T12:01:24Z</time></trkpt>
<trkpt lat="48.170318" lon="8.755078"><ele>809.0</ele><time>2010-05-16T12:01:36Z</time></trkpt>
<trkpt lat="48.170145" lon="8.755135"><ele>816.0</ele><time>2010-05-16T12:01:45Z</time></trkpt>
<trkpt lat="48.169987" lon="8.755220"><ele>824.0</ele><time>2010-05-16T12:02:02Z</time></trkpt>
<trkpt lat="48.169869" lon="8.755413"><ele>830.0</ele><time>2010-05-16T12:02:15Z</time></trkpt>
<trkpt lat="48.169793" lon="8.755643"><ele>834.0</ele><time>2010-05-16T12:02:31Z</time></trkpt>
<trkpt lat="48.169750" lon="8.755902"><ele>840.0</ele><time>2010-05-16T12:02:45Z</time></trkpt>
<trkpt lat="48.169711" lon="8.756161"><ele>842.0</ele><time>2010-05-16T12:02:59Z</time></trkpt>
<trkpt lat="48.169651" lon="8.756407"><ele>844.0</ele><time>2010-05-16T12:03:13Z</time></trkpt>
<trkpt lat="48.169657" lon="8.756670"><ele>851.0</ele><time>2010-05-16T12:03:34Z</time></trkpt>
<trkpt lat="48.169609" lon="8.756928"><ele>852.0</ele><time>2010-05-16T12:03:51Z</time></trkpt>
<trkpt lat="48.169534" lon="8.757157"><ele>852.0</ele><time>2010-05-16T12:04:06Z</time></trkpt>
<trkpt lat="48.169500" lon="8.757409"><ele>851.0</ele><time>2010-05-16T12:04:19Z</time></trkpt>
<trkpt lat="48.169456" lon="8.757667"><ele>853.0</ele><time>2010-05-16T12:04:29Z</time></trkpt>
<trkpt lat="48.169484" lon="8.757922"><ele>857.0</ele><time>2010-05-16T12:04:45Z</time></trkpt>
<trkpt lat="48.169619" lon="8.758098"><ele>858.0</ele><time>2010-05-16T12:05:06Z</time></trkpt>
<trkpt lat="48.169789" lon="8.758173"><ele>859.0</ele><time>2010-05-16T12:05:23Z</time></trkpt>
<trkpt lat="48.169962" lon="8.758240"><ele>857.0</ele><time>2010-05-16T12:05:35Z</time></trkpt>
<trkpt lat="48.170136" lon="8.758304"><ele>855.0</ele><time>2010-05-16T12:05:53Z</time></trkpt>
<trkpt lat="48.170300" lon="8.758384"><ele>854.0</ele><time>2010-05-16T12:06:11Z</time></trkpt>
<trkpt lat="48.170472" lon="8.758443"><ele>852.0</ele><time>2010-05-16T12:06:28Z</time></trkpt>
<trkpt lat="48.170628" lon="8.758576"><ele>859.0</ele><time>2010-05-16T12:06:44Z</time></trkpt>
<trkpt lat="48.170582" lon="8.758833"><ele>859.0</ele><time>2010-05-16T12:07:02Z</time></trkpt>
<trkpt lat="48.170577" lon="8.759088"><ele>857.0</ele><time>2010-05-16T12:07:19Z</time></trkpt>
<trkpt lat="48.170577" lon="8.759340"><ele>870.0</ele><time>2010-05-16T12:07:31Z</time></trkpt>
<trkpt lat="48.170543" lon="8.759596"><ele>868.0</ele><time>2010-05-16T12:07:43Z</time></trkpt>
<trkpt lat="48.170544" lon="8.759864"><ele>863.0</ele><time>2010-05-16T12:07:57Z</time></trkpt>
<trkpt lat="48.170562" lon="8.760109"><ele>861.0</ele><time>2010-05-16T12:08:14Z</time></trkpt>
<trkpt lat="48.170520" lon="8.760367"><ele>871.0</ele><time>2010-05-16T12:08:24Z</time></trkpt>
<trkpt lat="48.170475" lon="8.760622"><ele>876.0</ele><time>2010-05-16T12:08:37Z</time></trkpt>
<trkpt lat="48.170464" lon="8.760881"><ele>880.0</ele><time>2010-05-16T12:08:51Z</time></trkpt>
<trkpt lat="48.170511" lon="8.761116"><ele>881.0</ele><time>2010-05-16T12:09:01Z</time></trkpt>
<trkpt lat="48.170607" lon="8.761378"><ele>881.0</ele><time>2010-05-16T12:09:10Z</time></trkpt>
<trkpt lat="48.170669" lon="8.761640"><ele>885.0</ele><time>2010-05-16T12:09:19Z</time></trkpt>
<trkpt lat="48.170748" lon="8.761869"><ele>884.0</ele><time>2010-05-16T12:09:32Z</time></trkpt>
<trkpt lat="48.170847" lon="8.762071"><ele>883.0</ele><time>2010-05-16T12:09:44Z</time></trkpt>
<trkpt lat="48.170915" lon="8.762300"><ele>884.0</ele><time>2010-05-16T12:09:58Z</time></trkpt>
<trkpt lat="48.171005" lon="8.762522"><ele>885.0</ele><time>2010-05-16T12:10:13Z</time></trkpt>
<trkpt lat="48.171092" lon="8.762750"><ele>887.0</ele><time>2010-05-16T12:10:27Z</time></trkpt>
<trkpt lat="48.171107" lon="8.763014"><ele>890.0</ele><time>2010-05-16T12:10:38Z</time></trkpt>
<trkpt lat="48.171021" lon="8.763240"><ele>897.0</ele><time>2010-05-16T12:12:57Z</time></trkpt>
<trkpt lat="48.170853" lon="8.763310"><ele>898.0</ele><time>2010-05-16T12:13:10Z</time></trkpt>
<trkpt lat="48.170692" lon="8.763367"><ele>900.0</ele><time>2010-05-16T12:13:21Z</time></trkpt>
<trkpt lat="48.170544" lon="8.763383"><ele>901.0</ele><time>2010-05-16T12:13:32Z</time></trkpt>
<trkpt lat="48.170374" lon="8.763429"><ele>903.0</ele><time>2010-05-16T12:13:41Z</time></trkpt>
<trkpt lat="48.170197" lon="8.763443"><ele>904.0</ele><time>2010-05-16T12:13:51Z</time></trkpt>
<trkpt lat="48.170012" lon="8.763476"><ele>905.0</ele><time>2010-05-16T12:14:00Z</time></trkpt>
<trkpt lat="48.169817" lon="8.763494"><ele>906.0</ele><time>2010-05-16T12:14:09Z</time></trkpt>
<trkpt lat="48.169633" lon="8.763526"><ele>907.0</ele><time>2010-05-16T12:14:18Z</time></trkpt>
<trkpt lat="48.169446" lon="8.763529"><ele>908.0</ele><time>2010-05-16T12:14:27Z</time></trkpt>
<trkpt lat="48.169280" lon="8.763498"><ele>909.0</ele><time>2010-05-16T12:14:36Z</time></trkpt>
<trkpt lat="48.169116" lon="8.763402"><ele>910.0</ele><time>2010-05-16T12:14:50Z</time></trkpt>
<trkpt lat="48.168969" lon="8.763279"><ele>911.0</ele><time>2010-05-16T12:15:04Z</time></trkpt>
<trkpt lat="48.168830" lon="8.763145"><ele>913.0</ele><time>2010-05-16T12:15:17Z</time></trkpt>
<trkpt lat="48.168691" lon="8.763004"><ele>915.0</ele><time>2010-05-16T12:15:31Z</time></trkpt>
<trkpt lat="48.168550" lon="8.762874"><ele>916.0</ele><time>2010-05-16T12:15:46Z</time></trkpt>
<trkpt lat="48.168400" lon="8.762745"><ele>916.0</ele><time>2010-05-16T12:16:00Z</time></trkpt>
<trkpt lat="48.168256" lon="8.762585"><ele>917.0</ele><time>2010-05-16T12:16:14Z</time></trkpt>
<trkpt lat="48.168107" lon="8.762450"><ele>917.0</ele><time>2010-05-16T12:16:30Z</time></trkpt>
<trkpt lat="48.167965" lon="8.762313"><ele>916.0</ele><time>2010-05-16T12:16:45Z</time></trkpt>
<trkpt lat="48.167812" lon="8.762174"><ele>918.0</ele><time>2010-05-16T12:16:59Z</time></trkpt>
<trkpt lat="48.167671" lon="8.762013"><ele>918.0</ele><time>2010-05-16T12:17:14Z</time></trkpt>
<trkpt lat="48.167528" lon="8.761851"><ele>919.0</ele><time>2010-05-16T12:17:28Z</time></trkpt>
<trkpt lat="48.167393" lon="8.761688"><ele>922.0</ele><time>2010-05-16T12:17:41Z</time></trkpt>
<trkpt lat="48.167251" lon="8.761534"><ele>925.0</ele><time>2010-05-16T12:17:58Z</time></trkpt>
<trkpt lat="48.167121" lon="8.761350"><ele>932.0</ele><time>2010-05-16T12:18:16Z</time></trkpt>
<trkpt lat="48.167028" lon="8.761131"><ele>936.0</ele><time>2010-05-16T12:18:47Z</time></trkpt>
<trkpt lat="48.166929" lon="8.760914"><ele>943.0</ele><time>2010-05-16T12:18:56Z</time></trkpt>
<trkpt lat="48.166820" lon="8.760724"><ele>939.0</ele><time>2010-05-16T12:19:10Z</time></trkpt>
<trkpt lat="48.166727" lon="8.760505"><ele>943.0</ele><time>2010-05-16T12:19:21Z</time></trkpt>
<trkpt lat="48.166603" lon="8.760325"><ele>936.0</ele><time>2010-05-16T12:19:41Z</time></trkpt>
<trkpt lat="48.166457" lon="8.760201"><ele>931.0</ele><time>2010-05-16T12:19:59Z</time></trkpt>
<trkpt lat="48.166308" lon="8.760084"><ele>928.0</ele><time>2010-05-16T12:20:08Z</time></trkpt>
<trkpt lat="48.166097" lon="8.759817"><ele>934.0</ele><time>2010-05-16T12:20:17Z</time></trkpt>
<trkpt lat="48.165962" lon="8.759677"><ele>930.0</ele><time>2010-05-16T12:20:27Z</time></trkpt>
<trkpt lat="48.165857" lon="8.759461"><ele>925.0</ele><time>2010-05-16T12:20:37Z</time></trkpt>
<trkpt lat="48.165747" lon="8.759251"><ele>922.0</ele><time>2010-05-16T12:20:48Z</time></trkpt>
<trkpt lat="48.165575" lon="8.759014"><ele>916.0</ele><time>2010-05-16T12:20:57Z</time></trkpt>
<trkpt lat="48.165463" lon="8.758763"><ele>916.0</ele><time>2010-05-16T12:21:06Z</time></trkpt>
<trkpt lat="48.165286" lon="8.758524"><ele>915.0</ele><time>2010-05-16T12:21:15Z</time></trkpt>
<trkpt lat="48.165050" lon="8.758174"><ele>919.0</ele><time>2010-05-16T12:21:24Z</time></trkpt>
<trkpt lat="48.164842" lon="8.757844"><ele>918.0</ele><time>2010-05-16T12:21:33Z</time></trkpt>
<trkpt lat="48.164762" lon="8.757566"><ele>919.0</ele><time>2010-05-16T12:21:42Z</time></trkpt>
<trkpt lat="48.164720" lon="8.757289"><ele>911.0</ele><time>2010-05-16T12:21:49Z</time></trkpt>
<trkpt lat="48.164646" lon="8.756996"><ele>912.0</ele><time>2010-05-16T12:21:58Z</time></trkpt>
<trkpt lat="48.164470" lon="8.756547"><ele>914.0</ele><time>2010-05-16T12:22:07Z</time></trkpt>
<trkpt lat="48.164211" lon="8.756074"><ele>920.0</ele><time>2010-05-16T12:22:16Z</time></trkpt>
<trkpt lat="48.164021" lon="8.755732"><ele>914.0</ele><time>2010-05-16T12:22:25Z</time></trkpt>
<trkpt lat="48.163867" lon="8.755453"><ele>909.0</ele><time>2010-05-16T12:22:34Z</time></trkpt>
<trkpt lat="48.163632" lon="8.754990"><ele>925.0</ele><time>2010-05-16T12:22:43Z</time></trkpt>
<trkpt lat="48.163539" lon="8.754782"><ele>915.0</ele><time>2010-05-16T12:22:52Z</time></trkpt>
<trkpt lat="48.163347" lon="8.754511"><ele>906.0</ele><time>2010-05-16T12:23:01Z</time></trkpt>
<trkpt lat="48.163142" lon="8.754222"><ele>900.0</ele><time>2010-05-16T12:23:10Z</time></trkpt>
<trkpt lat="48.162860" lon="8.753811"><ele>904.0</ele><time>2010-05-16T12:23:19Z</time></trkpt>
<trkpt lat="48.162542" lon="8.753433"><ele>908.0</ele><time>2010-05-16T12:23:28Z</time></trkpt>
<trkpt lat="48.162283" lon="8.753192"><ele>905.0</ele><time>2010-05-16T12:23:37Z</time></trkpt>
<trkpt lat="48.162009" lon="8.753061"><ele>911.0</ele><time>2010-05-16T12:23:46Z</time></trkpt>
<trkpt lat="48.161732" lon="8.752691"><ele>936.0</ele><time>2010-05-16T12:23:55Z</time></trkpt>
<trkpt lat="48.161508" lon="8.752579"><ele>944.0</ele><time>2010-05-16T12:24:04Z</time></trkpt>
<trkpt lat="48.161309" lon="8.752577"><ele>944.0</ele><time>2010-05-16T12:24:13Z</time></trkpt>
<trkpt lat="48.161138" lon="8.752585"><ele>943.0</ele><time>2010-05-16T12:24:22Z</time></trkpt>
<trkpt lat="48.160959" lon="8.752591"><ele>942.0</ele><time>2010-05-16T12:24:33Z</time></trkpt>
<trkpt lat="48.160797" lon="8.752636"><ele>944.0</ele><time>2010-05-16T12:24:45Z</time></trkpt>
<trkpt lat="48.160634" lon="8.752741"><ele>939.0</ele><time>2010-05-16T12:24:56Z</time></trkpt>
<trkpt lat="48.160492" lon="8.752824"><ele>931.0</ele><time>2010-05-16T12:25:06Z</time></trkpt>
<trkpt lat="48.160297" lon="8.752938"><ele>939.0</ele><time>2010-05-16T12:25:15Z</time></trkpt>
<trkpt lat="48.160145" lon="8.753077"><ele>936.0</ele><time>2010-05-16T12:25:25Z</time></trkpt>
<trkpt lat="48.159936" lon="8.753213"><ele>934.0</ele><time>2010-05-16T12:25:34Z</time></trkpt>
<trkpt lat="48.159596" lon="8.753351"><ele>935.0</ele><time>2010-05-16T12:25:43Z</time></trkpt>
<trkpt lat="48.159303" lon="8.753401"><ele>938.0</ele><time>2010-05-16T12:25:52Z</time></trkpt>
<trkpt lat="48.158787" lon="8.753534"><ele>942.0</ele><time>2010-05-16T12:26:01Z</time></trkpt>
<trkpt lat="48.158532" lon="8.753565"><ele>944.0</ele><time>2010-05-16T12:26:10Z</time></trkpt>
<trkpt lat="48.158300" lon="8.753661"><ele>949.0</ele><time>2010-05-16T12:26:19Z</time></trkpt>
<trkpt lat="48.158127" lon="8.753690"><ele>952.0</ele><time>2010-05-16T12:26:29Z</time></trkpt>
<trkpt lat="48.157963" lon="8.753716"><ele>959.0</ele><time>2010-05-16T12:26:41Z</time></trkpt>
<trkpt lat="48.157818" lon="8.753731"><ele>960.0</ele><time>2010-05-16T12:26:52Z</time></trkpt>
<trkpt lat="48.157630" lon="8.753768"><ele>956.0</ele><time>2010-05-16T12:27:01Z</time></trkpt>
<trkpt lat="48.157458" lon="8.753793"><ele>953.0</ele><time>2010-05-16T12:27:11Z</time></trkpt>
<trkpt lat="48.157205" lon="8.753757"><ele>953.0</ele><time>2010-05-16T12:27:20Z</time></trkpt>
<trkpt lat="48.157023" lon="8.753738"><ele>954.0</ele><time>2010-05-16T12:27:29Z</time></trkpt>
<trkpt lat="48.156822" lon="8.753702"><ele>952.0</ele><time>2010-05-16T12:27:38Z</time></trkpt>
<trkpt lat="48.156583" lon="8.753714"><ele>954.0</ele><time>2010-05-16T12:27:47Z</time></trkpt>
<trkpt lat="48.156329" lon="8.753765"><ele>960.0</ele><time>2010-05-16T12:27:56Z</time></trkpt>
<trkpt lat="48.156161" lon="8.753786"><ele>965.0</ele><time>2010-05-16T12:28:05Z</time></trkpt>
<trkpt lat="48.155987" lon="8.753825"><ele>966.0</ele><time>2010-05-16T12:28:14Z</time></trkpt>
<trkpt lat="48.155816" lon="8.753866"><ele>966.0</ele><time>2010-05-16T12:28:26Z</time></trkpt>
<trkpt lat="48.155650" lon="8.753873"><ele>968.0</ele><time>2010-05-16T12:28:37Z</time></trkpt>
<trkpt lat="48.155473" lon="8.753904"><ele>967.0</ele><time>2010-05-16T12:28:49Z</time></trkpt>
<trkpt lat="48.155290" lon="8.753896"><ele>975.0</ele><time>2010-05-16T12:28:58Z</time></trkpt>
<trkpt lat="48.155055" lon="8.753913"><ele>976.0</ele><time>2010-05-16T12:29:07Z</time></trkpt>
<trkpt lat="48.154772" lon="8.753852"><ele>986.0</ele><time>2010-05-16T12:29:16Z</time></trkpt>
<trkpt lat="48.154523" lon="8.753819"><ele>980.0</ele><time>2010-05-16T12:29:25Z</time></trkpt>
<trkpt lat="48.154152" lon="8.753661"><ele>970.0</ele><time>2010-05-16T12:29:34Z</time></trkpt>
<trkpt lat="48.153632" lon="8.753464"><ele>969.0</ele><time>2010-05-16T12:29:43Z</time></trkpt>
<trkpt lat="48.153485" lon="8.753787"><ele>967.0</ele><time>2010-05-16T12:29:52Z</time></trkpt>
<trkpt lat="48.153361" lon="8.754258"><ele>967.0</ele><time>2010-05-16T12:30:01Z</time></trkpt>
<trkpt lat="48.153167" lon="8.754685"><ele>966.0</ele><time>2010-05-16T12:30:09Z</time></trkpt>
<trkpt lat="48.152936" lon="8.755020"><ele>965.0</ele><time>2010-05-16T12:30:18Z</time></trkpt>
<trkpt lat="48.152342" lon="8.755175"><ele>965.0</ele><time>2010-05-16T12:30:27Z</time></trkpt>
<trkpt lat="48.151639" lon="8.755338"><ele>963.0</ele><time>2010-05-16T12:30:36Z</time></trkpt>
<trkpt lat="48.150960" lon="8.755579"><ele>962.0</ele><time>2010-05-16T12:30:45Z</time></trkpt>
<trkpt lat="48.150468" lon="8.755697"><ele>964.0</ele><time>2010-05-16T12:30:54Z</time></trkpt>
<trkpt lat="48.150060" lon="8.755636"><ele>961.0</ele><time>2010-05-16T12:31:03Z</time></trkpt>
<trkpt lat="48.149664" lon="8.755467"><ele>958.0</ele><time>2010-05-16T12:31:12Z</time></trkpt>
<trkpt lat="48.149275" lon="8.755327"><ele>953.0</ele><time>2010-05-16T12:31:21Z</time></trkpt>
<trkpt lat="48.148856" lon="8.754902"><ele>950.0</ele><time>2010-05-16T12:31:30Z</time></trkpt>
<trkpt lat="48.148377" lon="8.754498"><ele>947.0</ele><time>2010-05-16T12:31:39Z</time></trkpt>
<trkpt lat="48.147885" lon="8.754232"><ele>943.0</ele><time>2010-05-16T12:31:47Z</time></trkpt>
<trkpt lat="48.147239" lon="8.753496"><ele>933.0</ele><time>2010-05-16T12:31:56Z</time></trkpt>
<trkpt lat="48.146738" lon="8.752486"><ele>937.0</ele><time>2010-05-16T12:32:05Z</time></trkpt>
<trkpt lat="48.146384" lon="8.751748"><ele>936.0</ele><time>2010-05-16T12:32:14Z</time></trkpt>
<trkpt lat="48.146088" lon="8.751064"><ele>932.0</ele><time>2010-05-16T12:32:23Z</time></trkpt>
<trkpt lat="48.145806" lon="8.750585"><ele>932.0</ele><time>2010-05-16T12:32:32Z</time></trkpt>
<trkpt lat="48.145578" lon="8.750186"><ele>931.0</ele><time>2010-05-16T12:32:41Z</time></trkpt>
<trkpt lat="48.145333" lon="8.749639"><ele>928.0</ele><time>2010-05-16T12:32:50Z</time></trkpt>
<trkpt lat="48.145205" lon="8.749240"><ele>919.0</ele><time>2010-05-16T12:32:59Z</time></trkpt>
<trkpt lat="48.145022" lon="8.748796"><ele>914.0</ele><time>2010-05-16T12:33:08Z</time></trkpt>
<trkpt lat="48.144731" lon="8.748040"><ele>910.0</ele><time>2010-05-16T12:33:17Z</time></trkpt>
<trkpt lat="48.144309" lon="8.747809"><ele>905.0</ele><time>2010-05-16T12:33:26Z</time></trkpt>
<trkpt lat="48.143787" lon="8.747983"><ele>901.0</ele><time>2010-05-16T12:33:35Z</time></trkpt>
<trkpt lat="48.142909" lon="8.748181"><ele>892.0</ele><time>2010-05-16T12:33:44Z</time></trkpt>
<trkpt lat="48.141913" lon="8.748765"><ele>887.0</ele><time>2010-05-16T12:33:53Z</time></trkpt>
<trkpt lat="48.141129" lon="8.749199"><ele>889.0</ele><time>2010-05-16T12:34:02Z</time></trkpt>
<trkpt lat="48.140590" lon="8.749286"><ele>891.0</ele><time>2010-05-16T12:34:11Z</time></trkpt>
<trkpt lat="48.140162" lon="8.749249"><ele>892.0</ele><time>2010-05-16T12:34:20Z</time></trkpt>
<trkpt lat="48.139842" lon="8.749119"><ele>893.0</ele><time>2010-05-16T12:34:29Z</time></trkpt>
<trkpt lat="48.139763" lon="8.748819"><ele>893.0</ele><time>2010-05-16T12:34:38Z</time></trkpt>
<trkpt lat="48.139480" lon="8.748753"><ele>894.0</ele><time>2010-05-16T12:34:47Z</time></trkpt>
<trkpt lat="48.139159" lon="8.748770"><ele>895.0</ele><time>2010-05-16T12:34:56Z</time></trkpt>
<trkpt lat="48.138783" lon="8.748752"><ele>894.0</ele><time>2010-05-16T12:35:05Z</time></trkpt>
<trkpt lat="48.138542" lon="8.748373"><ele>893.0</ele><time>2010-05-16T12:35:14Z</time></trkpt>
<trkpt lat="48.138477" lon="8.747960"><ele>895.0</ele><time>2010-05-16T12:35:23Z</time></trkpt>
<trkpt lat="48.138531" lon="8.747955"><ele>897.0</ele><time>2010-05-16T12:35:59Z</time></trkpt>
</trkseg>
</trk>
</gpx>
